Time,TemperatureF,DewpointF,PressureIn,WindDirection,WindDirectionDegrees,WindSpeedMPH,WindSpeedGustMPH,Humidity,HourlyPrecipIn,Conditions,Clouds,dailyrainin,SoftwareType,DateUTC
2013-07-12 00:00:00,74.7,74.7,29.87,SE,128,0.0,0.0,100,0.00,,---,0.01,VWS V14.01,2013-07-12 04:00:00,
2013-07-12 00:01:00,74.7,74.7,29.87,SE,128,0.0,0.0,100,0.00,,---,0.01,VWS V14.01,2013-07-12 04:01:00,
2013-07-12 00:02:00,74.9,74.9,29.87,SE,128,0.0,0.0,100,0.00,,---,0.00,VWS V14.01,2013-07-12 04:02:00,
2013-07-12 00:03:00,74.9,74.9,29.87,SE,128,0.0,0.0,100,0.00,,---,0.00,VWS V14.01,2013-07-12 04:03:00,
2013-07-12 00:04:00,74.9,74.9,29.87,SE,128,0.0,0.0,100,0.00,,---,0.00,VWS V14.01,2013-07-12 04:04:00,
2013-07-12 00:05:00,74.9,74.9,29.87,SE,128,0.0,0.0,100,0.00,,---,0.00,VWS V14.01,2013-07-12 04:05:00,
2013-07-12 00:06:00,74.9,74.9,29.87,SE,128,0.0,0.0,100,0.00,,---,0.00,VWS V14.01,2013-07-12 04:06:00,
2013-07-12 00:07:00,74.9,74.9,29.87,SE,128,0.0,0.0,100,0.00,,---,0.00,VWS V14.01,2013-07-12 04:07:00,
2013-07-12 00:08:00,75.1,75.1,29.87,SE,128,0.0,0.0,100,0.00,,---,0.00,VWS V14.01,2013-07-12 04:08:00,
2013-07-12 00:09:00,75.1,75.1,29.87,SE,128,0.0,0.0,100,0.00,,---,0.00,VWS V14.01,2013-07-12 04:09:00,
2013-07-12 00:10:00,75.1,75.1,29.87,SE,128,0.0,0.0,100,0.00,,---,0.00,VWS V14.01,2013-07-12 04:10:00,
2013-07-12 00:11:00,75.1,75.1,29.87,SE,128,0.0,0.0,100,0.00,,---,0.00,VWS V14.01,2013-07-12 04:11:00,
2013-07-12 00:12:00,75.3,75.3,29.87,SE,128,0.0,0.0,100,0.00,,---,0.00,VWS V14.01,2013-07-12 04:12:00,
2013-07-12 00:13:00,75.3,75.3,29.87,SE,128,0.0,0.0,100,0.00,,---,0.00,VWS V14.01,2013-07-12 04:13:00,
2013-07-12 00:14:00,75.3,75.3,29.87,SE,128,0.0,0.0,100,0.00,,---,0.00,VWS V14.01,2013-07-12 04:14:00,
2013-07-12 00:15:00,75.3,75.3,29.86,SE,128,0.0,0.0,100,0.00,,---,0.00,VWS V14.01,2013-07-12 04:15:00,
2013-07-12 00:16:00,75.3,75.3,29.86,SE,128,0.0,0.0,100,0.00,,---,0.00,VWS V14.01,2013-07-12 04:16:00,
2013-07-12 00:17:00,75.3,75.3,29.86,SE,128,0.0,0.0,100,0.00,,---,0.00,VWS V14.01,2013-07-12 04:17:00,
2013-07-12 00:18:00,75.3,75.3,29.86,SE,128,0.0,0.0,100,0.00,,---,0.00,VWS V14.01,2013-07-12 04:18:00,
2013-07-12 00:19:00,75.3,75.3,29.86,SE,128,0.0,0.0,100,0.00,,---,0.00,VWS V14.01,2013-07-12 04:19:00,
2013-07-12 00:20:00,75.4,75.4,29.86,SE,128,0.0,0.0,100,0.00,,---,0.00,VWS V14.01,2013-07-12 04:20:00,
2013-07-12 00:21:00,75.4,75.4,29.86,SE,128,0.0,0.0,100,0.00,,---,0.00,VWS V14.01,2013-07-12 04:21:00,
2013-07-12 00:22:00,75.4,75.4,29.86,SE,128,0.0,0.0,100,0.00,,---,0.00,VWS V14.01,2013-07-12 04:22:00,
2013-07-12 00:23:00,75.4,75.4,29.86,SE,128,0.0,0.0,100,0.00,,---,0.00,VWS V14.01,2013-07-12 04:23:00,
2013-07-12 00:24:00,75.4,75.4,29.86,SE,128,0.0,0.0,100,0.00,,---,0.00,VWS V14.01,2013-07-12 04:24:00,
2013-07-12 00:25:00,75.4,75.4,29.86,SE,128,0.0,0.0,100,0.00,,---,0.00,VWS V14.01,2013-07-12 04:25:00,
2013-07-12 00:26:00,75.4,75.4,29.86,SE,128,0.0,0.0,100,0.00,,---,0.00,VWS V14.01,2013-07-12 04:26:00,
2013-07-12 00:27:00,75.4,75.4,29.86,SE,128,0.0,0.0,100,0.00,,---,0.00,VWS V14.01,2013-07-12 04:27:00,
2013-07-12 00:28:00,75.4,75.4,29.86,SE,128,0.0,0.0,100,0.00,,---,0.00,VWS V14.01,2013-07-12 04:28:00,
2013-07-12 00:29:00,75.3,75.3,29.86,SE,128,0.0,0.0,100,0.00,,---,0.00,VWS V14.01,2013-07-12 04:29:00,
2013-07-12 00:30:00,75.3,75.3,29.87,SE,128,0.0,0.0,100,0.00,,---,0.00,VWS V14.01,2013-07-12 04:30:00,
2013-07-12 00:31:00,75.3,75.3,29.87,SE,128,0.0,0.0,100,0.00,,---,0.00,VWS V14.01,2013-07-12 04:31:00,
2013-07-12 00:32:00,75.3,75.3,29.87,SE,128,0.0,0.0,100,0.00,,---,0.00,VWS V14.01,2013-07-12 04:32:00,
2013-07-12 00:33:00,75.3,75.3,29.87,SE,128,0.0,0.0,100,0.00,,---,0.00,VWS V14.01,2013-07-12 04:33:00,
2013-07-12 00:34:00,75.3,75.3,29.87,SE,128,0.0,0.0,100,0.00,,---,0.00,VWS V14.01,2013-07-12 04:34:00,
2013-07-12 00:35:00,75.1,75.1,29.87,SE,128,0.0,0.0,100,0.00,,---,0.00,VWS V14.01,2013-07-12 04:35:00,
2013-07-12 00:36:00,75.1,75.1,29.87,SE,128,0.0,0.0,100,0.00,,---,0.00,VWS V14.01,2013-07-12 04:36:00,
2013-07-12 00:37:00,75.1,75.1,29.87,SE,128,0.0,0.0,100,0.00,,---,0.00,VWS V14.01,2013-07-12 04:37:00,
2013-07-12 00:38:00,75.1,75.1,29.87,SE,128,0.0,0.0,100,0.00,,---,0.00,VWS V14.01,2013-07-12 04:38:00,
2013-07-12 00:39:00,74.9,74.9,29.87,SE,128,0.0,0.0,100,0.00,,---,0.00,VWS V14.01,2013-07-12 04:39:00,
2013-07-12 00:40:00,74.9,74.9,29.87,SE,128,0.0,0.0,100,0.00,,---,0.00,VWS V14.01,2013-07-12 04:40:00,
2013-07-12 00:41:00,74.9,74.9,29.87,SE,128,0.0,0.0,100,0.00,,---,0.00,VWS V14.01,2013-07-12 04:41:00,
2013-07-12 00:42:00,74.7,74.7,29.87,SE,128,0.0,0.0,100,0.00,,---,0.00,VWS V14.01,2013-07-12 04:42:00,
2013-07-12 00:43:00,74.7,74.7,29.87,SE,128,0.0,0.0,100,0.00,,---,0.00,VWS V14.01,2013-07-12 04:43:00,
2013-07-12 00:44:00,74.7,74.7,29.87,SE,128,0.0,0.0,100,0.00,,---,0.00,VWS V14.01,2013-07-12 04:44:00,
2013-07-12 00:45:00,74.7,74.7,29.86,SE,128,0.0,0.0,100,0.00,,---,0.00,VWS V14.01,2013-07-12 04:45:00,
2013-07-12 00:46:00,74.7,74.7,29.86,SE,128,0.0,0.0,100,0.00,,---,0.00,VWS V14.01,2013-07-12 04:46:00,
2013-07-12 00:47:00,74.6,74.6,29.86,SE,128,0.0,0.0,100,0.00,,---,0.00,VWS V14.01,2013-07-12 04:47:00,
2013-07-12 00:48:00,74.6,74.6,29.86,SE,128,0.0,0.0,100,0.00,,---,0.00,VWS V14.01,2013-07-12 04:48:00,
2013-07-12 00:49:00,74.6,74.6,29.86,SE,128,0.0,0.0,100,0.00,,---,0.00,VWS V14.01,2013-07-12 04:49:00,
2013-07-12 00:50:00,74.6,74.6,29.86,SE,128,0.0,0.0,100,0.00,,---,0.00,VWS V14.01,2013-07-12 04:50:00,
2013-07-12 00:51:00,74.6,74.6,29.86,SE,128,0.0,0.0,100,0.00,,---,0.00,VWS V14.01,2013-07-12 04:51:00,
2013-07-12 00:52:00,74.6,74.6,29.86,SE,128,0.0,0.0,100,0.00,,---,0.00,VWS V14.01,2013-07-12 04:52:00,
2013-07-12 00:53:00,74.6,74.6,29.86,SE,128,0.0,0.0,100,0.00,,---,0.00,VWS V14.01,2013-07-12 04:53:00,
2013-07-12 00:54:00,74.6,74.6,29.86,SE,128,0.0,0.0,100,0.00,,---,0.00,VWS V14.01,2013-07-12 04:54:00,
2013-07-12 00:55:00,74.6,74.6,29.86,SE,128,0.0,0.0,100,0.00,,---,0.00,VWS V14.01,2013-07-12 04:55:00,
2013-07-12 00:56:00,74.6,74.6,29.86,SE,128,0.0,0.0,100,0.00,,---,0.00,VWS V14.01,2013-07-12 04:56:00,
2013-07-12 00:57:00,74.6,74.6,29.86,SE,128,0.0,0.0,100,0.00,,---,0.00,VWS V14.01,2013-07-12 04:57:00,
2013-07-12 00:58:00,74.6,74.6,29.86,SE,128,0.0,0.0,100,0.00,,---,0.00,VWS V14.01,2013-07-12 04:58:00,
2013-07-12 00:59:00,74.6,74.6,29.86,SE,128,0.0,0.0,100,0.00,,---,0.00,VWS V14.01,2013-07-12 04:59:00,
2013-07-12 01:00:00,74.6,74.6,29.86,SE,128,0.0,0.0,100,0.00,,---,0.00,VWS V14.01,2013-07-12 05:00:00,
2013-07-12 01:01:00,74.6,74.6,29.86,SE,128,0.0,0.0,100,0.00,,---,0.00,VWS V14.01,2013-07-12 05:01:00,
2013-07-12 01:02:00,74.6,74.6,29.86,SE,128,0.0,0.0,100,0.00,,---,0.00,VWS V14.01,2013-07-12 05:02:00,
2013-07-12 01:03:00,74.6,74.6,29.86,SE,128,0.0,0.0,100,0.00,,---,0.00,VWS V14.01,2013-07-12 05:03:00,
2013-07-12 01:04:00,74.6,74.6,29.86,SE,128,0.0,0.0,100,0.00,,---,0.00,VWS V14.01,2013-07-12 05:04:00,
2013-07-12 01:05:00,74.6,74.6,29.86,SE,128,0.0,0.0,100,0.00,,---,0.00,VWS V14.01,2013-07-12 05:05:00,
2013-07-12 01:06:00,74.6,74.6,29.86,SE,128,0.0,0.0,100,0.00,,---,0.00,VWS V14.01,2013-07-12 05:06:00,
2013-07-12 01:07:00,74.6,74.6,29.86,SE,128,0.0,0.0,100,0.00,,---,0.00,VWS V14.01,2013-07-12 05:07:00,
2013-07-12 01:08:00,74.6,74.6,29.86,SE,128,0.0,0.0,100,0.00,,---,0.00,VWS V14.01,2013-07-12 05:08:00,
2013-07-12 01:09:00,74.6,74.6,29.86,SE,128,0.0,0.0,100,0.00,,---,0.00,VWS V14.01,2013-07-12 05:09:00,
2013-07-12 01:10:00,74.6,74.6,29.86,SE,128,0.0,0.0,100,0.00,,---,0.00,VWS V14.01,2013-07-12 05:10:00,
2013-07-12 01:11:00,74.4,74.4,29.86,SE,128,0.0,0.0,100,0.00,,---,0.00,VWS V14.01,2013-07-12 05:11:00,
2013-07-12 01:12:00,74.4,74.4,29.86,SE,128,0.0,0.0,100,0.00,,---,0.00,VWS V14.01,2013-07-12 05:12:00,
2013-07-12 01:13:00,74.4,74.4,29.86,SE,128,0.0,0.0,100,0.00,,---,0.00,VWS V14.01,2013-07-12 05:13:00,
2013-07-12 01:14:00,74.4,74.4,29.86,SE,128,0.0,0.0,100,0.00,,---,0.00,VWS V14.01,2013-07-12 05:14:00,
2013-07-12 01:15:00,74.4,74.4,29.86,SE,128,0.0,0.0,100,0.00,,---,0.00,VWS V14.01,2013-07-12 05:15:00,
2013-07-12 01:16:00,74.2,74.2,29.86,SE,128,0.0,0.0,100,0.00,,---,0.00,VWS V14.01,2013-07-12 05:16:00,
2013-07-12 01:17:00,74.2,74.2,29.86,SE,128,0.0,0.0,100,0.00,,---,0.00,VWS V14.01,2013-07-12 05:17:00,
2013-07-12 01:18:00,74.2,74.2,29.86,SE,128,0.0,0.0,100,0.00,,---,0.00,VWS V14.01,2013-07-12 05:18:00,
2013-07-12 01:19:00,74.2,74.2,29.86,SE,128,0.0,0.0,100,0.00,,---,0.00,VWS V14.01,2013-07-12 05:19:00,
2013-07-12 01:20:00,74.2,74.2,29.86,SE,128,0.0,0.0,100,0.00,,---,0.00,VWS V14.01,2013-07-12 05:20:00,
2013-07-12 01:21:00,74.2,74.2,29.86,SE,128,0.0,0.0,100,0.00,,---,0.00,VWS V14.01,2013-07-12 05:21:00,
2013-07-12 01:22:00,74.2,74.2,29.86,SE,128,0.0,0.0,100,0.00,,---,0.00,VWS V14.01,2013-07-12 05:22:00,
2013-07-12 01:23:00,74.2,74.2,29.86,SE,128,0.0,0.0,100,0.00,,---,0.00,VWS V14.01,2013-07-12 05:23:00,
2013-07-12 01:24:00,74.2,74.2,29.86,SE,128,0.0,0.0,100,0.00,,---,0.00,VWS V14.01,2013-07-12 05:24:00,
2013-07-12 01:25:00,74.2,74.2,29.86,SE,128,0.0,0.0,100,0.00,,---,0.00,VWS V14.01,2013-07-12 05:25:00,
2013-07-12 01:26:00,74.2,74.2,29.86,SE,128,0.0,0.0,100,0.00,,---,0.00,VWS V14.01,2013-07-12 05:26:00,
2013-07-12 01:27:00,74.2,74.2,29.86,SE,128,0.0,0.0,100,0.00,,---,0.00,VWS V14.01,2013-07-12 05:27:00,
2013-07-12 01:28:00,74.2,74.2,29.86,SE,128,0.0,0.0,100,0.00,,---,0.00,VWS V14.01,2013-07-12 05:28:00,
2013-07-12 01:29:00,74.2,74.2,29.86,SE,128,0.0,0.0,100,0.00,,---,0.00,VWS V14.01,2013-07-12 05:29:00,
2013-07-12 01:30:00,74.2,74.2,29.85,SE,128,0.0,0.0,100,0.00,,---,0.00,VWS V14.01,2013-07-12 05:30:00,
2013-07-12 01:31:00,74.2,74.2,29.85,SE,128,0.0,0.0,100,0.00,,---,0.00,VWS V14.01,2013-07-12 05:31:00,
2013-07-12 01:32:00,74.2,74.2,29.85,SE,128,0.0,0.0,100,0.00,,---,0.00,VWS V14.01,2013-07-12 05:32:00,
2013-07-12 01:33:00,74.0,74.0,29.85,SE,128,0.0,0.0,100,0.00,,---,0.00,VWS V14.01,2013-07-12 05:33:00,
2013-07-12 01:34:00,74.0,74.0,29.85,SE,128,0.0,0.0,100,0.00,,---,0.00,VWS V14.01,2013-07-12 05:34:00,
2013-07-12 01:35:00,74.0,74.0,29.85,SE,128,0.0,0.0,100,0.00,,---,0.00,VWS V14.01,2013-07-12 05:35:00,
2013-07-12 01:36:00,74.0,74.0,29.85,SE,128,0.0,0.0,100,0.00,,---,0.00,VWS V14.01,2013-07-12 05:36:00,
2013-07-12 01:37:00,74.0,74.0,29.85,ESE,122,0.0,0.0,100,0.00,,---,0.00,VWS V14.01,2013-07-12 05:37:00,
2013-07-12 01:38:00,74.0,72.2,29.85,ESE,122,0.0,0.0,94,0.00,,---,0.00,VWS V14.01,2013-07-12 05:38:00,
2013-07-12 01:39:00,74.0,72.2,29.85,ESE,122,0.0,0.0,94,0.00,,---,0.00,VWS V14.01,2013-07-12 05:39:00,
2013-07-12 01:40:00,74.0,72.2,29.85,ESE,122,0.0,0.0,94,0.00,,---,0.00,VWS V14.01,2013-07-12 05:40:00,
2013-07-12 01:41:00,73.9,72.1,29.85,ESE,122,0.0,0.0,94,0.00,,---,0.00,VWS V14.01,2013-07-12 05:41:00,
2013-07-12 01:42:00,73.9,72.1,29.85,ESE,122,0.0,0.0,94,0.00,,---,0.00,VWS V14.01,2013-07-12 05:42:00,
2013-07-12 01:43:00,74.0,72.2,29.85,ESE,122,0.0,0.0,94,0.00,,---,0.00,VWS V14.01,2013-07-12 05:43:00,
2013-07-12 01:44:00,74.0,72.2,29.85,ESE,122,0.0,0.0,94,0.00,,---,0.00,VWS V14.01,2013-07-12 05:44:00,
2013-07-12 01:45:00,74.0,72.2,29.85,ESE,122,0.0,0.0,94,0.00,,---,0.00,VWS V14.01,2013-07-12 05:45:00,
2013-07-12 01:46:00,73.9,72.1,29.85,ESE,122,0.0,0.0,94,0.00,,---,0.00,VWS V14.01,2013-07-12 05:46:00,
2013-07-12 01:47:00,73.9,72.1,29.85,ESE,122,0.0,0.0,94,0.00,,---,0.00,VWS V14.01,2013-07-12 05:47:00,
2013-07-12 01:48:00,73.9,72.1,29.85,ESE,122,0.0,0.0,94,0.00,,---,0.00,VWS V14.01,2013-07-12 05:48:00,
2013-07-12 01:49:00,73.9,72.1,29.85,ESE,122,0.0,0.0,94,0.00,,---,0.00,VWS V14.01,2013-07-12 05:49:00,
2013-07-12 01:50:00,73.9,72.1,29.85,ESE,122,0.0,0.0,94,0.00,,---,0.00,VWS V14.01,2013-07-12 05:50:00,
2013-07-12 01:51:00,73.9,72.1,29.85,ESE,122,0.0,0.0,94,0.00,,---,0.00,VWS V14.01,2013-07-12 05:51:00,
2013-07-12 01:52:00,73.9,72.1,29.85,ESE,122,0.0,0.0,94,0.00,,---,0.00,VWS V14.01,2013-07-12 05:52:00,
2013-07-12 01:53:00,73.9,72.1,29.85,ESE,122,0.0,0.0,94,0.00,,---,0.00,VWS V14.01,2013-07-12 05:53:00,
2013-07-12 01:54:00,73.9,72.1,29.85,ESE,122,0.0,0.0,94,0.00,,---,0.00,VWS V14.01,2013-07-12 05:54:00,
2013-07-12 01:55:00,73.8,72.0,29.85,ESE,122,0.0,0.0,94,0.00,,---,0.00,VWS V14.01,2013-07-12 05:55:00,
2013-07-12 01:56:00,73.8,72.0,29.85,ESE,122,0.0,0.0,94,0.00,,---,0.00,VWS V14.01,2013-07-12 05:56:00,
2013-07-12 01:57:00,73.8,72.0,29.85,ESE,122,0.0,0.0,94,0.00,,---,0.00,VWS V14.01,2013-07-12 05:57:00,
2013-07-12 01:58:00,73.7,71.9,29.85,ESE,122,0.0,0.0,94,0.00,,---,0.00,VWS V14.01,2013-07-12 05:58:00,
2013-07-12 01:59:00,73.7,71.9,29.85,ESE,122,0.0,0.0,94,0.00,,---,0.00,VWS V14.01,2013-07-12 05:59:00,
2013-07-12 02:00:00,73.7,71.9,29.85,ESE,122,0.0,0.0,94,0.00,,---,0.00,VWS V14.01,2013-07-12 06:00:00,
2013-07-12 02:01:00,73.7,71.9,29.85,ESE,122,0.0,0.0,94,0.00,,---,0.00,VWS V14.01,2013-07-12 06:01:00,
2013-07-12 02:02:00,73.6,71.8,29.85,ESE,122,0.0,0.0,94,0.00,,---,0.00,VWS V14.01,2013-07-12 06:02:00,
2013-07-12 02:03:00,73.5,71.7,29.85,ESE,122,0.0,0.0,94,0.00,,---,0.00,VWS V14.01,2013-07-12 06:03:00,
2013-07-12 02:04:00,73.5,71.7,29.85,ESE,122,0.0,0.0,94,0.00,,---,0.00,VWS V14.01,2013-07-12 06:04:00,
2013-07-12 02:05:00,73.4,71.3,29.85,ESE,122,0.0,0.0,93,0.00,,---,0.00,VWS V14.01,2013-07-12 06:05:00,
2013-07-12 02:06:00,73.4,71.3,29.85,ESE,122,0.0,0.0,93,0.00,,---,0.00,VWS V14.01,2013-07-12 06:06:00,
2013-07-12 02:07:00,73.3,71.5,29.85,ESE,122,0.0,0.0,94,0.00,,---,0.00,VWS V14.01,2013-07-12 06:07:00,
2013-07-12 02:08:00,73.3,71.5,29.85,ESE,122,0.0,0.0,94,0.00,,---,0.00,VWS V14.01,2013-07-12 06:08:00,
2013-07-12 02:09:00,73.3,71.5,29.85,ESE,122,0.0,0.0,94,0.00,,---,0.00,VWS V14.01,2013-07-12 06:09:00,
2013-07-12 02:10:00,73.3,71.5,29.85,ESE,122,0.0,0.0,94,0.00,,---,0.00,VWS V14.01,2013-07-12 06:10:00,
2013-07-12 02:11:00,73.3,71.5,29.85,ESE,122,0.0,0.0,94,0.00,,---,0.00,VWS V14.01,2013-07-12 06:11:00,
2013-07-12 02:12:00,73.3,71.5,29.85,ESE,122,0.0,0.0,94,0.00,,---,0.00,VWS V14.01,2013-07-12 06:12:00,
2013-07-12 02:13:00,73.3,71.5,29.85,ESE,122,0.0,0.0,94,0.00,,---,0.00,VWS V14.01,2013-07-12 06:13:00,
2013-07-12 02:14:00,73.3,71.5,29.85,ESE,122,0.0,0.0,94,0.00,,---,0.00,VWS V14.01,2013-07-12 06:14:00,
2013-07-12 02:15:00,73.2,71.4,29.84,ESE,122,0.0,0.0,94,0.00,,---,0.00,VWS V14.01,2013-07-12 06:15:00,
2013-07-12 02:16:00,73.3,71.5,29.84,ESE,122,0.0,0.0,94,0.00,,---,0.00,VWS V14.01,2013-07-12 06:16:00,
2013-07-12 02:17:00,73.3,71.5,29.84,ESE,122,0.0,0.0,94,0.00,,---,0.00,VWS V14.01,2013-07-12 06:17:00,
2013-07-12 02:18:00,73.2,71.4,29.84,ESE,122,0.0,0.0,94,0.00,,---,0.00,VWS V14.01,2013-07-12 06:18:00,
2013-07-12 02:19:00,73.3,71.5,29.84,ESE,122,0.0,0.0,94,0.00,,---,0.00,VWS V14.01,2013-07-12 06:19:00,
2013-07-12 02:20:00,73.3,71.5,29.84,ESE,122,0.0,0.0,94,0.00,,---,0.00,VWS V14.01,2013-07-12 06:20:00,
2013-07-12 02:21:00,73.2,71.4,29.84,ESE,122,0.0,0.0,94,0.00,,---,0.00,VWS V14.01,2013-07-12 06:21:00,
2013-07-12 02:22:00,73.2,71.4,29.84,ESE,122,0.0,0.0,94,0.00,,---,0.00,VWS V14.01,2013-07-12 06:22:00,
2013-07-12 02:23:00,73.2,71.4,29.84,ESE,122,0.0,0.0,94,0.00,,---,0.00,VWS V14.01,2013-07-12 06:23:00,
2013-07-12 02:24:00,73.2,71.4,29.84,ESE,122,0.0,0.0,94,0.00,,---,0.00,VWS V14.01,2013-07-12 06:24:00,
2013-07-12 02:25:00,73.2,71.4,29.84,ESE,122,0.0,0.0,94,0.00,,---,0.00,VWS V14.01,2013-07-12 06:25:00,
2013-07-12 02:26:00,73.2,71.4,29.84,ESE,122,0.0,0.0,94,0.00,,---,0.00,VWS V14.01,2013-07-12 06:26:00,
2013-07-12 02:27:00,73.2,71.4,29.84,ESE,122,0.0,0.0,94,0.00,,---,0.00,VWS V14.01,2013-07-12 06:27:00,
2013-07-12 02:28:00,73.1,71.3,29.84,ESE,122,0.0,0.0,94,0.00,,---,0.00,VWS V14.01,2013-07-12 06:28:00,
2013-07-12 02:29:00,73.1,71.3,29.84,ESE,122,0.0,0.0,94,0.00,,---,0.00,VWS V14.01,2013-07-12 06:29:00,
2013-07-12 02:30:00,73.2,71.4,29.84,ESE,122,0.0,0.0,94,0.00,,---,0.00,VWS V14.01,2013-07-12 06:30:00,
2013-07-12 02:31:00,73.1,71.3,29.84,ESE,122,0.0,0.0,94,0.00,,---,0.00,VWS V14.01,2013-07-12 06:31:00,
2013-07-12 02:32:00,73.1,71.3,29.84,ESE,122,0.0,0.0,94,0.00,,---,0.00,VWS V14.01,2013-07-12 06:32:00,
2013-07-12 02:33:00,73.1,71.3,29.84,ESE,122,0.0,0.0,94,0.00,,---,0.00,VWS V14.01,2013-07-12 06:33:00,
2013-07-12 02:34:00,73.1,71.3,29.84,ESE,122,0.0,0.0,94,0.00,,---,0.00,VWS V14.01,2013-07-12 06:34:00,
2013-07-12 02:35:00,73.1,71.3,29.84,ESE,122,0.0,0.0,94,0.00,,---,0.00,VWS V14.01,2013-07-12 06:35:00,
2013-07-12 02:36:00,73.0,71.2,29.84,ESE,122,0.0,0.0,94,0.00,,---,0.00,VWS V14.01,2013-07-12 06:36:00,
2013-07-12 02:37:00,73.0,71.2,29.84,ESE,122,0.0,0.0,94,0.00,,---,0.00,VWS V14.01,2013-07-12 06:37:00,
2013-07-12 02:38:00,73.0,71.2,29.84,ESE,122,0.0,0.0,94,0.00,,---,0.00,VWS V14.01,2013-07-12 06:38:00,
2013-07-12 02:39:00,73.0,71.2,29.84,ESE,122,0.0,0.0,94,0.00,,---,0.00,VWS V14.01,2013-07-12 06:39:00,
2013-07-12 02:40:00,72.9,71.1,29.84,ESE,122,0.0,0.0,94,0.00,,---,0.00,VWS V14.01,2013-07-12 06:40:00,
2013-07-12 02:41:00,72.9,71.1,29.84,ESE,122,0.0,0.0,94,0.00,,---,0.00,VWS V14.01,2013-07-12 06:41:00,
2013-07-12 02:42:00,72.9,71.1,29.84,ESE,122,0.0,0.0,94,0.00,,---,0.00,VWS V14.01,2013-07-12 06:42:00,
2013-07-12 02:43:00,72.8,71.0,29.84,ESE,122,0.0,0.0,94,0.00,,---,0.00,VWS V14.01,2013-07-12 06:43:00,
2013-07-12 02:44:00,72.8,71.0,29.84,ESE,122,0.0,0.0,94,0.00,,---,0.00,VWS V14.01,2013-07-12 06:44:00,
2013-07-12 02:45:00,72.8,71.0,29.84,ESE,122,0.0,0.0,94,0.00,,---,0.00,VWS V14.01,2013-07-12 06:45:00,
2013-07-12 02:46:00,72.7,70.9,29.84,ESE,122,0.0,0.0,94,0.00,,---,0.00,VWS V14.01,2013-07-12 06:46:00,
2013-07-12 02:47:00,72.7,70.9,29.84,ESE,122,0.0,0.0,94,0.00,,---,0.00,VWS V14.01,2013-07-12 06:47:00,
2013-07-12 02:48:00,72.7,70.9,29.84,ESE,122,0.0,0.0,94,0.00,,---,0.00,VWS V14.01,2013-07-12 06:48:00,
2013-07-12 02:49:00,72.7,70.9,29.84,ESE,122,0.0,0.0,94,0.00,,---,0.00,VWS V14.01,2013-07-12 06:49:00,
2013-07-12 02:50:00,72.7,70.9,29.84,ESE,122,0.0,0.0,94,0.00,,---,0.00,VWS V14.01,2013-07-12 06:50:00,
2013-07-12 02:51:00,72.7,70.9,29.84,ESE,122,0.0,0.0,94,0.00,,---,0.00,VWS V14.01,2013-07-12 06:51:00,
2013-07-12 02:52:00,72.7,70.9,29.84,ESE,122,0.0,0.0,94,0.00,,---,0.00,VWS V14.01,2013-07-12 06:52:00,
2013-07-12 02:53:00,72.6,70.8,29.84,ESE,122,0.0,0.0,94,0.00,,---,0.00,VWS V14.01,2013-07-12 06:53:00,
2013-07-12 02:54:00,72.5,70.7,29.84,ESE,122,0.0,0.0,94,0.00,,---,0.00,VWS V14.01,2013-07-12 06:54:00,
2013-07-12 02:55:00,72.5,70.7,29.84,ESE,122,0.0,0.0,94,0.00,,---,0.00,VWS V14.01,2013-07-12 06:55:00,
2013-07-12 02:56:00,72.4,70.6,29.84,ESE,122,0.0,0.0,94,0.00,,---,0.00,VWS V14.01,2013-07-12 06:56:00,
2013-07-12 02:57:00,72.4,70.6,29.84,ESE,122,0.0,0.0,94,0.00,,---,0.00,VWS V14.01,2013-07-12 06:57:00,
2013-07-12 02:58:00,72.3,70.5,29.84,ESE,122,0.0,0.0,94,0.00,,---,0.00,VWS V14.01,2013-07-12 06:58:00,
2013-07-12 02:59:00,72.3,70.5,29.84,ESE,122,0.0,0.0,94,0.00,,---,0.00,VWS V14.01,2013-07-12 06:59:00,
2013-07-12 03:00:00,72.3,70.5,29.84,ESE,122,0.0,0.0,94,0.00,,---,0.00,VWS V14.01,2013-07-12 07:00:00,
2013-07-12 03:01:00,72.2,70.4,29.84,ESE,122,0.0,0.0,94,0.00,,---,0.00,VWS V14.01,2013-07-12 07:01:00,
2013-07-12 03:02:00,72.2,70.4,29.84,ESE,122,0.0,0.0,94,0.00,,---,0.00,VWS V14.01,2013-07-12 07:02:00,
2013-07-12 03:03:00,72.2,70.4,29.84,ESE,122,0.0,0.0,94,0.00,,---,0.00,VWS V14.01,2013-07-12 07:03:00,
2013-07-12 03:04:00,72.2,70.7,29.84,ESE,122,0.0,0.0,95,0.00,,---,0.00,VWS V14.01,2013-07-12 07:04:00,
2013-07-12 03:05:00,72.1,70.3,29.84,ESE,122,0.0,0.0,94,0.00,,---,0.00,VWS V14.01,2013-07-12 07:05:00,
2013-07-12 03:06:00,72.1,70.3,29.84,ESE,122,0.0,0.0,94,0.00,,---,0.00,VWS V14.01,2013-07-12 07:06:00,
2013-07-12 03:07:00,72.1,70.3,29.84,ESE,122,0.0,0.0,94,0.00,,---,0.00,VWS V14.01,2013-07-12 07:07:00,
2013-07-12 03:08:00,72.1,70.3,29.84,ESE,122,0.0,0.0,94,0.00,,---,0.00,VWS V14.01,2013-07-12 07:08:00,
2013-07-12 03:09:00,72.0,70.2,29.84,ESE,122,0.0,0.0,94,0.00,,---,0.00,VWS V14.01,2013-07-12 07:09:00,
2013-07-12 03:10:00,72.0,70.2,29.84,ESE,122,0.0,0.0,94,0.00,,---,0.00,VWS V14.01,2013-07-12 07:10:00,
2013-07-12 03:11:00,72.0,70.2,29.84,ESE,122,0.0,0.0,94,0.00,,---,0.00,VWS V14.01,2013-07-12 07:11:00,
2013-07-12 03:12:00,72.0,70.2,29.84,ESE,122,0.0,0.0,94,0.00,,---,0.00,VWS V14.01,2013-07-12 07:12:00,
2013-07-12 03:13:00,72.0,70.2,29.84,ESE,122,0.0,0.0,94,0.00,,---,0.00,VWS V14.01,2013-07-12 07:13:00,
2013-07-12 03:14:00,72.0,70.5,29.84,ESE,122,0.0,0.0,95,0.00,,---,0.00,VWS V14.01,2013-07-12 07:14:00,
2013-07-12 03:15:00,72.0,70.5,29.84,ESE,122,0.0,0.0,95,0.00,,---,0.00,VWS V14.01,2013-07-12 07:15:00,
2013-07-12 03:16:00,72.0,70.5,29.84,ESE,122,0.0,0.0,95,0.00,,---,0.00,VWS V14.01,2013-07-12 07:16:00,
2013-07-12 03:17:00,72.0,70.5,29.84,ESE,122,0.0,0.0,95,0.00,,---,0.00,VWS V14.01,2013-07-12 07:17:00,
2013-07-12 03:18:00,72.0,70.5,29.84,ESE,122,0.0,0.0,95,0.00,,---,0.00,VWS V14.01,2013-07-12 07:18:00,
2013-07-12 03:19:00,72.0,70.5,29.84,ESE,122,0.0,0.0,95,0.00,,---,0.00,VWS V14.01,2013-07-12 07:19:00,
2013-07-12 03:20:00,72.0,70.5,29.84,ESE,122,0.0,0.0,95,0.00,,---,0.00,VWS V14.01,2013-07-12 07:20:00,
2013-07-12 03:21:00,72.0,70.5,29.84,ESE,122,0.0,0.0,95,0.00,,---,0.00,VWS V14.01,2013-07-12 07:21:00,
2013-07-12 03:22:00,72.0,70.5,29.84,ESE,122,0.0,0.0,95,0.00,,---,0.00,VWS V14.01,2013-07-12 07:22:00,
2013-07-12 03:23:00,72.0,70.5,29.84,ESE,122,0.0,0.0,95,0.00,,---,0.00,VWS V14.01,2013-07-12 07:23:00,
2013-07-12 03:24:00,72.0,70.5,29.84,ESE,122,0.0,0.0,95,0.00,,---,0.00,VWS V14.01,2013-07-12 07:24:00,
2013-07-12 03:25:00,72.0,70.5,29.84,ESE,122,0.0,0.0,95,0.00,,---,0.00,VWS V14.01,2013-07-12 07:25:00,
2013-07-12 03:26:00,72.0,70.5,29.84,ESE,122,0.0,0.0,95,0.00,,---,0.00,VWS V14.01,2013-07-12 07:26:00,
2013-07-12 03:27:00,72.0,70.5,29.84,ESE,122,0.0,0.0,95,0.00,,---,0.00,VWS V14.01,2013-07-12 07:27:00,
2013-07-12 03:28:00,72.0,70.5,29.84,ESE,122,0.0,0.0,95,0.00,,---,0.00,VWS V14.01,2013-07-12 07:28:00,
2013-07-12 03:29:00,72.0,70.5,29.84,ESE,122,0.0,0.0,95,0.00,,---,0.00,VWS V14.01,2013-07-12 07:29:00,
2013-07-12 03:30:00,72.0,70.5,29.83,ESE,122,0.0,0.0,95,0.00,,---,0.00,VWS V14.01,2013-07-12 07:30:00,
2013-07-12 03:31:00,72.0,70.5,29.83,ESE,122,0.0,0.0,95,0.00,,---,0.00,VWS V14.01,2013-07-12 07:31:00,
2013-07-12 03:32:00,72.0,70.5,29.83,ESE,122,0.0,0.0,95,0.00,,---,0.00,VWS V14.01,2013-07-12 07:32:00,
2013-07-12 03:33:00,72.0,70.5,29.83,ESE,122,0.0,0.0,95,0.00,,---,0.00,VWS V14.01,2013-07-12 07:33:00,
2013-07-12 03:34:00,72.0,70.5,29.83,ESE,122,0.0,0.0,95,0.00,,---,0.00,VWS V14.01,2013-07-12 07:34:00,
2013-07-12 03:35:00,72.0,70.5,29.83,ESE,122,0.0,0.0,95,0.00,,---,0.00,VWS V14.01,2013-07-12 07:35:00,
2013-07-12 03:36:00,71.9,70.4,29.83,ESE,122,0.0,0.0,95,0.00,,---,0.00,VWS V14.01,2013-07-12 07:36:00,
2013-07-12 03:37:00,71.9,70.4,29.83,ESE,122,0.0,0.0,95,0.00,,---,0.00,VWS V14.01,2013-07-12 07:37:00,
2013-07-12 03:38:00,71.9,70.4,29.83,ESE,122,0.0,0.0,95,0.00,,---,0.00,VWS V14.01,2013-07-12 07:38:00,
2013-07-12 03:39:00,71.9,70.4,29.83,ESE,122,0.0,0.0,95,0.00,,---,0.00,VWS V14.01,2013-07-12 07:39:00,
2013-07-12 03:40:00,71.8,70.3,29.83,ESE,122,0.0,0.0,95,0.00,,---,0.00,VWS V14.01,2013-07-12 07:40:00,
2013-07-12 03:41:00,71.8,70.3,29.83,ESE,122,0.0,0.0,95,0.00,,---,0.00,VWS V14.01,2013-07-12 07:41:00,
2013-07-12 03:42:00,71.8,70.0,29.83,ESE,122,0.0,0.0,94,0.00,,---,0.00,VWS V14.01,2013-07-12 07:42:00,
2013-07-12 03:43:00,71.7,70.2,29.83,ESE,122,0.0,0.0,95,0.00,,---,0.00,VWS V14.01,2013-07-12 07:43:00,
2013-07-12 03:44:00,71.7,70.2,29.83,ESE,122,0.0,0.0,95,0.00,,---,0.00,VWS V14.01,2013-07-12 07:44:00,
2013-07-12 03:45:00,71.7,70.2,29.82,ESE,122,0.0,0.0,95,0.00,,---,0.00,VWS V14.01,2013-07-12 07:45:00,
2013-07-12 03:46:00,71.6,70.1,29.82,ESE,122,0.0,0.0,95,0.00,,---,0.00,VWS V14.01,2013-07-12 07:46:00,
2013-07-12 03:47:00,71.6,70.1,29.82,ESE,122,0.0,0.0,95,0.00,,---,0.00,VWS V14.01,2013-07-12 07:47:00,
2013-07-12 03:48:00,71.6,70.1,29.82,ESE,122,0.0,0.0,95,0.00,,---,0.00,VWS V14.01,2013-07-12 07:48:00,
2013-07-12 03:49:00,71.6,70.1,29.82,ESE,122,0.0,0.0,95,0.00,,---,0.00,VWS V14.01,2013-07-12 07:49:00,
2013-07-12 03:50:00,71.6,70.1,29.82,ESE,122,0.0,0.0,95,0.00,,---,0.00,VWS V14.01,2013-07-12 07:50:00,
2013-07-12 03:51:00,71.6,70.1,29.82,ESE,122,0.0,0.0,95,0.00,,---,0.00,VWS V14.01,2013-07-12 07:51:00,
2013-07-12 03:52:00,71.6,70.1,29.82,ESE,122,0.0,0.0,95,0.00,,---,0.00,VWS V14.01,2013-07-12 07:52:00,
2013-07-12 03:53:00,71.7,70.2,29.82,ESE,122,0.0,0.0,95,0.00,,---,0.00,VWS V14.01,2013-07-12 07:53:00,
2013-07-12 03:54:00,71.7,70.2,29.82,ESE,122,0.0,0.0,95,0.00,,---,0.00,VWS V14.01,2013-07-12 07:54:00,
2013-07-12 03:55:00,71.7,70.2,29.82,ESE,122,0.0,0.0,95,0.00,,---,0.00,VWS V14.01,2013-07-12 07:55:00,
2013-07-12 03:56:00,71.7,70.2,29.82,ESE,122,0.0,0.0,95,0.00,,---,0.00,VWS V14.01,2013-07-12 07:56:00,
2013-07-12 03:57:00,71.7,70.2,29.82,ESE,122,0.0,0.0,95,0.00,,---,0.00,VWS V14.01,2013-07-12 07:57:00,
2013-07-12 03:58:00,71.6,70.1,29.82,ESE,122,0.0,0.0,95,0.00,,---,0.00,VWS V14.01,2013-07-12 07:58:00,
2013-07-12 03:59:00,71.6,70.1,29.82,ESE,122,0.0,0.0,95,0.00,,---,0.00,VWS V14.01,2013-07-12 07:59:00,
2013-07-12 04:00:00,71.6,70.1,29.82,ESE,122,0.0,0.0,95,0.00,,---,0.00,VWS V14.01,2013-07-12 08:00:00,
2013-07-12 04:01:00,71.6,70.1,29.82,ESE,122,0.0,0.0,95,0.00,,---,0.00,VWS V14.01,2013-07-12 08:01:00,
2013-07-12 04:02:00,71.5,70.0,29.82,ESE,122,0.0,0.0,95,0.00,,---,0.00,VWS V14.01,2013-07-12 08:02:00,
2013-07-12 04:03:00,71.5,70.0,29.82,ESE,122,0.0,0.0,95,0.00,,---,0.00,VWS V14.01,2013-07-12 08:03:00,
2013-07-12 04:04:00,71.5,70.0,29.82,ESE,122,0.0,0.0,95,0.00,,---,0.00,VWS V14.01,2013-07-12 08:04:00,
2013-07-12 04:05:00,71.5,70.0,29.82,ESE,122,0.0,0.0,95,0.00,,---,0.00,VWS V14.01,2013-07-12 08:05:00,
2013-07-12 04:06:00,71.1,69.6,29.82,SE,128,0.0,0.0,95,0.00,,---,0.00,VWS V14.01,2013-07-12 08:06:00,
2013-07-12 04:07:00,71.1,69.6,29.82,SE,128,0.0,0.0,95,0.00,,---,0.00,VWS V14.01,2013-07-12 08:07:00,
2013-07-12 04:08:00,71.3,71.3,29.82,SE,128,0.0,0.0,100,0.00,,---,0.00,VWS V14.01,2013-07-12 08:08:00,
2013-07-12 04:09:00,71.3,71.3,29.82,SE,128,0.0,0.0,100,0.00,,---,0.00,VWS V14.01,2013-07-12 08:09:00,
2013-07-12 04:10:00,71.3,71.3,29.82,SE,128,0.0,0.0,100,0.00,,---,0.00,VWS V14.01,2013-07-12 08:10:00,
2013-07-12 04:11:00,71.3,71.3,29.82,SE,128,0.0,0.0,100,0.00,,---,0.00,VWS V14.01,2013-07-12 08:11:00,
2013-07-12 04:12:00,71.3,71.3,29.82,SE,128,0.0,0.0,100,0.00,,---,0.00,VWS V14.01,2013-07-12 08:12:00,
2013-07-12 04:13:00,71.3,71.3,29.82,SE,128,0.0,0.0,100,0.00,,---,0.00,VWS V14.01,2013-07-12 08:13:00,
2013-07-12 04:14:00,71.3,71.3,29.82,SE,128,0.0,0.0,100,0.00,,---,0.00,VWS V14.01,2013-07-12 08:14:00,
2013-07-12 04:15:00,71.3,71.3,29.82,SE,128,0.0,0.0,100,0.00,,---,0.00,VWS V14.01,2013-07-12 08:15:00,
2013-07-12 04:16:00,71.3,71.3,29.82,SE,128,0.0,0.0,100,0.00,,---,0.00,VWS V14.01,2013-07-12 08:16:00,
2013-07-12 04:17:00,71.3,71.3,29.82,SE,128,0.0,0.0,100,0.00,,---,0.00,VWS V14.01,2013-07-12 08:17:00,
2013-07-12 04:18:00,71.3,71.3,29.82,SE,128,0.0,0.0,100,0.00,,---,0.00,VWS V14.01,2013-07-12 08:18:00,
2013-07-12 04:19:00,71.3,71.3,29.82,SE,128,0.0,0.0,100,0.00,,---,0.00,VWS V14.01,2013-07-12 08:19:00,
2013-07-12 04:20:00,71.3,71.3,29.82,SE,128,0.0,0.0,100,0.00,,---,0.00,VWS V14.01,2013-07-12 08:20:00,
2013-07-12 04:21:00,71.3,71.3,29.82,SE,128,0.0,0.0,100,0.00,,---,0.00,VWS V14.01,2013-07-12 08:21:00,
2013-07-12 04:22:00,71.1,71.1,29.82,SE,128,0.0,0.0,100,0.00,,---,0.00,VWS V14.01,2013-07-12 08:22:00,
2013-07-12 04:23:00,71.1,71.1,29.82,SE,128,0.0,0.0,100,0.00,,---,0.00,VWS V14.01,2013-07-12 08:23:00,
2013-07-12 04:24:00,71.1,71.1,29.82,SE,128,0.0,0.0,100,0.00,,---,0.00,VWS V14.01,2013-07-12 08:24:00,
2013-07-12 04:25:00,71.1,71.1,29.82,SE,128,0.0,0.0,100,0.00,,---,0.00,VWS V14.01,2013-07-12 08:25:00,
2013-07-12 04:26:00,71.1,71.1,29.82,SE,128,0.0,0.0,100,0.00,,---,0.00,VWS V14.01,2013-07-12 08:26:00,
2013-07-12 04:27:00,71.1,71.1,29.82,SE,128,0.0,0.0,100,0.00,,---,0.00,VWS V14.01,2013-07-12 08:27:00,
2013-07-12 04:28:00,71.1,71.1,29.82,SE,128,0.0,0.0,100,0.00,,---,0.00,VWS V14.01,2013-07-12 08:28:00,
2013-07-12 04:29:00,71.1,71.1,29.82,SE,128,0.0,0.0,100,0.00,,---,0.00,VWS V14.01,2013-07-12 08:29:00,
2013-07-12 04:30:00,71.1,71.1,29.82,SE,128,0.0,0.0,100,0.00,,---,0.00,VWS V14.01,2013-07-12 08:30:00,
2013-07-12 04:31:00,71.1,71.1,29.82,SE,128,0.0,0.0,100,0.00,,---,0.00,VWS V14.01,2013-07-12 08:31:00,
2013-07-12 04:32:00,71.1,71.1,29.82,SE,128,0.0,0.0,100,0.00,,---,0.00,VWS V14.01,2013-07-12 08:32:00,
2013-07-12 04:33:00,71.1,71.1,29.82,SE,128,0.0,0.0,100,0.00,,---,0.00,VWS V14.01,2013-07-12 08:33:00,
2013-07-12 04:34:00,71.3,71.3,29.82,SE,128,0.0,0.0,100,0.00,,---,0.00,VWS V14.01,2013-07-12 08:34:00,
2013-07-12 04:35:00,71.3,71.3,29.82,SE,128,0.0,0.0,100,0.00,,---,0.00,VWS V14.01,2013-07-12 08:35:00,
2013-07-12 04:36:00,71.3,71.3,29.82,SE,128,0.0,0.0,100,0.00,,---,0.00,VWS V14.01,2013-07-12 08:36:00,
2013-07-12 04:37:00,71.1,71.1,29.82,SE,128,0.0,0.0,100,0.00,,---,0.00,VWS V14.01,2013-07-12 08:37:00,
2013-07-12 04:38:00,71.1,71.1,29.82,SE,128,0.0,0.0,100,0.00,,---,0.00,VWS V14.01,2013-07-12 08:38:00,
2013-07-12 04:39:00,71.1,71.1,29.82,SE,128,0.0,0.0,100,0.00,,---,0.00,VWS V14.01,2013-07-12 08:39:00,
2013-07-12 04:40:00,71.1,71.1,29.82,SE,128,0.0,0.0,100,0.00,,---,0.00,VWS V14.01,2013-07-12 08:40:00,
2013-07-12 04:41:00,71.1,71.1,29.82,SE,128,0.0,0.0,100,0.00,,---,0.00,VWS V14.01,2013-07-12 08:41:00,
2013-07-12 04:42:00,71.3,71.3,29.82,SE,128,0.0,0.0,100,0.00,,---,0.00,VWS V14.01,2013-07-12 08:42:00,
2013-07-12 04:43:00,71.3,71.3,29.82,SE,128,0.0,0.0,100,0.00,,---,0.00,VWS V14.01,2013-07-12 08:43:00,
2013-07-12 04:44:00,71.3,71.3,29.82,SE,128,0.0,0.0,100,0.00,,---,0.00,VWS V14.01,2013-07-12 08:44:00,
2013-07-12 04:45:00,71.3,71.3,29.83,SE,128,0.0,0.0,100,0.00,,---,0.00,VWS V14.01,2013-07-12 08:45:00,
2013-07-12 04:46:00,71.5,71.5,29.83,SE,128,0.0,0.0,100,0.00,,---,0.00,VWS V14.01,2013-07-12 08:46:00,
2013-07-12 04:47:00,71.5,71.5,29.83,SE,128,0.0,0.0,100,0.00,,---,0.00,VWS V14.01,2013-07-12 08:47:00,
2013-07-12 04:48:00,71.5,71.5,29.83,SE,128,0.0,0.0,100,0.00,,---,0.00,VWS V14.01,2013-07-12 08:48:00,
2013-07-12 04:49:00,71.5,71.5,29.83,SE,128,0.0,0.0,100,0.00,,---,0.00,VWS V14.01,2013-07-12 08:49:00,
2013-07-12 04:50:00,71.6,71.6,29.83,SE,128,0.0,0.0,100,0.00,,---,0.00,VWS V14.01,2013-07-12 08:50:00,
2013-07-12 04:51:00,71.6,71.6,29.83,SE,128,0.0,0.0,100,0.00,,---,0.00,VWS V14.01,2013-07-12 08:51:00,
2013-07-12 04:52:00,71.6,71.6,29.83,SE,128,0.0,0.0,100,0.00,,---,0.00,VWS V14.01,2013-07-12 08:52:00,
2013-07-12 04:53:00,71.8,71.8,29.83,SE,128,0.0,0.0,100,0.00,,---,0.00,VWS V14.01,2013-07-12 08:53:00,
2013-07-12 04:54:00,71.8,71.8,29.83,SE,128,0.0,0.0,100,0.00,,---,0.00,VWS V14.01,2013-07-12 08:54:00,
2013-07-12 04:55:00,71.8,71.8,29.83,SE,128,0.0,0.0,100,0.00,,---,0.00,VWS V14.01,2013-07-12 08:55:00,
2013-07-12 04:56:00,71.8,71.8,29.83,SE,128,0.0,0.0,100,0.00,,---,0.00,VWS V14.01,2013-07-12 08:56:00,
2013-07-12 04:57:00,71.8,71.8,29.83,SE,128,0.0,0.0,100,0.00,,---,0.00,VWS V14.01,2013-07-12 08:57:00,
2013-07-12 04:58:00,71.5,71.5,29.83,SE,128,0.0,0.0,100,0.00,,---,0.00,VWS V14.01,2013-07-12 08:58:00,
2013-07-12 04:59:00,72.0,72.0,29.83,SE,128,0.0,0.0,100,0.00,,---,0.00,VWS V14.01,2013-07-12 08:59:00,
2013-07-12 05:00:00,72.0,72.0,29.83,SE,128,0.0,0.0,100,0.00,,---,0.00,VWS V14.01,2013-07-12 09:00:00,
2013-07-12 05:01:00,71.8,71.8,29.83,SE,128,0.0,0.0,100,0.00,,---,0.00,VWS V14.01,2013-07-12 09:01:00,
2013-07-12 05:02:00,71.8,71.8,29.83,SE,128,0.0,0.0,100,0.00,,---,0.00,VWS V14.01,2013-07-12 09:02:00,
2013-07-12 05:03:00,71.8,71.8,29.83,SE,128,0.0,0.0,100,0.00,,---,0.00,VWS V14.01,2013-07-12 09:03:00,
2013-07-12 05:04:00,71.8,71.8,29.83,SE,128,0.0,0.0,100,0.00,,---,0.00,VWS V14.01,2013-07-12 09:04:00,
2013-07-12 05:05:00,71.8,71.8,29.83,SE,128,0.0,0.0,100,0.00,,---,0.00,VWS V14.01,2013-07-12 09:05:00,
2013-07-12 05:06:00,71.6,71.6,29.83,SE,128,0.0,0.0,100,0.00,,---,0.00,VWS V14.01,2013-07-12 09:06:00,
2013-07-12 05:07:00,71.6,71.6,29.83,SE,128,0.0,0.0,100,0.00,,---,0.00,VWS V14.01,2013-07-12 09:07:00,
2013-07-12 05:08:00,71.6,71.6,29.83,SE,128,0.0,0.0,100,0.00,,---,0.00,VWS V14.01,2013-07-12 09:08:00,
2013-07-12 05:09:00,71.6,71.6,29.83,SE,128,0.0,0.0,100,0.00,,---,0.00,VWS V14.01,2013-07-12 09:09:00,
2013-07-12 05:10:00,71.5,71.5,29.83,SE,128,0.0,0.0,100,0.00,,---,0.00,VWS V14.01,2013-07-12 09:10:00,
2013-07-12 05:11:00,71.6,71.6,29.83,SE,128,0.0,0.0,100,0.00,,---,0.00,VWS V14.01,2013-07-12 09:11:00,
2013-07-12 05:12:00,71.6,71.6,29.83,SE,128,0.0,0.0,100,0.00,,---,0.00,VWS V14.01,2013-07-12 09:12:00,
2013-07-12 05:13:00,71.6,71.6,29.83,SE,128,0.0,0.0,100,0.00,,---,0.00,VWS V14.01,2013-07-12 09:13:00,
2013-07-12 05:14:00,71.8,71.8,29.83,SE,128,0.0,0.0,100,0.00,,---,0.00,VWS V14.01,2013-07-12 09:14:00,
2013-07-12 05:15:00,71.8,71.8,29.83,SE,128,0.0,0.0,100,0.00,,---,0.00,VWS V14.01,2013-07-12 09:15:00,
2013-07-12 05:16:00,71.8,71.8,29.83,SE,128,0.0,0.0,100,0.00,,---,0.00,VWS V14.01,2013-07-12 09:16:00,
2013-07-12 05:17:00,71.8,71.8,29.83,SE,128,0.0,0.0,100,0.00,,---,0.00,VWS V14.01,2013-07-12 09:17:00,
2013-07-12 05:18:00,71.8,71.8,29.83,SE,128,0.0,0.0,100,0.00,,---,0.00,VWS V14.01,2013-07-12 09:18:00,
2013-07-12 05:19:00,71.6,71.6,29.83,SE,128,0.0,0.0,100,0.00,,---,0.00,VWS V14.01,2013-07-12 09:19:00,
2013-07-12 05:20:00,71.5,71.5,29.83,SE,128,0.0,0.0,100,0.00,,---,0.00,VWS V14.01,2013-07-12 09:20:00,
2013-07-12 05:21:00,71.3,71.3,29.83,SE,128,0.0,0.0,100,0.00,,---,0.00,VWS V14.01,2013-07-12 09:21:00,
2013-07-12 05:22:00,71.1,71.1,29.83,SE,128,0.0,0.0,100,0.00,,---,0.00,VWS V14.01,2013-07-12 09:22:00,
2013-07-12 05:23:00,71.1,71.1,29.83,SE,128,0.0,0.0,100,0.00,,---,0.00,VWS V14.01,2013-07-12 09:23:00,
2013-07-12 05:24:00,70.9,70.9,29.83,SE,128,0.0,0.0,100,0.00,,---,0.00,VWS V14.01,2013-07-12 09:24:00,
2013-07-12 05:25:00,70.9,70.9,29.83,SE,128,0.0,0.0,100,0.00,,---,0.00,VWS V14.01,2013-07-12 09:25:00,
2013-07-12 05:26:00,70.9,70.9,29.83,SE,128,0.0,0.0,100,0.00,,---,0.00,VWS V14.01,2013-07-12 09:26:00,
2013-07-12 05:27:00,70.9,70.9,29.83,SE,128,0.0,0.0,100,0.00,,---,0.00,VWS V14.01,2013-07-12 09:27:00,
2013-07-12 05:28:00,70.9,70.9,29.83,SE,128,0.0,0.0,100,0.00,,---,0.00,VWS V14.01,2013-07-12 09:28:00,
2013-07-12 05:29:00,70.9,70.9,29.83,SE,128,0.0,0.0,100,0.00,,---,0.00,VWS V14.01,2013-07-12 09:29:00,
2013-07-12 05:30:00,70.9,70.9,29.83,SE,128,0.0,0.0,100,0.00,,---,0.00,VWS V14.01,2013-07-12 09:30:00,
2013-07-12 05:31:00,70.9,70.9,29.83,SE,128,0.0,0.0,100,0.00,,---,0.00,VWS V14.01,2013-07-12 09:31:00,
2013-07-12 05:32:00,70.9,70.9,29.83,SE,128,0.0,0.0,100,0.00,,---,0.00,VWS V14.01,2013-07-12 09:32:00,
2013-07-12 05:33:00,70.9,70.9,29.83,SE,128,0.0,0.0,100,0.00,,---,0.00,VWS V14.01,2013-07-12 09:33:00,
2013-07-12 05:34:00,70.9,70.9,29.83,SE,128,0.0,0.0,100,0.00,,---,0.00,VWS V14.01,2013-07-12 09:34:00,
2013-07-12 05:35:00,71.1,71.1,29.83,SE,128,0.0,0.0,100,0.00,,---,0.00,VWS V14.01,2013-07-12 09:35:00,
2013-07-12 05:36:00,71.1,71.1,29.83,SE,128,0.0,0.0,100,0.00,,---,0.00,VWS V14.01,2013-07-12 09:36:00,
2013-07-12 05:37:00,71.3,71.3,29.83,SE,128,0.0,0.0,100,0.00,,---,0.00,VWS V14.01,2013-07-12 09:37:00,
2013-07-12 05:38:00,71.3,71.3,29.83,SE,128,0.0,0.0,100,0.00,,---,0.00,VWS V14.01,2013-07-12 09:38:00,
2013-07-12 05:39:00,71.5,71.5,29.83,SE,128,0.0,0.0,100,0.00,,---,0.00,VWS V14.01,2013-07-12 09:39:00,
2013-07-12 05:40:00,71.5,71.5,29.83,SE,128,0.0,0.0,100,0.00,,---,0.00,VWS V14.01,2013-07-12 09:40:00,
2013-07-12 05:41:00,71.6,71.6,29.83,SE,128,0.0,0.0,100,0.00,,---,0.00,VWS V14.01,2013-07-12 09:41:00,
2013-07-12 05:42:00,71.8,71.8,29.83,SE,128,0.0,0.0,100,0.00,,---,0.00,VWS V14.01,2013-07-12 09:42:00,
2013-07-12 05:43:00,71.8,71.8,29.83,SE,128,0.0,0.0,100,0.00,,---,0.00,VWS V14.01,2013-07-12 09:43:00,
2013-07-12 05:44:00,71.8,71.8,29.83,SE,128,0.0,0.0,100,0.00,,---,0.00,VWS V14.01,2013-07-12 09:44:00,
2013-07-12 05:45:00,71.8,71.8,29.83,SE,128,0.0,0.0,100,0.00,,---,0.00,VWS V14.01,2013-07-12 09:45:00,
2013-07-12 05:46:00,71.8,71.8,29.83,SE,128,0.0,0.0,100,0.00,,---,0.00,VWS V14.01,2013-07-12 09:46:00,
2013-07-12 05:47:00,71.8,71.8,29.83,SE,128,0.0,0.0,100,0.00,,---,0.00,VWS V14.01,2013-07-12 09:47:00,
2013-07-12 05:48:00,71.8,71.8,29.83,SE,128,0.0,0.0,100,0.00,,---,0.00,VWS V14.01,2013-07-12 09:48:00,
2013-07-12 05:49:00,71.6,71.6,29.83,SE,128,0.0,0.0,100,0.00,,---,0.00,VWS V14.01,2013-07-12 09:49:00,
2013-07-12 05:50:00,71.6,71.6,29.83,SE,128,0.0,0.0,100,0.00,,---,0.00,VWS V14.01,2013-07-12 09:50:00,
2013-07-12 05:51:00,71.6,71.6,29.83,SE,128,0.0,0.0,100,0.00,,---,0.00,VWS V14.01,2013-07-12 09:51:00,
2013-07-12 05:52:00,71.6,71.6,29.83,SE,128,0.0,0.0,100,0.00,,---,0.00,VWS V14.01,2013-07-12 09:52:00,
2013-07-12 05:53:00,71.6,71.6,29.83,SE,128,0.0,0.0,100,0.00,,---,0.00,VWS V14.01,2013-07-12 09:53:00,
2013-07-12 05:54:00,71.8,71.8,29.83,SE,128,0.0,0.0,100,0.00,,---,0.00,VWS V14.01,2013-07-12 09:54:00,
2013-07-12 05:55:00,71.8,71.8,29.83,SE,128,0.0,0.0,100,0.00,,---,0.00,VWS V14.01,2013-07-12 09:55:00,
2013-07-12 05:56:00,72.0,72.0,29.83,SE,128,0.0,0.0,100,0.00,,---,0.00,VWS V14.01,2013-07-12 09:56:00,
2013-07-12 05:57:00,72.1,72.1,29.83,SE,128,0.0,0.0,100,0.00,,---,0.00,VWS V14.01,2013-07-12 09:57:00,
2013-07-12 05:58:00,72.1,72.1,29.83,SE,128,0.0,0.0,100,0.00,,---,0.00,VWS V14.01,2013-07-12 09:58:00,
2013-07-12 05:59:00,72.1,72.1,29.83,SE,128,0.0,0.0,100,0.00,,---,0.00,VWS V14.01,2013-07-12 09:59:00,
2013-07-12 06:00:00,72.3,72.3,29.83,SE,128,0.0,0.0,100,0.00,,---,0.00,VWS V14.01,2013-07-12 10:00:00,
2013-07-12 06:01:00,72.3,72.3,29.83,SE,128,0.0,0.0,100,0.00,,---,0.00,VWS V14.01,2013-07-12 10:01:00,
2013-07-12 06:02:00,72.3,72.3,29.83,SE,128,0.0,0.0,100,0.00,,---,0.00,VWS V14.01,2013-07-12 10:02:00,
2013-07-12 06:03:00,72.1,72.1,29.83,SE,128,0.0,0.0,100,0.00,,---,0.00,VWS V14.01,2013-07-12 10:03:00,
2013-07-12 06:04:00,72.1,72.1,29.83,SE,128,0.0,0.0,100,0.00,,---,0.00,VWS V14.01,2013-07-12 10:04:00,
2013-07-12 06:05:00,72.1,72.1,29.83,SE,128,0.0,0.0,100,0.00,,---,0.00,VWS V14.01,2013-07-12 10:05:00,
2013-07-12 06:06:00,72.1,72.1,29.83,SE,128,0.0,0.0,100,0.00,,---,0.00,VWS V14.01,2013-07-12 10:06:00,
2013-07-12 06:07:00,72.1,72.1,29.83,SE,128,0.0,0.0,100,0.00,,---,0.00,VWS V14.01,2013-07-12 10:07:00,
2013-07-12 06:08:00,72.3,72.3,29.83,SE,128,0.0,0.0,100,0.00,,---,0.00,VWS V14.01,2013-07-12 10:08:00,
2013-07-12 06:09:00,72.3,72.3,29.83,SE,128,0.0,0.0,100,0.00,,---,0.00,VWS V14.01,2013-07-12 10:09:00,
2013-07-12 06:10:00,72.3,72.3,29.83,SE,128,0.0,0.0,100,0.00,,---,0.00,VWS V14.01,2013-07-12 10:10:00,
2013-07-12 06:11:00,72.3,72.3,29.83,SE,128,0.0,0.0,100,0.00,,---,0.00,VWS V14.01,2013-07-12 10:11:00,
2013-07-12 06:12:00,72.3,72.3,29.83,SE,128,0.0,0.0,100,0.00,,---,0.00,VWS V14.01,2013-07-12 10:12:00,
2013-07-12 06:13:00,72.3,72.3,29.83,SE,128,0.0,0.0,100,0.00,,---,0.00,VWS V14.01,2013-07-12 10:13:00,
2013-07-12 06:14:00,72.3,72.3,29.83,SE,128,0.0,0.0,100,0.00,,---,0.00,VWS V14.01,2013-07-12 10:14:00,
2013-07-12 06:15:00,72.3,72.3,29.84,SE,128,0.0,0.0,100,0.00,,---,0.00,VWS V14.01,2013-07-12 10:15:00,
2013-07-12 06:16:00,72.3,72.3,29.84,SE,128,0.0,0.0,100,0.00,,---,0.00,VWS V14.01,2013-07-12 10:16:00,
2013-07-12 06:17:00,72.3,72.3,29.84,SE,128,0.0,0.0,100,0.00,,---,0.00,VWS V14.01,2013-07-12 10:17:00,
2013-07-12 06:18:00,72.1,72.1,29.84,SE,128,0.0,0.0,100,0.00,,---,0.00,VWS V14.01,2013-07-12 10:18:00,
2013-07-12 06:19:00,72.1,72.1,29.84,SE,128,0.0,0.0,100,0.00,,---,0.00,VWS V14.01,2013-07-12 10:19:00,
2013-07-12 06:20:00,72.1,72.1,29.84,SE,128,0.0,0.0,100,0.00,,---,0.00,VWS V14.01,2013-07-12 10:20:00,
2013-07-12 06:21:00,72.1,72.1,29.84,SE,128,0.0,0.0,100,0.00,,---,0.00,VWS V14.01,2013-07-12 10:21:00,
2013-07-12 06:22:00,72.1,72.1,29.84,SE,128,0.0,0.0,100,0.00,,---,0.00,VWS V14.01,2013-07-12 10:22:00,
2013-07-12 06:23:00,72.1,72.1,29.84,SE,128,0.0,0.0,100,0.00,,---,0.00,VWS V14.01,2013-07-12 10:23:00,
2013-07-12 06:24:00,72.1,72.1,29.84,SE,128,0.0,0.0,100,0.00,,---,0.00,VWS V14.01,2013-07-12 10:24:00,
2013-07-12 06:25:00,72.1,72.1,29.84,SE,128,0.0,0.0,100,0.00,,---,0.00,VWS V14.01,2013-07-12 10:25:00,
2013-07-12 06:26:00,72.0,72.0,29.84,SE,128,0.0,0.0,100,0.00,,---,0.00,VWS V14.01,2013-07-12 10:26:00,
2013-07-12 06:27:00,71.8,71.8,29.84,SE,128,0.0,0.0,100,0.00,,---,0.00,VWS V14.01,2013-07-12 10:27:00,
2013-07-12 06:28:00,71.8,71.8,29.84,SE,128,0.0,0.0,100,0.00,,---,0.00,VWS V14.01,2013-07-12 10:28:00,
2013-07-12 06:29:00,71.6,71.6,29.84,SE,128,0.0,0.0,100,0.00,,---,0.00,VWS V14.01,2013-07-12 10:29:00,
2013-07-12 06:30:00,71.5,71.5,29.83,SE,128,0.0,0.0,100,0.00,,---,0.00,VWS V14.01,2013-07-12 10:30:00,
2013-07-12 06:31:00,71.5,71.5,29.83,SE,128,0.0,0.0,100,0.00,,---,0.00,VWS V14.01,2013-07-12 10:31:00,
2013-07-12 06:32:00,71.3,71.3,29.83,SE,128,0.0,0.0,100,0.00,,---,0.00,VWS V14.01,2013-07-12 10:32:00,
2013-07-12 06:33:00,71.3,71.3,29.83,SE,128,0.0,0.0,100,0.00,,---,0.00,VWS V14.01,2013-07-12 10:33:00,
2013-07-12 06:34:00,71.1,71.1,29.83,SE,128,0.0,0.0,100,0.00,,---,0.00,VWS V14.01,2013-07-12 10:34:00,
2013-07-12 06:35:00,71.1,71.1,29.83,SE,128,0.0,0.0,100,0.00,,---,0.00,VWS V14.01,2013-07-12 10:35:00,
2013-07-12 06:36:00,71.1,71.1,29.83,SE,128,0.0,0.0,100,0.00,,---,0.00,VWS V14.01,2013-07-12 10:36:00,
2013-07-12 06:37:00,71.1,71.1,29.83,SE,128,0.0,0.0,100,0.00,,---,0.00,VWS V14.01,2013-07-12 10:37:00,
2013-07-12 06:38:00,71.1,71.1,29.83,SE,128,0.0,0.0,100,0.00,,---,0.00,VWS V14.01,2013-07-12 10:38:00,
2013-07-12 06:39:00,71.1,71.1,29.83,SE,128,0.0,0.0,100,0.00,,---,0.00,VWS V14.01,2013-07-12 10:39:00,
2013-07-12 06:40:00,71.1,71.1,29.83,SE,128,0.0,0.0,100,0.00,,---,0.00,VWS V14.01,2013-07-12 10:40:00,
2013-07-12 06:41:00,71.1,71.1,29.83,SE,128,0.0,0.0,100,0.00,,---,0.00,VWS V14.01,2013-07-12 10:41:00,
2013-07-12 06:42:00,71.3,71.3,29.83,SE,128,0.0,0.0,100,0.00,,---,0.00,VWS V14.01,2013-07-12 10:42:00,
2013-07-12 06:43:00,71.3,71.3,29.83,SE,128,0.0,0.0,100,0.00,,---,0.00,VWS V14.01,2013-07-12 10:43:00,
2013-07-12 06:44:00,71.3,71.3,29.83,SE,128,0.0,0.0,100,0.00,,---,0.00,VWS V14.01,2013-07-12 10:44:00,
2013-07-12 06:45:00,71.3,71.3,29.83,SE,128,0.0,0.0,100,0.00,,---,0.00,VWS V14.01,2013-07-12 10:45:00,
2013-07-12 06:46:00,71.3,71.3,29.83,SE,128,0.0,0.0,100,0.00,,---,0.00,VWS V14.01,2013-07-12 10:46:00,
2013-07-12 06:47:00,71.0,69.8,29.83,ESE,122,0.0,0.0,96,0.00,,---,0.00,VWS V14.01,2013-07-12 10:47:00,
2013-07-12 06:48:00,71.0,69.8,29.83,ESE,122,0.0,0.0,96,0.00,,---,0.00,VWS V14.01,2013-07-12 10:48:00,
2013-07-12 06:49:00,71.0,69.8,29.83,ESE,122,0.0,0.0,96,0.00,,---,0.00,VWS V14.01,2013-07-12 10:49:00,
2013-07-12 06:50:00,71.0,69.8,29.83,ESE,122,0.0,0.0,96,0.00,,---,0.00,VWS V14.01,2013-07-12 10:50:00,
2013-07-12 06:51:00,71.0,69.8,29.83,ESE,122,0.0,0.0,96,0.00,,---,0.00,VWS V14.01,2013-07-12 10:51:00,
2013-07-12 06:52:00,71.0,69.8,29.83,ESE,122,0.0,0.0,96,0.00,,---,0.00,VWS V14.01,2013-07-12 10:52:00,
2013-07-12 06:53:00,71.0,69.8,29.83,ESE,122,0.0,0.0,96,0.00,,---,0.00,VWS V14.01,2013-07-12 10:53:00,
2013-07-12 06:54:00,71.0,69.8,29.83,ESE,122,0.0,0.0,96,0.00,,---,0.00,VWS V14.01,2013-07-12 10:54:00,
2013-07-12 06:55:00,71.0,69.8,29.83,ESE,122,0.0,0.0,96,0.00,,---,0.00,VWS V14.01,2013-07-12 10:55:00,
2013-07-12 06:56:00,71.0,69.8,29.83,ESE,122,0.0,0.0,96,0.00,,---,0.00,VWS V14.01,2013-07-12 10:56:00,
2013-07-12 06:57:00,71.0,69.8,29.83,ESE,122,0.0,0.0,96,0.00,,---,0.00,VWS V14.01,2013-07-12 10:57:00,
2013-07-12 06:58:00,71.1,69.9,29.83,ESE,122,0.0,0.0,96,0.00,,---,0.00,VWS V14.01,2013-07-12 10:58:00,
2013-07-12 06:59:00,71.1,69.9,29.83,ESE,122,0.0,0.0,96,0.00,,---,0.00,VWS V14.01,2013-07-12 10:59:00,
2013-07-12 07:00:00,71.1,69.9,29.84,ESE,122,0.0,0.0,96,0.00,,---,0.00,VWS V14.01,2013-07-12 11:00:00,
2013-07-12 07:01:00,71.2,70.0,29.84,ESE,122,0.0,0.0,96,0.00,,---,0.00,VWS V14.01,2013-07-12 11:01:00,
2013-07-12 07:02:00,71.2,70.0,29.84,ESE,122,0.0,0.0,96,0.00,,---,0.00,VWS V14.01,2013-07-12 11:02:00,
2013-07-12 07:03:00,71.3,70.1,29.84,ESE,122,0.0,0.0,96,0.00,,---,0.00,VWS V14.01,2013-07-12 11:03:00,
2013-07-12 07:04:00,71.3,70.1,29.84,ESE,122,0.0,0.0,96,0.00,,---,0.00,VWS V14.01,2013-07-12 11:04:00,
2013-07-12 07:05:00,71.3,70.1,29.84,ESE,122,0.0,0.0,96,0.00,,---,0.00,VWS V14.01,2013-07-12 11:05:00,
2013-07-12 07:06:00,71.4,70.2,29.84,ESE,122,0.0,0.0,96,0.00,,---,0.00,VWS V14.01,2013-07-12 11:06:00,
2013-07-12 07:07:00,71.4,70.2,29.84,ESE,122,0.0,0.0,96,0.00,,---,0.00,VWS V14.01,2013-07-12 11:07:00,
2013-07-12 07:08:00,71.5,70.3,29.84,ESE,122,0.0,0.0,96,0.00,,---,0.00,VWS V14.01,2013-07-12 11:08:00,
2013-07-12 07:09:00,71.5,70.3,29.84,ESE,122,0.0,0.0,96,0.00,,---,0.00,VWS V14.01,2013-07-12 11:09:00,
2013-07-12 07:10:00,71.6,70.4,29.84,ESE,122,0.0,0.0,96,0.00,,---,0.00,VWS V14.01,2013-07-12 11:10:00,
2013-07-12 07:11:00,71.6,70.4,29.84,ESE,122,0.0,0.0,96,0.00,,---,0.00,VWS V14.01,2013-07-12 11:11:00,
2013-07-12 07:12:00,71.7,70.8,29.84,ESE,122,0.0,0.0,97,0.00,,---,0.00,VWS V14.01,2013-07-12 11:12:00,
2013-07-12 07:13:00,71.7,70.8,29.84,ESE,122,0.0,0.0,97,0.00,,---,0.00,VWS V14.01,2013-07-12 11:13:00,
2013-07-12 07:14:00,71.8,70.9,29.84,ESE,122,0.0,0.0,97,0.00,,---,0.00,VWS V14.01,2013-07-12 11:14:00,
2013-07-12 07:15:00,71.8,70.9,29.84,ESE,122,0.0,0.0,97,0.00,,---,0.00,VWS V14.01,2013-07-12 11:15:00,
2013-07-12 07:16:00,71.9,71.0,29.84,ESE,122,0.0,0.0,97,0.00,,---,0.00,VWS V14.01,2013-07-12 11:16:00,
2013-07-12 07:17:00,72.0,71.1,29.84,ESE,122,0.0,0.0,97,0.00,,---,0.00,VWS V14.01,2013-07-12 11:17:00,
2013-07-12 07:18:00,72.1,71.2,29.84,ESE,122,0.0,0.0,97,0.00,,---,0.00,VWS V14.01,2013-07-12 11:18:00,
2013-07-12 07:19:00,72.1,71.2,29.84,ESE,122,0.0,0.0,97,0.00,,---,0.00,VWS V14.01,2013-07-12 11:19:00,
2013-07-12 07:20:00,72.2,71.3,29.84,ESE,122,0.0,0.0,97,0.00,,---,0.00,VWS V14.01,2013-07-12 11:20:00,
2013-07-12 07:21:00,72.2,71.3,29.84,ESE,122,0.0,0.0,97,0.00,,---,0.00,VWS V14.01,2013-07-12 11:21:00,
2013-07-12 07:22:00,72.3,71.4,29.84,ESE,122,0.0,0.0,97,0.00,,---,0.00,VWS V14.01,2013-07-12 11:22:00,
2013-07-12 07:23:00,72.3,71.4,29.84,ESE,122,0.0,0.0,97,0.00,,---,0.00,VWS V14.01,2013-07-12 11:23:00,
2013-07-12 07:24:00,72.4,71.5,29.84,ESE,122,0.0,0.0,97,0.00,,---,0.00,VWS V14.01,2013-07-12 11:24:00,
2013-07-12 07:25:00,72.5,71.6,29.84,ESE,122,0.0,0.0,97,0.00,,---,0.00,VWS V14.01,2013-07-12 11:25:00,
2013-07-12 07:26:00,72.5,71.6,29.84,ESE,122,0.0,0.0,97,0.00,,---,0.00,VWS V14.01,2013-07-12 11:26:00,
2013-07-12 07:27:00,72.6,71.7,29.84,ESE,122,0.0,0.0,97,0.00,,---,0.00,VWS V14.01,2013-07-12 11:27:00,
2013-07-12 07:28:00,72.7,71.8,29.84,ESE,122,0.0,0.0,97,0.00,,---,0.00,VWS V14.01,2013-07-12 11:28:00,
2013-07-12 07:29:00,72.8,71.9,29.84,ESE,122,0.0,0.0,97,0.00,,---,0.00,VWS V14.01,2013-07-12 11:29:00,
2013-07-12 07:30:00,72.9,72.0,29.85,ESE,122,0.0,0.0,97,0.00,,---,0.00,VWS V14.01,2013-07-12 11:30:00,
2013-07-12 07:31:00,72.9,72.0,29.85,ESE,122,0.0,0.0,97,0.00,,---,0.00,VWS V14.01,2013-07-12 11:31:00,
2013-07-12 07:32:00,73.0,72.1,29.85,ESE,122,0.0,0.0,97,0.00,,---,0.00,VWS V14.01,2013-07-12 11:32:00,
2013-07-12 07:33:00,73.1,72.2,29.85,ESE,122,0.0,0.0,97,0.00,,---,0.00,VWS V14.01,2013-07-12 11:33:00,
2013-07-12 07:34:00,73.2,72.3,29.85,ESE,122,0.0,0.0,97,0.00,,---,0.00,VWS V14.01,2013-07-12 11:34:00,
2013-07-12 07:35:00,73.2,72.3,29.85,ESE,122,0.0,0.0,97,0.00,,---,0.00,VWS V14.01,2013-07-12 11:35:00,
2013-07-12 07:36:00,73.3,72.4,29.85,ESE,122,0.0,0.0,97,0.00,,---,0.00,VWS V14.01,2013-07-12 11:36:00,
2013-07-12 07:37:00,73.4,72.5,29.85,ESE,122,0.0,0.0,97,0.00,,---,0.00,VWS V14.01,2013-07-12 11:37:00,
2013-07-12 07:38:00,73.4,72.5,29.85,ESE,122,0.0,0.0,97,0.00,,---,0.00,VWS V14.01,2013-07-12 11:38:00,
2013-07-12 07:39:00,73.5,72.6,29.85,ESE,122,0.0,0.0,97,0.00,,---,0.00,VWS V14.01,2013-07-12 11:39:00,
2013-07-12 07:40:00,73.7,72.8,29.85,ESE,122,0.0,0.0,97,0.00,,---,0.00,VWS V14.01,2013-07-12 11:40:00,
2013-07-12 07:41:00,73.8,72.9,29.85,ESE,122,1.0,1.0,97,0.00,,---,0.00,VWS V14.01,2013-07-12 11:41:00,
2013-07-12 07:42:00,74.0,73.1,29.85,ESE,122,0.0,1.0,97,0.00,,---,0.00,VWS V14.01,2013-07-12 11:42:00,
2013-07-12 07:43:00,74.2,73.3,29.85,ESE,122,0.0,1.0,97,0.00,,---,0.00,VWS V14.01,2013-07-12 11:43:00,
2013-07-12 07:44:00,74.4,73.8,29.85,ESE,122,0.0,1.0,98,0.00,,---,0.00,VWS V14.01,2013-07-12 11:44:00,
2013-07-12 07:45:00,74.6,74.0,29.85,ESE,122,0.0,1.0,98,0.00,,---,0.00,VWS V14.01,2013-07-12 11:45:00,
2013-07-12 07:46:00,74.8,73.9,29.85,ESE,122,0.0,1.0,97,0.00,,---,0.00,VWS V14.01,2013-07-12 11:46:00,
2013-07-12 07:47:00,74.9,74.3,29.85,ESE,122,0.0,1.0,98,0.00,,---,0.00,VWS V14.01,2013-07-12 11:47:00,
2013-07-12 07:48:00,75.1,74.5,29.85,ESE,122,0.0,1.0,98,0.00,,---,0.00,VWS V14.01,2013-07-12 11:48:00,
2013-07-12 07:49:00,75.3,74.7,29.85,ESE,122,0.0,2.0,98,0.00,,---,0.00,VWS V14.01,2013-07-12 11:49:00,
2013-07-12 07:50:00,75.4,74.8,29.85,ESE,122,0.0,2.0,98,0.00,,---,0.00,VWS V14.01,2013-07-12 11:50:00,
2013-07-12 07:51:00,75.6,75.0,29.85,ESE,122,0.0,2.0,98,0.00,,---,0.00,VWS V14.01,2013-07-12 11:51:00,
2013-07-12 07:52:00,75.7,75.1,29.85,ESE,122,0.0,2.0,98,0.00,,---,0.00,VWS V14.01,2013-07-12 11:52:00,
2013-07-12 07:53:00,75.8,75.2,29.85,ESE,122,0.0,2.0,98,0.00,,---,0.00,VWS V14.01,2013-07-12 11:53:00,
2013-07-12 07:54:00,76.0,75.4,29.85,ESE,122,1.0,2.0,98,0.00,,---,0.00,VWS V14.01,2013-07-12 11:54:00,
2013-07-12 07:55:00,76.0,75.4,29.85,ESE,122,3.0,3.0,98,0.00,,---,0.00,VWS V14.01,2013-07-12 11:55:00,
2013-07-12 07:56:00,76.5,76.5,29.85,SE,128,0.0,3.0,100,0.00,,---,0.00,VWS V14.01,2013-07-12 11:56:00,
2013-07-12 07:57:00,76.5,76.5,29.85,SE,128,0.0,3.0,100,0.00,,---,0.00,VWS V14.01,2013-07-12 11:57:00,
2013-07-12 07:58:00,76.7,76.7,29.85,SE,128,0.0,3.0,100,0.00,,---,0.00,VWS V14.01,2013-07-12 11:58:00,
2013-07-12 07:59:00,76.7,76.7,29.85,SE,128,0.0,3.0,100,0.00,,---,0.00,VWS V14.01,2013-07-12 11:59:00,
2013-07-12 08:00:00,76.7,76.7,29.85,SE,128,0.0,3.0,100,0.00,,---,0.00,VWS V14.01,2013-07-12 12:00:00,
2013-07-12 08:01:00,76.8,76.8,29.85,SE,128,0.0,0.0,100,0.00,,---,0.00,VWS V14.01,2013-07-12 12:01:00,
2013-07-12 08:02:00,77.0,77.0,29.85,SE,128,0.0,0.0,100,0.00,,---,0.00,VWS V14.01,2013-07-12 12:02:00,
2013-07-12 08:03:00,77.0,77.0,29.85,SE,128,0.0,0.0,100,0.00,,---,0.00,VWS V14.01,2013-07-12 12:03:00,
2013-07-12 08:04:00,77.2,77.2,29.85,SE,128,0.0,0.0,100,0.00,,---,0.00,VWS V14.01,2013-07-12 12:04:00,
2013-07-12 08:05:00,77.2,77.2,29.85,SE,128,0.0,0.0,100,0.00,,---,0.00,VWS V14.01,2013-07-12 12:05:00,
2013-07-12 08:06:00,77.2,77.2,29.85,SE,128,0.0,0.0,100,0.00,,---,0.00,VWS V14.01,2013-07-12 12:06:00,
2013-07-12 08:07:00,77.4,77.4,29.85,SE,128,0.0,0.0,100,0.00,,---,0.00,VWS V14.01,2013-07-12 12:07:00,
2013-07-12 08:08:00,77.4,77.4,29.85,SE,128,0.0,0.0,100,0.00,,---,0.00,VWS V14.01,2013-07-12 12:08:00,
2013-07-12 08:09:00,77.4,77.4,29.85,SE,128,0.0,0.0,100,0.00,,---,0.00,VWS V14.01,2013-07-12 12:09:00,
2013-07-12 08:10:00,77.4,77.4,29.85,SSE,148,0.0,0.0,100,0.00,,---,0.00,VWS V14.01,2013-07-12 12:10:00,
2013-07-12 08:11:00,77.4,77.4,29.85,SSE,149,0.0,0.0,100,0.00,,---,0.00,VWS V14.01,2013-07-12 12:11:00,
2013-07-12 08:12:00,77.4,77.4,29.85,SSE,151,0.0,0.0,100,0.00,,---,0.00,VWS V14.01,2013-07-12 12:12:00,
2013-07-12 08:13:00,77.4,77.4,29.85,SSE,151,0.0,0.0,100,0.00,,---,0.00,VWS V14.01,2013-07-12 12:13:00,
2013-07-12 08:14:00,77.6,77.6,29.85,SSE,151,0.0,0.0,100,0.00,,---,0.00,VWS V14.01,2013-07-12 12:14:00,
2013-07-12 08:15:00,77.7,77.7,29.86,SSE,151,0.0,0.0,100,0.00,,---,0.00,VWS V14.01,2013-07-12 12:15:00,
2013-07-12 08:16:00,77.7,77.7,29.86,SSE,151,0.0,0.0,100,0.00,,---,0.00,VWS V14.01,2013-07-12 12:16:00,
2013-07-12 08:17:00,77.7,77.7,29.86,SSE,151,0.0,0.0,100,0.00,,---,0.00,VWS V14.01,2013-07-12 12:17:00,
2013-07-12 08:18:00,77.9,77.9,29.86,SSE,151,0.0,0.0,100,0.00,,---,0.00,VWS V14.01,2013-07-12 12:18:00,
2013-07-12 08:19:00,77.9,77.9,29.86,SSE,152,0.0,0.0,100,0.00,,---,0.00,VWS V14.01,2013-07-12 12:19:00,
2013-07-12 08:20:00,78.1,78.1,29.86,SSE,152,0.0,0.0,100,0.00,,---,0.00,VWS V14.01,2013-07-12 12:20:00,
2013-07-12 08:21:00,78.3,78.3,29.86,SSE,152,0.0,0.0,100,0.00,,---,0.00,VWS V14.01,2013-07-12 12:21:00,
2013-07-12 08:22:00,78.5,78.5,29.86,SSE,152,0.0,0.0,100,0.00,,---,0.00,VWS V14.01,2013-07-12 12:22:00,
2013-07-12 08:23:00,78.5,78.5,29.86,SSE,152,0.0,0.0,100,0.00,,---,0.00,VWS V14.01,2013-07-12 12:23:00,
2013-07-12 08:24:00,78.6,78.6,29.86,SSE,153,0.0,0.0,100,0.00,,---,0.00,VWS V14.01,2013-07-12 12:24:00,
2013-07-12 08:25:00,78.6,78.6,29.86,SSE,153,0.0,0.0,100,0.00,,---,0.00,VWS V14.01,2013-07-12 12:25:00,
2013-07-12 08:26:00,78.8,78.5,29.86,SSE,153,0.0,0.0,99,0.00,,---,0.00,VWS V14.01,2013-07-12 12:26:00,
2013-07-12 08:27:00,79.0,78.7,29.86,SSE,153,0.0,0.0,99,0.00,,---,0.00,VWS V14.01,2013-07-12 12:27:00,
2013-07-12 08:28:00,79.0,78.4,29.86,SSE,153,0.0,0.0,98,0.00,,---,0.00,VWS V14.01,2013-07-12 12:28:00,
2013-07-12 08:29:00,79.0,78.4,29.86,SSE,153,0.0,0.0,98,0.00,,---,0.00,VWS V14.01,2013-07-12 12:29:00,
2013-07-12 08:30:00,79.0,78.1,29.86,SSE,153,0.0,0.0,97,0.00,,---,0.00,VWS V14.01,2013-07-12 12:30:00,
2013-07-12 08:31:00,79.2,78.3,29.86,SSE,153,0.0,0.0,97,0.00,,---,0.00,VWS V14.01,2013-07-12 12:31:00,
2013-07-12 08:32:00,79.2,78.3,29.86,SSE,153,0.0,0.0,97,0.00,,---,0.00,VWS V14.01,2013-07-12 12:32:00,
2013-07-12 08:33:00,79.4,78.5,29.86,SSE,153,0.0,0.0,97,0.00,,---,0.00,VWS V14.01,2013-07-12 12:33:00,
2013-07-12 08:34:00,79.4,78.2,29.86,SSE,153,0.0,0.0,96,0.00,,---,0.00,VWS V14.01,2013-07-12 12:34:00,
2013-07-12 08:35:00,79.4,78.2,29.86,SSE,154,0.0,0.0,96,0.00,,---,0.00,VWS V14.01,2013-07-12 12:35:00,
2013-07-12 08:36:00,79.4,77.8,29.86,SSE,154,0.0,0.0,95,0.00,,---,0.00,VWS V14.01,2013-07-12 12:36:00,
2013-07-12 08:37:00,79.4,77.8,29.86,SSE,154,0.0,0.0,95,0.00,,---,0.00,VWS V14.01,2013-07-12 12:37:00,
2013-07-12 08:38:00,79.4,77.8,29.86,SSE,154,0.0,0.0,95,0.00,,---,0.00,VWS V14.01,2013-07-12 12:38:00,
2013-07-12 08:39:00,79.4,77.5,29.86,SSE,154,0.0,0.0,94,0.00,,---,0.00,VWS V14.01,2013-07-12 12:39:00,
2013-07-12 08:40:00,79.4,77.8,29.86,SSE,154,0.0,0.0,95,0.00,,---,0.00,VWS V14.01,2013-07-12 12:40:00,
2013-07-12 08:41:00,79.4,77.8,29.86,SSE,154,0.0,0.0,95,0.00,,---,0.00,VWS V14.01,2013-07-12 12:41:00,
2013-07-12 08:42:00,79.4,77.5,29.86,SSE,154,0.0,0.0,94,0.00,,---,0.00,VWS V14.01,2013-07-12 12:42:00,
2013-07-12 08:43:00,79.4,77.5,29.86,SSE,154,0.0,0.0,94,0.00,,---,0.00,VWS V14.01,2013-07-12 12:43:00,
2013-07-12 08:44:00,79.6,78.1,29.86,SSE,154,0.0,0.0,95,0.00,,---,0.00,VWS V14.01,2013-07-12 12:44:00,
2013-07-12 08:45:00,79.8,78.2,29.86,SSE,154,0.0,0.0,95,0.00,,---,0.00,VWS V14.01,2013-07-12 12:45:00,
2013-07-12 08:46:00,79.8,77.9,29.86,SSE,154,0.0,0.0,94,0.00,,---,0.00,VWS V14.01,2013-07-12 12:46:00,
2013-07-12 08:47:00,79.8,77.9,29.86,SSE,154,0.0,0.0,94,0.00,,---,0.00,VWS V14.01,2013-07-12 12:47:00,
2013-07-12 08:48:00,79.8,77.6,29.86,SSE,154,0.0,0.0,93,0.00,,---,0.00,VWS V14.01,2013-07-12 12:48:00,
2013-07-12 08:49:00,79.8,77.6,29.86,SSE,154,0.0,0.0,93,0.00,,---,0.00,VWS V14.01,2013-07-12 12:49:00,
2013-07-12 08:50:00,79.8,77.6,29.86,SSE,154,0.0,0.0,93,0.00,,---,0.00,VWS V14.01,2013-07-12 12:50:00,
2013-07-12 08:51:00,79.8,77.6,29.86,SSE,154,0.0,0.0,93,0.00,,---,0.00,VWS V14.01,2013-07-12 12:51:00,
2013-07-12 08:52:00,79.8,77.6,29.86,SSE,154,0.0,0.0,93,0.00,,---,0.00,VWS V14.01,2013-07-12 12:52:00,
2013-07-12 08:53:00,79.8,77.6,29.86,SSE,154,0.0,0.0,93,0.00,,---,0.00,VWS V14.01,2013-07-12 12:53:00,
2013-07-12 08:54:00,79.8,77.6,29.86,SSE,154,0.0,0.0,93,0.00,,---,0.00,VWS V14.01,2013-07-12 12:54:00,
2013-07-12 08:55:00,79.8,77.6,29.86,SSE,154,0.0,0.0,93,0.00,,---,0.00,VWS V14.01,2013-07-12 12:55:00,
2013-07-12 08:56:00,79.8,77.6,29.86,SSE,154,0.0,0.0,93,0.00,,---,0.00,VWS V14.01,2013-07-12 12:56:00,
2013-07-12 08:57:00,79.9,77.7,29.86,SSE,154,0.0,0.0,93,0.00,,---,0.00,VWS V14.01,2013-07-12 12:57:00,
2013-07-12 08:58:00,79.9,77.7,29.86,SSE,154,0.0,0.0,93,0.00,,---,0.00,VWS V14.01,2013-07-12 12:58:00,
2013-07-12 08:59:00,79.8,77.6,29.86,SSE,154,0.0,0.0,93,0.00,,---,0.00,VWS V14.01,2013-07-12 12:59:00,
2013-07-12 09:00:00,79.9,77.7,29.87,SSE,154,0.0,0.0,93,0.00,,---,0.00,VWS V14.01,2013-07-12 13:00:00,
2013-07-12 09:01:00,79.9,77.7,29.87,SSE,154,0.0,0.0,93,0.00,,---,0.00,VWS V14.01,2013-07-12 13:01:00,
2013-07-12 09:02:00,80.1,77.9,29.87,SSE,154,0.0,0.0,93,0.00,,---,0.00,VWS V14.01,2013-07-12 13:02:00,
2013-07-12 09:03:00,80.3,78.4,29.87,SSE,154,0.0,0.0,94,0.00,,---,0.00,VWS V14.01,2013-07-12 13:03:00,
2013-07-12 09:04:00,80.3,78.1,29.87,SSE,154,0.0,0.0,93,0.00,,---,0.00,VWS V14.01,2013-07-12 13:04:00,
2013-07-12 09:05:00,80.5,78.3,29.87,SSE,154,0.0,0.0,93,0.00,,---,0.00,VWS V14.01,2013-07-12 13:05:00,
2013-07-12 09:06:00,80.5,78.0,29.87,SSE,154,0.0,0.0,92,0.00,,---,0.00,VWS V14.01,2013-07-12 13:06:00,
2013-07-12 09:07:00,80.9,78.7,29.87,SSE,162,0.0,0.0,93,0.00,,---,0.00,VWS V14.01,2013-07-12 13:07:00,
2013-07-12 09:08:00,80.9,78.0,29.87,SSE,163,0.0,0.0,91,0.00,,---,0.00,VWS V14.01,2013-07-12 13:08:00,
2013-07-12 09:09:00,80.9,77.7,29.87,SSE,163,0.0,0.0,90,0.00,,---,0.00,VWS V14.01,2013-07-12 13:09:00,
2013-07-12 09:10:00,81.1,77.9,29.87,SSE,163,0.0,0.0,90,0.00,,---,0.00,VWS V14.01,2013-07-12 13:10:00,
2013-07-12 09:11:00,81.1,77.9,29.87,SSE,163,0.0,0.0,90,0.00,,---,0.00,VWS V14.01,2013-07-12 13:11:00,
2013-07-12 09:12:00,81.1,77.9,29.87,SSE,164,0.0,0.0,90,0.00,,---,0.00,VWS V14.01,2013-07-12 13:12:00,
2013-07-12 09:13:00,81.1,77.6,29.87,South,170,0.0,0.0,89,0.00,,---,0.00,VWS V14.01,2013-07-12 13:13:00,
2013-07-12 09:14:00,81.2,77.7,29.87,South,184,0.0,0.0,89,0.00,,---,0.00,VWS V14.01,2013-07-12 13:14:00,
2013-07-12 09:15:00,81.2,77.7,29.86,South,185,0.0,0.0,89,0.00,,---,0.00,VWS V14.01,2013-07-12 13:15:00,
2013-07-12 09:16:00,81.2,77.3,29.86,South,185,0.0,0.0,88,0.00,,---,0.00,VWS V14.01,2013-07-12 13:16:00,
2013-07-12 09:17:00,81.2,77.3,29.86,South,185,0.0,0.0,88,0.00,,---,0.00,VWS V14.01,2013-07-12 13:17:00,
2013-07-12 09:18:00,81.2,77.3,29.86,South,185,0.0,0.0,88,0.00,,---,0.00,VWS V14.01,2013-07-12 13:18:00,
2013-07-12 09:19:00,81.2,77.3,29.86,South,185,0.0,0.0,88,0.00,,---,0.00,VWS V14.01,2013-07-12 13:19:00,
2013-07-12 09:20:00,81.6,78.1,29.86,South,185,0.0,0.0,89,0.00,,---,0.00,VWS V14.01,2013-07-12 13:20:00,
2013-07-12 09:21:00,81.6,77.7,29.86,South,185,0.0,0.0,88,0.00,,---,0.00,VWS V14.01,2013-07-12 13:21:00,
2013-07-12 09:22:00,81.8,77.9,29.86,South,187,0.0,0.0,88,0.00,,---,0.00,VWS V14.01,2013-07-12 13:22:00,
2013-07-12 09:23:00,81.8,77.2,29.86,SSW,192,0.0,0.0,86,0.00,,---,0.00,VWS V14.01,2013-07-12 13:23:00,
2013-07-12 09:24:00,81.8,77.2,29.86,SSW,196,0.0,0.0,86,0.00,,---,0.00,VWS V14.01,2013-07-12 13:24:00,
2013-07-12 09:25:00,81.8,77.2,29.86,SSW,196,0.0,0.0,86,0.00,,---,0.00,VWS V14.01,2013-07-12 13:25:00,
2013-07-12 09:26:00,81.8,77.2,29.86,SSW,196,0.0,0.0,86,0.00,,---,0.00,VWS V14.01,2013-07-12 13:26:00,
2013-07-12 09:27:00,81.6,77.0,29.86,SSW,196,0.0,0.0,86,0.00,,---,0.00,VWS V14.01,2013-07-12 13:27:00,
2013-07-12 09:28:00,81.6,77.4,29.86,SSW,196,0.0,0.0,87,0.00,,---,0.00,VWS V14.01,2013-07-12 13:28:00,
2013-07-12 09:29:00,81.6,77.0,29.86,SSW,196,0.0,0.0,86,0.00,,---,0.00,VWS V14.01,2013-07-12 13:29:00,
2013-07-12 09:30:00,81.4,76.8,29.86,SSW,196,0.0,0.0,86,0.00,,---,0.00,VWS V14.01,2013-07-12 13:30:00,
2013-07-12 09:31:00,81.4,77.2,29.86,SSW,196,0.0,0.0,87,0.00,,---,0.00,VWS V14.01,2013-07-12 13:31:00,
2013-07-12 09:32:00,81.4,77.2,29.86,SSW,196,0.0,0.0,87,0.00,,---,0.00,VWS V14.01,2013-07-12 13:32:00,
2013-07-12 09:33:00,81.4,76.8,29.86,SSW,196,0.0,0.0,86,0.00,,---,0.00,VWS V14.01,2013-07-12 13:33:00,
2013-07-12 09:34:00,81.2,76.6,29.86,SSW,196,0.0,0.0,86,0.00,,---,0.00,VWS V14.01,2013-07-12 13:34:00,
2013-07-12 09:35:00,81.2,76.3,29.86,SSW,196,0.0,0.0,85,0.00,,---,0.00,VWS V14.01,2013-07-12 13:35:00,
2013-07-12 09:36:00,81.4,76.8,29.86,SSW,196,0.0,0.0,86,0.00,,---,0.00,VWS V14.01,2013-07-12 13:36:00,
2013-07-12 09:37:00,81.6,77.0,29.86,SSW,196,0.0,0.0,86,0.00,,---,0.00,VWS V14.01,2013-07-12 13:37:00,
2013-07-12 09:38:00,81.8,77.2,29.86,SSW,196,0.0,0.0,86,0.00,,---,0.00,VWS V14.01,2013-07-12 13:38:00,
2013-07-12 09:39:00,82.2,77.6,29.86,SSW,196,0.0,0.0,86,0.00,,---,0.00,VWS V14.01,2013-07-12 13:39:00,
2013-07-12 09:40:00,82.4,77.8,29.86,SSW,196,0.0,0.0,86,0.00,,---,0.00,VWS V14.01,2013-07-12 13:40:00,
2013-07-12 09:41:00,82.8,77.5,29.86,SSW,196,0.0,0.0,84,0.00,,---,0.00,VWS V14.01,2013-07-12 13:41:00,
2013-07-12 09:42:00,83.0,77.7,29.86,SSW,196,0.0,0.0,84,0.00,,---,0.00,VWS V14.01,2013-07-12 13:42:00,
2013-07-12 09:43:00,83.0,77.7,29.86,SSW,197,0.0,0.0,84,0.00,,---,0.00,VWS V14.01,2013-07-12 13:43:00,
2013-07-12 09:44:00,83.2,76.4,29.86,SSW,197,0.0,0.0,80,0.00,,---,0.00,VWS V14.01,2013-07-12 13:44:00,
2013-07-12 09:45:00,83.2,76.4,29.86,SSW,197,0.0,0.0,80,0.00,,---,0.00,VWS V14.01,2013-07-12 13:45:00,
2013-07-12 09:46:00,83.2,76.4,29.86,SSW,198,0.0,0.0,80,0.00,,---,0.00,VWS V14.01,2013-07-12 13:46:00,
2013-07-12 09:47:00,83.2,77.1,29.86,SSW,198,0.0,0.0,82,0.00,,---,0.00,VWS V14.01,2013-07-12 13:47:00,
2013-07-12 09:48:00,83.2,77.1,29.86,SSW,198,0.0,0.0,82,0.00,,---,0.00,VWS V14.01,2013-07-12 13:48:00,
2013-07-12 09:49:00,83.2,77.1,29.86,SSW,198,0.0,0.0,82,0.00,,---,0.00,VWS V14.01,2013-07-12 13:49:00,
2013-07-12 09:50:00,83.2,77.5,29.86,SSW,198,0.0,0.0,83,0.00,,---,0.00,VWS V14.01,2013-07-12 13:50:00,
2013-07-12 09:51:00,83.4,77.3,29.86,SSW,198,0.0,0.0,82,0.00,,---,0.00,VWS V14.01,2013-07-12 13:51:00,
2013-07-12 09:52:00,83.4,77.0,29.86,SSW,198,0.0,0.0,81,0.00,,---,0.00,VWS V14.01,2013-07-12 13:52:00,
2013-07-12 09:53:00,83.4,76.6,29.86,SSW,198,0.0,0.0,80,0.00,,---,0.00,VWS V14.01,2013-07-12 13:53:00,
2013-07-12 09:54:00,83.4,77.0,29.86,SSW,198,0.0,0.0,81,0.00,,---,0.00,VWS V14.01,2013-07-12 13:54:00,
2013-07-12 09:55:00,83.4,76.2,29.86,SSW,198,0.0,0.0,79,0.00,,---,0.00,VWS V14.01,2013-07-12 13:55:00,
2013-07-12 09:56:00,83.4,75.8,29.86,SSW,198,0.0,0.0,78,0.00,,---,0.00,VWS V14.01,2013-07-12 13:56:00,
2013-07-12 09:57:00,83.6,76.8,29.86,SSW,198,0.0,0.0,80,0.00,,---,0.00,VWS V14.01,2013-07-12 13:57:00,
2013-07-12 09:58:00,83.6,76.0,29.86,SSW,204,0.0,0.0,78,0.00,,---,0.00,VWS V14.01,2013-07-12 13:58:00,
2013-07-12 09:59:00,83.6,75.6,29.86,SSW,204,0.0,0.0,77,0.00,,---,0.00,VWS V14.01,2013-07-12 13:59:00,
2013-07-12 10:00:00,83.4,75.4,29.86,SSW,204,0.0,0.0,77,0.00,,---,0.00,VWS V14.01,2013-07-12 14:00:00,
2013-07-12 10:01:00,83.4,75.1,29.86,SSW,204,0.0,0.0,76,0.00,,---,0.00,VWS V14.01,2013-07-12 14:01:00,
2013-07-12 10:02:00,83.2,75.2,29.86,SSW,204,0.0,0.0,77,0.00,,---,0.00,VWS V14.01,2013-07-12 14:02:00,
2013-07-12 10:03:00,83.2,75.2,29.86,SSW,204,0.0,0.0,77,0.00,,---,0.00,VWS V14.01,2013-07-12 14:03:00,
2013-07-12 10:04:00,83.0,75.1,29.86,SSW,204,0.0,0.0,77,0.00,,---,0.00,VWS V14.01,2013-07-12 14:04:00,
2013-07-12 10:05:00,83.2,76.4,29.86,SSW,204,0.0,0.0,80,0.00,,---,0.00,VWS V14.01,2013-07-12 14:05:00,
2013-07-12 10:06:00,83.4,76.2,29.86,SSW,204,0.0,0.0,79,0.00,,---,0.00,VWS V14.01,2013-07-12 14:06:00,
2013-07-12 10:07:00,83.6,76.8,29.86,SSW,205,0.0,0.0,80,0.00,,---,0.00,VWS V14.01,2013-07-12 14:07:00,
2013-07-12 10:08:00,83.8,76.2,29.86,SSW,204,0.0,0.0,78,0.00,,---,0.00,VWS V14.01,2013-07-12 14:08:00,
2013-07-12 10:09:00,84.0,76.0,29.86,SSW,205,0.0,0.0,77,0.00,,---,0.00,VWS V14.01,2013-07-12 14:09:00,
2013-07-12 10:10:00,84.0,75.2,29.86,SSW,205,0.0,0.0,75,0.00,,---,0.00,VWS V14.01,2013-07-12 14:10:00,
2013-07-12 10:11:00,84.0,74.8,29.86,SSW,204,0.0,0.0,74,0.00,,---,0.00,VWS V14.01,2013-07-12 14:11:00,
2013-07-12 10:12:00,84.0,74.8,29.86,SSW,204,0.0,0.0,74,0.00,,---,0.00,VWS V14.01,2013-07-12 14:12:00,
2013-07-12 10:13:00,83.8,74.6,29.86,SSW,204,0.0,0.0,74,0.00,,---,0.00,VWS V14.01,2013-07-12 14:13:00,
2013-07-12 10:14:00,83.8,74.6,29.86,SSW,204,0.0,0.0,74,0.00,,---,0.00,VWS V14.01,2013-07-12 14:14:00,
2013-07-12 10:15:00,83.6,74.4,29.86,SSW,204,0.0,0.0,74,0.00,,---,0.00,VWS V14.01,2013-07-12 14:15:00,
2013-07-12 10:16:00,83.6,75.6,29.86,SSW,204,0.0,0.0,77,0.00,,---,0.00,VWS V14.01,2013-07-12 14:16:00,
2013-07-12 10:17:00,83.8,75.4,29.86,SSW,204,0.0,0.0,76,0.00,,---,0.00,VWS V14.01,2013-07-12 14:17:00,
2013-07-12 10:18:00,83.8,75.4,29.86,SSW,205,0.0,0.0,76,0.00,,---,0.00,VWS V14.01,2013-07-12 14:18:00,
2013-07-12 10:19:00,84.0,76.0,29.86,SSW,205,0.0,0.0,77,0.00,,---,0.00,VWS V14.01,2013-07-12 14:19:00,
2013-07-12 10:20:00,84.0,76.0,29.86,SSW,204,0.0,0.0,77,0.00,,---,0.00,VWS V14.01,2013-07-12 14:20:00,
2013-07-12 10:21:00,84.1,75.3,29.86,SSW,204,0.0,0.0,75,0.00,,---,0.00,VWS V14.01,2013-07-12 14:21:00,
2013-07-12 10:22:00,84.1,75.3,29.86,SSW,204,0.0,0.0,75,0.00,,---,0.00,VWS V14.01,2013-07-12 14:22:00,
2013-07-12 10:23:00,84.3,75.5,29.86,SSW,204,0.0,0.0,75,0.00,,---,0.00,VWS V14.01,2013-07-12 14:23:00,
2013-07-12 10:24:00,84.5,75.3,29.86,SSW,204,0.0,0.0,74,0.00,,---,0.00,VWS V14.01,2013-07-12 14:24:00,
2013-07-12 10:25:00,84.7,75.5,29.86,SSW,195,0.0,0.0,74,0.00,,---,0.00,VWS V14.01,2013-07-12 14:25:00,
2013-07-12 10:26:00,84.9,76.5,29.86,SSW,195,0.0,0.0,76,0.00,,---,0.00,VWS V14.01,2013-07-12 14:26:00,
2013-07-12 10:27:00,85.1,75.5,29.86,SSW,196,0.0,0.0,73,0.00,,---,0.00,VWS V14.01,2013-07-12 14:27:00,
2013-07-12 10:28:00,85.3,75.7,29.86,SSW,200,0.0,0.0,73,0.00,,---,0.00,VWS V14.01,2013-07-12 14:28:00,
2013-07-12 10:29:00,85.3,76.5,29.86,SSW,202,0.0,0.0,75,0.00,,---,0.00,VWS V14.01,2013-07-12 14:29:00,
2013-07-12 10:30:00,85.5,76.3,29.85,SSW,202,0.0,0.0,74,0.00,,---,0.00,VWS V14.01,2013-07-12 14:30:00,
2013-07-12 10:31:00,85.5,76.3,29.85,SSW,202,0.0,0.0,74,0.00,,---,0.00,VWS V14.01,2013-07-12 14:31:00,
2013-07-12 10:32:00,85.5,75.9,29.85,SW,215,0.0,0.0,73,0.00,,---,0.00,VWS V14.01,2013-07-12 14:32:00,
2013-07-12 10:33:00,85.5,75.0,29.85,SW,215,0.0,0.0,71,0.00,,---,0.00,VWS V14.01,2013-07-12 14:33:00,
2013-07-12 10:34:00,85.3,74.8,29.85,SW,215,0.0,0.0,71,0.00,,---,0.00,VWS V14.01,2013-07-12 14:34:00,
2013-07-12 10:35:00,85.3,75.2,29.85,SW,215,0.0,0.0,72,0.00,,---,0.00,VWS V14.01,2013-07-12 14:35:00,
2013-07-12 10:36:00,85.3,75.7,29.85,SW,215,0.0,0.0,73,0.00,,---,0.00,VWS V14.01,2013-07-12 14:36:00,
2013-07-12 10:37:00,85.3,75.7,29.85,SW,215,0.0,0.0,73,0.00,,---,0.00,VWS V14.01,2013-07-12 14:37:00,
2013-07-12 10:38:00,85.3,75.7,29.85,SW,215,0.0,0.0,73,0.00,,---,0.00,VWS V14.01,2013-07-12 14:38:00,
2013-07-12 10:39:00,85.5,75.4,29.85,SW,215,0.0,0.0,72,0.00,,---,0.00,VWS V14.01,2013-07-12 14:39:00,
2013-07-12 10:40:00,85.5,75.4,29.85,SW,215,0.0,0.0,72,0.00,,---,0.00,VWS V14.01,2013-07-12 14:40:00,
2013-07-12 10:41:00,85.3,74.8,29.85,SW,215,0.0,0.0,71,0.00,,---,0.00,VWS V14.01,2013-07-12 14:41:00,
2013-07-12 10:42:00,85.5,75.9,29.85,SW,215,0.0,0.0,73,0.00,,---,0.00,VWS V14.01,2013-07-12 14:42:00,
2013-07-12 10:43:00,85.5,75.0,29.85,SW,215,0.0,0.0,71,0.00,,---,0.00,VWS V14.01,2013-07-12 14:43:00,
2013-07-12 10:44:00,85.5,75.0,29.85,SW,215,0.0,0.0,71,0.00,,---,0.00,VWS V14.01,2013-07-12 14:44:00,
2013-07-12 10:45:00,85.5,75.0,29.85,SW,215,0.0,0.0,71,0.00,,---,0.00,VWS V14.01,2013-07-12 14:45:00,
2013-07-12 10:46:00,85.7,74.4,29.85,SW,215,0.0,0.0,69,0.00,,---,0.00,VWS V14.01,2013-07-12 14:46:00,
2013-07-12 10:47:00,85.7,74.8,29.85,SW,215,0.0,0.0,70,0.00,,---,0.00,VWS V14.01,2013-07-12 14:47:00,
2013-07-12 10:48:00,85.9,75.4,29.85,SW,215,0.0,0.0,71,0.00,,---,0.00,VWS V14.01,2013-07-12 14:48:00,
2013-07-12 10:49:00,86.1,75.2,29.85,SSW,211,0.0,0.0,70,0.00,,---,0.00,VWS V14.01,2013-07-12 14:49:00,
2013-07-12 10:50:00,86.1,75.2,29.85,SSW,208,0.0,0.0,70,0.00,,---,0.00,VWS V14.01,2013-07-12 14:50:00,
2013-07-12 10:51:00,86.1,74.8,29.85,SSW,208,0.0,0.0,69,0.00,,---,0.00,VWS V14.01,2013-07-12 14:51:00,
2013-07-12 10:52:00,86.3,75.4,29.85,SSW,208,0.0,0.0,70,0.00,,---,0.00,VWS V14.01,2013-07-12 14:52:00,
2013-07-12 10:53:00,86.3,74.9,29.85,SSW,208,0.0,0.0,69,0.00,,---,0.00,VWS V14.01,2013-07-12 14:53:00,
2013-07-12 10:54:00,86.5,76.0,29.85,SSW,208,0.0,0.0,71,0.00,,---,0.00,VWS V14.01,2013-07-12 14:54:00,
2013-07-12 10:55:00,86.7,75.3,29.85,SSW,208,0.0,0.0,69,0.00,,---,0.00,VWS V14.01,2013-07-12 14:55:00,
2013-07-12 10:56:00,86.5,75.6,29.85,SSW,208,0.0,0.0,70,0.00,,---,0.00,VWS V14.01,2013-07-12 14:56:00,
2013-07-12 10:57:00,86.5,75.1,29.85,SSW,208,0.0,0.0,69,0.00,,---,0.00,VWS V14.01,2013-07-12 14:57:00,
2013-07-12 10:58:00,86.5,75.6,29.85,SSW,208,0.0,0.0,70,0.00,,---,0.00,VWS V14.01,2013-07-12 14:58:00,
2013-07-12 10:59:00,86.5,75.6,29.85,SSW,213,0.0,0.0,70,0.00,,---,0.00,VWS V14.01,2013-07-12 14:59:00,
2013-07-12 11:00:00,86.3,75.4,29.85,SSW,213,0.0,0.0,70,0.00,,---,0.00,VWS V14.01,2013-07-12 15:00:00,
2013-07-12 11:01:00,86.3,75.8,29.85,SSW,213,0.0,0.0,71,0.00,,---,0.00,VWS V14.01,2013-07-12 15:01:00,
2013-07-12 11:02:00,86.1,75.6,29.85,SSW,213,0.0,0.0,71,0.00,,---,0.00,VWS V14.01,2013-07-12 15:02:00,
2013-07-12 11:03:00,85.9,75.4,29.85,SW,214,0.0,0.0,71,0.00,,---,0.00,VWS V14.01,2013-07-12 15:03:00,
2013-07-12 11:04:00,85.7,75.2,29.85,SW,214,0.0,0.0,71,0.00,,---,0.00,VWS V14.01,2013-07-12 15:04:00,
2013-07-12 11:05:00,85.5,75.9,29.85,SSW,213,0.0,0.0,73,0.00,,---,0.00,VWS V14.01,2013-07-12 15:05:00,
2013-07-12 11:06:00,85.3,75.2,29.85,SW,214,0.0,0.0,72,0.00,,---,0.00,VWS V14.01,2013-07-12 15:06:00,
2013-07-12 11:07:00,85.3,75.7,29.85,SW,214,0.0,0.0,73,0.00,,---,0.00,VWS V14.01,2013-07-12 15:07:00,
2013-07-12 11:08:00,85.1,75.5,29.85,SW,214,0.0,0.0,73,0.00,,---,0.00,VWS V14.01,2013-07-12 15:08:00,
2013-07-12 11:09:00,85.1,75.5,29.85,SSW,213,0.0,0.0,73,0.00,,---,0.00,VWS V14.01,2013-07-12 15:09:00,
2013-07-12 11:10:00,85.1,75.5,29.85,SSW,213,0.0,0.0,73,0.00,,---,0.00,VWS V14.01,2013-07-12 15:10:00,
2013-07-12 11:11:00,84.9,75.3,29.85,SSW,204,0.0,0.0,73,0.00,,---,0.00,VWS V14.01,2013-07-12 15:11:00,
2013-07-12 11:12:00,84.9,75.7,29.85,SSW,206,0.0,0.0,74,0.00,,---,0.00,VWS V14.01,2013-07-12 15:12:00,
2013-07-12 11:13:00,84.7,75.9,29.85,SW,214,0.0,0.0,75,0.00,,---,0.00,VWS V14.01,2013-07-12 15:13:00,
2013-07-12 11:14:00,84.5,76.1,29.85,SW,217,0.0,0.0,76,0.00,,---,0.00,VWS V14.01,2013-07-12 15:14:00,
2013-07-12 11:15:00,84.1,76.1,29.85,SW,222,0.0,0.0,77,0.00,,---,0.00,VWS V14.01,2013-07-12 15:15:00,
2013-07-12 11:16:00,84.0,76.4,29.85,SW,222,0.0,0.0,78,0.00,,---,0.00,VWS V14.01,2013-07-12 15:16:00,
2013-07-12 11:17:00,84.0,76.8,29.85,SW,223,0.0,0.0,79,0.00,,---,0.00,VWS V14.01,2013-07-12 15:17:00,
2013-07-12 11:18:00,83.8,77.0,29.85,SW,223,0.0,0.0,80,0.00,,---,0.00,VWS V14.01,2013-07-12 15:18:00,
2013-07-12 11:19:00,83.8,76.6,29.85,SW,223,0.0,0.0,79,0.00,,---,0.00,VWS V14.01,2013-07-12 15:19:00,
2013-07-12 11:20:00,83.6,76.4,29.85,SSW,209,0.0,0.0,79,0.00,,---,0.00,VWS V14.01,2013-07-12 15:20:00,
2013-07-12 11:21:00,83.4,76.2,29.85,SSW,209,0.0,0.0,79,0.00,,---,0.00,VWS V14.01,2013-07-12 15:21:00,
2013-07-12 11:22:00,83.2,76.0,29.85,SW,218,0.0,0.0,79,0.00,,---,0.00,VWS V14.01,2013-07-12 15:22:00,
2013-07-12 11:23:00,82.8,76.0,29.85,SW,219,0.0,0.0,80,0.00,,---,0.00,VWS V14.01,2013-07-12 15:23:00,
2013-07-12 11:24:00,82.4,75.6,29.85,SW,220,0.0,0.0,80,0.00,,---,0.00,VWS V14.01,2013-07-12 15:24:00,
2013-07-12 11:25:00,82.0,75.6,29.85,SW,222,0.0,0.0,81,0.00,,---,0.00,VWS V14.01,2013-07-12 15:25:00,
2013-07-12 11:26:00,81.6,75.6,29.85,SW,227,0.0,0.0,82,0.00,,---,0.00,VWS V14.01,2013-07-12 15:26:00,
2013-07-12 11:27:00,81.4,75.7,29.85,SW,227,0.0,0.0,83,0.00,,---,0.00,VWS V14.01,2013-07-12 15:27:00,
2013-07-12 11:28:00,81.2,74.8,29.85,SW,226,0.0,0.0,81,0.00,,---,0.00,VWS V14.01,2013-07-12 15:28:00,
2013-07-12 11:29:00,81.1,75.1,29.85,SW,226,0.0,0.0,82,0.00,,---,0.00,VWS V14.01,2013-07-12 15:29:00,
2013-07-12 11:30:00,80.9,74.5,29.86,SW,226,0.0,0.0,81,0.00,,---,0.00,VWS V14.01,2013-07-12 15:30:00,
2013-07-12 11:31:00,80.9,74.5,29.86,SW,226,0.0,0.0,81,0.00,,---,0.00,VWS V14.01,2013-07-12 15:31:00,
2013-07-12 11:32:00,80.7,74.0,29.86,SW,226,0.0,0.0,80,0.00,,---,0.00,VWS V14.01,2013-07-12 15:32:00,
2013-07-12 11:33:00,80.5,73.4,29.86,SW,222,0.0,0.0,79,0.00,,---,0.00,VWS V14.01,2013-07-12 15:33:00,
2013-07-12 11:34:00,80.5,73.0,29.86,SW,221,0.0,0.0,78,0.00,,---,0.00,VWS V14.01,2013-07-12 15:34:00,
2013-07-12 11:35:00,80.3,72.8,29.86,SW,221,0.0,0.0,78,0.00,,---,0.00,VWS V14.01,2013-07-12 15:35:00,
2013-07-12 11:36:00,80.3,72.8,29.86,SW,221,0.0,0.0,78,0.00,,---,0.00,VWS V14.01,2013-07-12 15:36:00,
2013-07-12 11:37:00,80.3,72.8,29.86,SW,221,0.0,0.0,78,0.00,,---,0.00,VWS V14.01,2013-07-12 15:37:00,
2013-07-12 11:38:00,80.3,72.8,29.86,SW,221,0.0,0.0,78,0.00,,---,0.00,VWS V14.01,2013-07-12 15:38:00,
2013-07-12 11:39:00,80.1,72.6,29.86,SW,221,0.0,0.0,78,0.00,,---,0.00,VWS V14.01,2013-07-12 15:39:00,
2013-07-12 11:40:00,80.1,72.2,29.86,SW,220,0.0,0.0,77,0.00,,---,0.00,VWS V14.01,2013-07-12 15:40:00,
2013-07-12 11:41:00,79.9,72.1,29.86,SW,220,0.0,0.0,77,0.00,,---,0.00,VWS V14.01,2013-07-12 15:41:00,
2013-07-12 11:42:00,79.8,72.3,29.86,SW,220,0.0,0.0,78,0.00,,---,0.00,VWS V14.01,2013-07-12 15:42:00,
2013-07-12 11:43:00,79.8,72.3,29.86,SW,220,0.0,0.0,78,0.00,,---,0.00,VWS V14.01,2013-07-12 15:43:00,
2013-07-12 11:44:00,79.8,72.3,29.86,SW,220,0.0,0.0,78,0.00,,---,0.00,VWS V14.01,2013-07-12 15:44:00,
2013-07-12 11:45:00,79.8,72.3,29.85,SW,220,0.0,0.0,78,0.00,,---,0.00,VWS V14.01,2013-07-12 15:45:00,
2013-07-12 11:46:00,79.6,72.1,29.85,SW,220,0.0,0.0,78,0.00,,---,0.00,VWS V14.01,2013-07-12 15:46:00,
2013-07-12 11:47:00,79.6,72.5,29.85,SW,220,0.0,0.0,79,0.00,,---,0.00,VWS V14.01,2013-07-12 15:47:00,
2013-07-12 11:48:00,79.6,72.1,29.85,SW,220,0.0,0.0,78,0.00,,---,0.00,VWS V14.01,2013-07-12 15:48:00,
2013-07-12 11:49:00,80.5,72.6,29.85,SSW,202,2.0,5.0,77,0.00,,---,0.00,VWS V14.01,2013-07-12 15:49:00,
2013-07-12 11:50:00,80.5,72.6,29.85,SSW,202,3.0,5.0,77,0.00,,---,0.00,VWS V14.01,2013-07-12 15:50:00,
2013-07-12 11:51:00,80.5,72.6,29.85,SSW,202,3.0,5.0,77,0.00,,---,0.00,VWS V14.01,2013-07-12 15:51:00,
2013-07-12 11:52:00,80.5,72.6,29.85,SSW,202,4.0,5.0,77,0.00,,---,0.00,VWS V14.01,2013-07-12 15:52:00,
2013-07-12 11:53:00,80.6,72.7,29.85,SSW,202,5.0,6.0,77,0.00,,---,0.00,VWS V14.01,2013-07-12 15:53:00,
2013-07-12 11:54:00,80.6,72.7,29.85,SSW,202,4.0,6.0,77,0.00,,---,0.00,VWS V14.01,2013-07-12 15:54:00,
2013-07-12 11:55:00,80.6,72.7,29.85,SSW,202,2.0,6.0,77,0.00,,---,0.00,VWS V14.01,2013-07-12 15:55:00,
2013-07-12 11:56:00,80.7,73.2,29.85,SSW,202,0.0,6.0,78,0.00,,---,0.00,VWS V14.01,2013-07-12 15:56:00,
2013-07-12 11:57:00,80.8,72.9,29.85,SSW,202,4.0,6.0,77,0.00,,---,0.00,VWS V14.01,2013-07-12 15:57:00,
2013-07-12 11:58:00,80.8,72.9,29.85,SSW,202,0.0,6.0,77,0.00,,---,0.00,VWS V14.01,2013-07-12 15:58:00,
2013-07-12 11:59:00,80.9,73.4,29.85,SSW,202,0.0,6.0,78,0.00,,---,0.00,VWS V14.01,2013-07-12 15:59:00,
2013-07-12 12:00:00,81.0,73.1,29.85,SSW,202,0.0,6.0,77,0.00,,---,0.00,VWS V14.01,2013-07-12 16:00:00,
2013-07-12 12:01:00,81.0,73.1,29.85,SSW,202,2.0,2.0,77,0.00,,---,0.00,VWS V14.01,2013-07-12 16:01:00,
2013-07-12 12:02:00,81.1,73.2,29.85,SSW,202,0.0,3.0,77,0.00,,---,0.00,VWS V14.01,2013-07-12 16:02:00,
2013-07-12 12:03:00,81.1,73.6,29.85,SSW,202,0.0,3.0,78,0.00,,---,0.00,VWS V14.01,2013-07-12 16:03:00,
2013-07-12 12:04:00,81.1,73.6,29.85,SSW,202,0.0,3.0,78,0.00,,---,0.00,VWS V14.01,2013-07-12 16:04:00,
2013-07-12 12:05:00,81.2,73.7,29.85,SSW,202,0.0,3.0,78,0.00,,---,0.00,VWS V14.01,2013-07-12 16:05:00,
2013-07-12 12:06:00,80.3,72.8,29.85,SW,220,0.0,3.0,78,0.00,,---,0.00,VWS V14.01,2013-07-12 16:06:00,
2013-07-12 12:07:00,80.5,73.0,29.85,SW,220,0.0,3.0,78,0.00,,---,0.00,VWS V14.01,2013-07-12 16:07:00,
2013-07-12 12:08:00,80.5,73.0,29.85,SW,220,0.0,3.0,78,0.00,,---,0.00,VWS V14.01,2013-07-12 16:08:00,
2013-07-12 12:09:00,80.5,73.0,29.85,SW,220,0.0,3.0,78,0.00,,---,0.00,VWS V14.01,2013-07-12 16:09:00,
2013-07-12 12:10:00,80.5,73.0,29.85,SW,220,0.0,3.0,78,0.00,,---,0.00,VWS V14.01,2013-07-12 16:10:00,
2013-07-12 12:11:00,80.5,73.0,29.85,SW,220,0.0,3.0,78,0.00,,---,0.00,VWS V14.01,2013-07-12 16:11:00,
2013-07-12 12:12:00,80.5,73.0,29.85,SW,220,0.0,3.0,78,0.00,,---,0.00,VWS V14.01,2013-07-12 16:12:00,
2013-07-12 12:13:00,80.5,72.2,29.85,SW,220,0.0,3.0,76,0.00,,---,0.00,VWS V14.01,2013-07-12 16:13:00,
2013-07-12 12:14:00,80.5,72.2,29.85,SW,220,0.0,3.0,76,0.00,,---,0.00,VWS V14.01,2013-07-12 16:14:00,
2013-07-12 12:15:00,80.5,72.6,29.85,SW,220,0.0,3.0,77,0.00,,---,0.00,VWS V14.01,2013-07-12 16:15:00,
2013-07-12 12:16:00,80.7,73.2,29.85,SW,220,0.0,3.0,78,0.00,,---,0.00,VWS V14.01,2013-07-12 16:16:00,
2013-07-12 12:17:00,80.9,73.4,29.85,SW,220,0.0,3.0,78,0.00,,---,0.00,VWS V14.01,2013-07-12 16:17:00,
2013-07-12 12:18:00,80.9,73.0,29.85,SW,220,0.0,3.0,77,0.00,,---,0.00,VWS V14.01,2013-07-12 16:18:00,
2013-07-12 12:19:00,80.9,73.4,29.85,SW,220,0.0,3.0,78,0.00,,---,0.00,VWS V14.01,2013-07-12 16:19:00,
2013-07-12 12:20:00,81.1,73.2,29.85,SW,220,0.0,3.0,77,0.00,,---,0.00,VWS V14.01,2013-07-12 16:20:00,
2013-07-12 12:21:00,81.1,73.2,29.85,SW,220,0.0,3.0,77,0.00,,---,0.00,VWS V14.01,2013-07-12 16:21:00,
2013-07-12 12:22:00,81.1,73.2,29.85,SW,220,0.0,3.0,77,0.00,,---,0.00,VWS V14.01,2013-07-12 16:22:00,
2013-07-12 12:23:00,81.2,73.3,29.85,SW,220,0.0,3.0,77,0.00,,---,0.00,VWS V14.01,2013-07-12 16:23:00,
2013-07-12 12:24:00,81.4,73.5,29.85,SW,220,0.0,3.0,77,0.00,,---,0.00,VWS V14.01,2013-07-12 16:24:00,
2013-07-12 12:25:00,81.6,73.3,29.85,SW,219,0.0,3.0,76,0.00,,---,0.00,VWS V14.01,2013-07-12 16:25:00,
2013-07-12 12:26:00,81.8,73.5,29.85,SW,219,0.0,3.0,76,0.00,,---,0.00,VWS V14.01,2013-07-12 16:26:00,
2013-07-12 12:27:00,81.8,73.5,29.85,SW,219,0.0,3.0,76,0.00,,---,0.00,VWS V14.01,2013-07-12 16:27:00,
2013-07-12 12:28:00,82.0,73.3,29.85,SW,219,0.0,3.0,75,0.00,,---,0.00,VWS V14.01,2013-07-12 16:28:00,
2013-07-12 12:29:00,82.0,73.7,29.85,SW,219,0.0,3.0,76,0.00,,---,0.00,VWS V14.01,2013-07-12 16:29:00,
2013-07-12 12:30:00,82.2,74.3,29.84,SW,219,0.0,3.0,77,0.00,,---,0.00,VWS V14.01,2013-07-12 16:30:00,
2013-07-12 12:31:00,82.4,74.1,29.84,SW,219,0.0,0.0,76,0.00,,---,0.00,VWS V14.01,2013-07-12 16:31:00,
2013-07-12 12:32:00,82.6,73.9,29.84,SW,219,0.0,0.0,75,0.00,,---,0.00,VWS V14.01,2013-07-12 16:32:00,
2013-07-12 12:33:00,82.8,73.3,29.84,SW,219,0.0,0.0,73,0.00,,---,0.00,VWS V14.01,2013-07-12 16:33:00,
2013-07-12 12:34:00,83.0,73.5,29.84,SW,219,0.0,0.0,73,0.00,,---,0.00,VWS V14.01,2013-07-12 16:34:00,
2013-07-12 12:35:00,83.0,72.6,29.84,SW,219,0.0,0.0,71,0.00,,---,0.00,VWS V14.01,2013-07-12 16:35:00,
2013-07-12 12:36:00,83.4,73.4,29.84,SW,219,0.0,0.0,72,0.00,,---,0.00,VWS V14.01,2013-07-12 16:36:00,
2013-07-12 12:37:00,83.6,73.6,29.84,SW,219,0.0,0.0,72,0.00,,---,0.00,VWS V14.01,2013-07-12 16:37:00,
2013-07-12 12:38:00,83.8,73.8,29.84,SW,219,0.0,0.0,72,0.00,,---,0.00,VWS V14.01,2013-07-12 16:38:00,
2013-07-12 12:39:00,83.8,73.8,29.84,SW,219,0.0,0.0,72,0.00,,---,0.00,VWS V14.01,2013-07-12 16:39:00,
2013-07-12 12:40:00,83.8,73.4,29.84,SW,219,0.0,0.0,71,0.00,,---,0.00,VWS V14.01,2013-07-12 16:40:00,
2013-07-12 12:41:00,84.0,74.4,29.84,SW,219,0.0,0.0,73,0.00,,---,0.00,VWS V14.01,2013-07-12 16:41:00,
2013-07-12 12:42:00,84.1,74.5,29.84,SW,217,0.0,0.0,73,0.00,,---,0.00,VWS V14.01,2013-07-12 16:42:00,
2013-07-12 12:43:00,84.1,73.7,29.84,SW,216,0.0,0.0,71,0.00,,---,0.00,VWS V14.01,2013-07-12 16:43:00,
2013-07-12 12:44:00,84.1,74.1,29.84,SW,216,0.0,0.0,72,0.00,,---,0.00,VWS V14.01,2013-07-12 16:44:00,
2013-07-12 12:45:00,84.3,75.1,29.85,SW,216,0.0,0.0,74,0.00,,---,0.00,VWS V14.01,2013-07-12 16:45:00,
2013-07-12 12:46:00,84.3,74.3,29.85,SW,215,0.0,0.0,72,0.00,,---,0.00,VWS V14.01,2013-07-12 16:46:00,
2013-07-12 12:47:00,84.3,74.7,29.85,SW,215,0.0,0.0,73,0.00,,---,0.00,VWS V14.01,2013-07-12 16:47:00,
2013-07-12 12:48:00,84.3,74.7,29.85,SW,215,0.0,0.0,73,0.00,,---,0.00,VWS V14.01,2013-07-12 16:48:00,
2013-07-12 12:49:00,84.3,74.7,29.85,SW,216,0.0,0.0,73,0.00,,---,0.00,VWS V14.01,2013-07-12 16:49:00,
2013-07-12 12:50:00,84.3,75.1,29.85,SW,216,0.0,0.0,74,0.00,,---,0.00,VWS V14.01,2013-07-12 16:50:00,
2013-07-12 12:51:00,84.1,74.9,29.85,SW,216,0.0,0.0,74,0.00,,---,0.00,VWS V14.01,2013-07-12 16:51:00,
2013-07-12 12:52:00,84.1,75.3,29.85,SW,216,0.0,0.0,75,0.00,,---,0.00,VWS V14.01,2013-07-12 16:52:00,
2013-07-12 12:53:00,84.1,75.7,29.85,SW,215,0.0,0.0,76,0.00,,---,0.00,VWS V14.01,2013-07-12 16:53:00,
2013-07-12 12:54:00,84.1,75.7,29.85,SW,215,0.0,0.0,76,0.00,,---,0.00,VWS V14.01,2013-07-12 16:54:00,
2013-07-12 12:55:00,84.3,76.3,29.85,SSW,212,0.0,0.0,77,0.00,,---,0.00,VWS V14.01,2013-07-12 16:55:00,
2013-07-12 12:56:00,84.3,75.9,29.85,SSW,211,0.0,0.0,76,0.00,,---,0.00,VWS V14.01,2013-07-12 16:56:00,
2013-07-12 12:57:00,84.3,75.5,29.85,SSW,211,0.0,0.0,75,0.00,,---,0.00,VWS V14.01,2013-07-12 16:57:00,
2013-07-12 12:58:00,84.3,76.3,29.85,SSW,213,0.0,0.0,77,0.00,,---,0.00,VWS V14.01,2013-07-12 16:58:00,
2013-07-12 12:59:00,84.3,75.9,29.85,SSW,211,0.0,0.0,76,0.00,,---,0.00,VWS V14.01,2013-07-12 16:59:00,
2013-07-12 13:00:00,84.1,75.3,29.85,SSW,209,0.0,0.0,75,0.00,,---,0.00,VWS V14.01,2013-07-12 17:00:00,
2013-07-12 13:01:00,84.1,75.7,29.85,SSW,207,0.0,0.0,76,0.00,,---,0.00,VWS V14.01,2013-07-12 17:01:00,
2013-07-12 13:02:00,84.1,75.7,29.85,SSW,200,0.0,0.0,76,0.00,,---,0.00,VWS V14.01,2013-07-12 17:02:00,
2013-07-12 13:03:00,84.0,75.2,29.85,SSW,199,0.0,0.0,75,0.00,,---,0.00,VWS V14.01,2013-07-12 17:03:00,
2013-07-12 13:04:00,84.1,76.1,29.85,SSW,200,0.0,0.0,77,0.00,,---,0.00,VWS V14.01,2013-07-12 17:04:00,
2013-07-12 13:05:00,84.1,75.7,29.85,SSW,192,0.0,0.0,76,0.00,,---,0.00,VWS V14.01,2013-07-12 17:05:00,
2013-07-12 13:06:00,84.1,75.7,29.85,South,188,0.0,0.0,76,0.00,,---,0.00,VWS V14.01,2013-07-12 17:06:00,
2013-07-12 13:07:00,84.3,75.9,29.85,SSW,204,0.0,0.0,76,0.00,,---,0.00,VWS V14.01,2013-07-12 17:07:00,
2013-07-12 13:08:00,84.5,76.1,29.85,SSW,202,0.0,0.0,76,0.00,,---,0.00,VWS V14.01,2013-07-12 17:08:00,
2013-07-12 13:09:00,84.5,75.7,29.85,South,188,0.0,0.0,75,0.00,,---,0.00,VWS V14.01,2013-07-12 17:09:00,
2013-07-12 13:10:00,84.5,75.3,29.85,SSW,202,0.0,0.0,74,0.00,,---,0.00,VWS V14.01,2013-07-12 17:10:00,
2013-07-12 13:11:00,84.5,75.7,29.85,SSW,203,0.0,0.0,75,0.00,,---,0.00,VWS V14.01,2013-07-12 17:11:00,
2013-07-12 13:12:00,84.7,75.9,29.85,SSW,210,0.0,0.0,75,0.00,,---,0.00,VWS V14.01,2013-07-12 17:12:00,
2013-07-12 13:13:00,84.7,76.3,29.85,SSW,211,0.0,0.0,76,0.00,,---,0.00,VWS V14.01,2013-07-12 17:13:00,
2013-07-12 13:14:00,84.9,75.7,29.85,SSW,212,0.0,0.0,74,0.00,,---,0.00,VWS V14.01,2013-07-12 17:14:00,
2013-07-12 13:15:00,84.9,76.1,29.85,SSW,213,0.0,0.0,75,0.00,,---,0.00,VWS V14.01,2013-07-12 17:15:00,
2013-07-12 13:16:00,84.9,75.7,29.85,SW,215,0.0,0.0,74,0.00,,---,0.00,VWS V14.01,2013-07-12 17:16:00,
2013-07-12 13:17:00,84.9,76.1,29.85,SW,219,0.0,0.0,75,0.00,,---,0.00,VWS V14.01,2013-07-12 17:17:00,
2013-07-12 13:18:00,84.9,75.7,29.85,SW,222,0.0,0.0,74,0.00,,---,0.00,VWS V14.01,2013-07-12 17:18:00,
2013-07-12 13:19:00,84.9,76.1,29.85,SW,222,0.0,0.0,75,0.00,,---,0.00,VWS V14.01,2013-07-12 17:19:00,
2013-07-12 13:20:00,84.9,75.3,29.85,SW,232,0.0,0.0,73,0.00,,---,0.00,VWS V14.01,2013-07-12 17:20:00,
2013-07-12 13:21:00,84.7,75.1,29.85,WSW,239,0.0,0.0,73,0.00,,---,0.00,VWS V14.01,2013-07-12 17:21:00,
2013-07-12 13:22:00,84.5,74.9,29.85,SW,234,0.0,0.0,73,0.00,,---,0.00,VWS V14.01,2013-07-12 17:22:00,
2013-07-12 13:23:00,84.3,74.7,29.85,SW,228,0.0,0.0,73,0.00,,---,0.00,VWS V14.01,2013-07-12 17:23:00,
2013-07-12 13:24:00,84.1,74.9,29.85,SW,222,0.0,0.0,74,0.00,,---,0.00,VWS V14.01,2013-07-12 17:24:00,
2013-07-12 13:25:00,83.8,74.2,29.85,SW,226,0.0,0.0,73,0.00,,---,0.00,VWS V14.01,2013-07-12 17:25:00,
2013-07-12 13:26:00,83.8,75.0,29.85,SW,225,0.0,0.0,75,0.00,,---,0.00,VWS V14.01,2013-07-12 17:26:00,
2013-07-12 13:27:00,83.6,74.8,29.85,SW,222,0.0,0.0,75,0.00,,---,0.00,VWS V14.01,2013-07-12 17:27:00,
2013-07-12 13:28:00,83.4,74.2,29.85,SW,223,0.0,0.0,74,0.00,,---,0.00,VWS V14.01,2013-07-12 17:28:00,
2013-07-12 13:29:00,83.4,74.7,29.85,SW,223,0.0,0.0,75,0.00,,---,0.00,VWS V14.01,2013-07-12 17:29:00,
2013-07-12 13:30:00,83.2,74.1,29.86,SW,223,0.0,0.0,74,0.00,,---,0.00,VWS V14.01,2013-07-12 17:30:00,
2013-07-12 13:31:00,83.0,74.3,29.86,SW,232,0.0,0.0,75,0.00,,---,0.00,VWS V14.01,2013-07-12 17:31:00,
2013-07-12 13:32:00,83.0,74.3,29.86,SW,236,0.0,0.0,75,0.00,,---,0.00,VWS V14.01,2013-07-12 17:32:00,
2013-07-12 13:33:00,82.8,74.5,29.86,SW,229,0.0,0.0,76,0.00,,---,0.00,VWS V14.01,2013-07-12 17:33:00,
2013-07-12 13:34:00,82.6,73.9,29.86,SW,228,0.0,0.0,75,0.00,,---,0.00,VWS V14.01,2013-07-12 17:34:00,
2013-07-12 13:35:00,82.6,74.3,29.86,SW,229,0.0,0.0,76,0.00,,---,0.00,VWS V14.01,2013-07-12 17:35:00,
2013-07-12 13:36:00,82.6,74.3,29.86,SW,229,0.0,0.0,76,0.00,,---,0.00,VWS V14.01,2013-07-12 17:36:00,
2013-07-12 13:37:00,82.6,74.7,29.86,SW,229,0.0,0.0,77,0.00,,---,0.00,VWS V14.01,2013-07-12 17:37:00,
2013-07-12 13:38:00,82.6,75.1,29.86,SW,229,0.0,0.0,78,0.00,,---,0.00,VWS V14.01,2013-07-12 17:38:00,
2013-07-12 13:39:00,82.6,74.7,29.86,SW,231,0.0,0.0,77,0.00,,---,0.00,VWS V14.01,2013-07-12 17:39:00,
2013-07-12 13:40:00,82.4,74.1,29.86,SW,232,0.0,0.0,76,0.00,,---,0.00,VWS V14.01,2013-07-12 17:40:00,
2013-07-12 13:41:00,82.4,74.5,29.86,SW,233,0.0,0.0,77,0.00,,---,0.00,VWS V14.01,2013-07-12 17:41:00,
2013-07-12 13:42:00,82.4,74.9,29.86,WSW,241,0.0,0.0,78,0.00,,---,0.00,VWS V14.01,2013-07-12 17:42:00,
2013-07-12 13:43:00,82.4,74.9,29.86,WSW,242,0.0,0.0,78,0.00,,---,0.00,VWS V14.01,2013-07-12 17:43:00,
2013-07-12 13:44:00,82.4,74.9,29.86,WSW,241,0.0,0.0,78,0.00,,---,0.00,VWS V14.01,2013-07-12 17:44:00,
2013-07-12 13:45:00,82.2,75.0,29.86,SW,232,0.0,0.0,79,0.00,,---,0.00,VWS V14.01,2013-07-12 17:45:00,
2013-07-12 13:46:00,82.2,75.0,29.86,SW,232,0.0,0.0,79,0.00,,---,0.00,VWS V14.01,2013-07-12 17:46:00,
2013-07-12 13:47:00,82.4,75.2,29.86,WSW,240,0.0,0.0,79,0.00,,---,0.00,VWS V14.01,2013-07-12 17:47:00,
2013-07-12 13:48:00,82.4,75.2,29.86,WSW,240,0.0,0.0,79,0.00,,---,0.00,VWS V14.01,2013-07-12 17:48:00,
2013-07-12 13:49:00,82.4,74.9,29.86,WSW,240,0.0,0.0,78,0.00,,---,0.00,VWS V14.01,2013-07-12 17:49:00,
2013-07-12 13:50:00,82.4,74.9,29.86,WSW,244,0.0,0.0,78,0.00,,---,0.00,VWS V14.01,2013-07-12 17:50:00,
2013-07-12 13:51:00,82.4,75.2,29.86,West,264,0.0,0.0,79,0.00,,---,0.00,VWS V14.01,2013-07-12 17:51:00,
2013-07-12 13:52:00,82.4,74.9,29.86,West,277,0.0,0.0,78,0.00,,---,0.00,VWS V14.01,2013-07-12 17:52:00,
2013-07-12 13:53:00,82.4,75.2,29.86,West,278,0.0,0.0,79,0.00,,---,0.00,VWS V14.01,2013-07-12 17:53:00,
2013-07-12 13:54:00,82.4,74.9,29.86,WNW,292,0.0,0.0,78,0.00,,---,0.00,VWS V14.01,2013-07-12 17:54:00,
2013-07-12 13:55:00,82.2,74.7,29.86,WNW,290,0.0,0.0,78,0.00,,---,0.00,VWS V14.01,2013-07-12 17:55:00,
2013-07-12 13:56:00,82.2,75.0,29.86,WNW,290,0.0,0.0,79,0.00,,---,0.00,VWS V14.01,2013-07-12 17:56:00,
2013-07-12 13:57:00,82.0,75.2,29.86,WNW,290,0.0,0.0,80,0.00,,---,0.00,VWS V14.01,2013-07-12 17:57:00,
2013-07-12 13:58:00,82.0,75.6,29.86,WNW,303,0.0,0.0,81,0.00,,---,0.00,VWS V14.01,2013-07-12 17:58:00,
2013-07-12 13:59:00,81.8,75.0,29.86,NNW,344,0.0,0.0,80,0.00,,---,0.00,VWS V14.01,2013-07-12 17:59:00,
2013-07-12 14:00:00,81.8,75.0,29.85,NNW,332,0.0,0.0,80,0.00,,---,0.00,VWS V14.01,2013-07-12 18:00:00,
2013-07-12 14:01:00,81.6,75.2,29.85,NW,323,0.0,0.0,81,0.00,,---,0.00,VWS V14.01,2013-07-12 18:01:00,
2013-07-12 14:02:00,81.8,75.8,29.85,North,355,0.0,0.0,82,0.00,,---,0.00,VWS V14.01,2013-07-12 18:02:00,
2013-07-12 14:03:00,81.6,75.2,29.85,North,350,0.0,0.0,81,0.00,,---,0.00,VWS V14.01,2013-07-12 18:03:00,
2013-07-12 14:04:00,81.4,74.6,29.85,NNE,22,0.0,0.0,80,0.00,,---,0.00,VWS V14.01,2013-07-12 18:04:00,
2013-07-12 14:05:00,81.2,74.8,29.85,NNE,13,0.0,0.0,81,0.00,,---,0.00,VWS V14.01,2013-07-12 18:05:00,
2013-07-12 14:06:00,81.1,74.7,29.85,North,349,0.0,0.0,81,0.00,,---,0.00,VWS V14.01,2013-07-12 18:06:00,
2013-07-12 14:07:00,80.7,74.3,29.85,NW,321,0.0,0.0,81,0.00,,---,0.00,VWS V14.01,2013-07-12 18:07:00,
2013-07-12 14:08:00,80.5,74.5,29.85,NNE,16,0.0,0.0,82,0.00,,---,0.00,VWS V14.01,2013-07-12 18:08:00,
2013-07-12 14:09:00,80.3,74.3,29.85,NNE,24,0.0,0.0,82,0.00,,---,0.00,VWS V14.01,2013-07-12 18:09:00,
2013-07-12 14:10:00,80.1,74.5,29.85,North,350,0.0,0.0,83,0.00,,---,0.00,VWS V14.01,2013-07-12 18:10:00,
2013-07-12 14:11:00,80.1,74.8,29.85,North,11,0.0,0.0,84,0.00,,---,0.00,VWS V14.01,2013-07-12 18:11:00,
2013-07-12 14:12:00,80.1,74.5,29.85,North,355,0.0,0.0,83,0.00,,---,0.00,VWS V14.01,2013-07-12 18:12:00,
2013-07-12 14:13:00,80.1,74.8,29.85,NNW,346,0.0,0.0,84,0.00,,---,0.00,VWS V14.01,2013-07-12 18:13:00,
2013-07-12 14:14:00,80.1,75.2,29.85,NNE,15,0.0,0.0,85,0.00,,---,0.00,VWS V14.01,2013-07-12 18:14:00,
2013-07-12 14:15:00,80.1,74.8,29.85,North,355,0.0,0.0,84,0.00,,---,0.00,VWS V14.01,2013-07-12 18:15:00,
2013-07-12 14:16:00,80.1,75.2,29.85,NNE,15,0.0,0.0,85,0.00,,---,0.00,VWS V14.01,2013-07-12 18:16:00,
2013-07-12 14:17:00,80.1,74.8,29.85,North,360,0.0,0.0,84,0.00,,---,0.00,VWS V14.01,2013-07-12 18:17:00,
2013-07-12 14:18:00,80.3,75.4,29.85,NNW,348,0.0,0.0,85,0.00,,---,0.00,VWS V14.01,2013-07-12 18:18:00,
2013-07-12 14:19:00,80.3,75.4,29.85,North,360,0.0,0.0,85,0.00,,---,0.00,VWS V14.01,2013-07-12 18:19:00,
2013-07-12 14:20:00,80.3,75.0,29.85,NNE,15,0.0,0.0,84,0.00,,---,0.00,VWS V14.01,2013-07-12 18:20:00,
2013-07-12 14:21:00,80.3,74.7,29.85,North,5,0.0,0.0,83,0.00,,---,0.00,VWS V14.01,2013-07-12 18:21:00,
2013-07-12 14:22:00,80.3,74.7,29.85,NNW,329,0.0,0.0,83,0.00,,---,0.00,VWS V14.01,2013-07-12 18:22:00,
2013-07-12 14:23:00,80.3,74.7,29.85,NNW,329,0.0,0.0,83,0.00,,---,0.00,VWS V14.01,2013-07-12 18:23:00,
2013-07-12 14:24:00,80.3,74.7,29.85,NNW,329,0.0,0.0,83,0.00,,---,0.00,VWS V14.01,2013-07-12 18:24:00,
2013-07-12 14:25:00,80.3,74.7,29.85,NNW,329,0.0,0.0,83,0.00,,---,0.00,VWS V14.01,2013-07-12 18:25:00,
2013-07-12 14:26:00,80.3,74.7,29.85,NNW,335,0.0,0.0,83,0.00,,---,0.00,VWS V14.01,2013-07-12 18:26:00,
2013-07-12 14:27:00,80.3,74.7,29.85,North,350,0.0,0.0,83,0.00,,---,0.00,VWS V14.01,2013-07-12 18:27:00,
2013-07-12 14:28:00,80.3,74.7,29.85,NNW,341,0.0,0.0,83,0.00,,---,0.00,VWS V14.01,2013-07-12 18:28:00,
2013-07-12 14:29:00,80.3,75.0,29.85,NNW,342,0.0,0.0,84,0.00,,---,0.00,VWS V14.01,2013-07-12 18:29:00,
2013-07-12 14:30:00,80.3,75.0,29.85,NNW,337,0.0,0.0,84,0.00,,---,0.00,VWS V14.01,2013-07-12 18:30:00,
2013-07-12 14:31:00,80.5,75.2,29.85,NW,321,0.0,0.0,84,0.00,,---,0.00,VWS V14.01,2013-07-12 18:31:00,
2013-07-12 14:32:00,80.5,74.5,29.85,NW,321,0.0,0.0,82,0.00,,---,0.00,VWS V14.01,2013-07-12 18:32:00,
2013-07-12 14:33:00,80.5,74.5,29.85,NW,325,0.0,0.0,82,0.00,,---,0.00,VWS V14.01,2013-07-12 18:33:00,
2013-07-12 14:34:00,80.5,74.5,29.85,NW,313,0.0,0.0,82,0.00,,---,0.00,VWS V14.01,2013-07-12 18:34:00,
2013-07-12 14:35:00,80.5,74.5,29.85,NW,325,0.0,0.0,82,0.00,,---,0.00,VWS V14.01,2013-07-12 18:35:00,
2013-07-12 14:36:00,80.5,74.1,29.85,NW,326,0.0,0.0,81,0.00,,---,0.00,VWS V14.01,2013-07-12 18:36:00,
2013-07-12 14:37:00,80.5,74.5,29.85,NW,326,0.0,0.0,82,0.00,,---,0.00,VWS V14.01,2013-07-12 18:37:00,
2013-07-12 14:38:00,80.5,74.5,29.85,NW,326,0.0,0.0,82,0.00,,---,0.00,VWS V14.01,2013-07-12 18:38:00,
2013-07-12 14:39:00,80.7,74.7,29.85,NW,326,0.0,0.0,82,0.00,,---,0.00,VWS V14.01,2013-07-12 18:39:00,
2013-07-12 14:40:00,80.7,74.7,29.85,NW,323,0.0,0.0,82,0.00,,---,0.00,VWS V14.01,2013-07-12 18:40:00,
2013-07-12 14:41:00,80.9,74.9,29.85,NW,309,0.0,0.0,82,0.00,,---,0.00,VWS V14.01,2013-07-12 18:41:00,
2013-07-12 14:42:00,80.9,74.9,29.85,NW,312,0.0,0.0,82,0.00,,---,0.00,VWS V14.01,2013-07-12 18:42:00,
2013-07-12 14:43:00,80.9,75.3,29.85,NW,312,0.0,0.0,83,0.00,,---,0.00,VWS V14.01,2013-07-12 18:43:00,
2013-07-12 14:44:00,80.9,74.5,29.85,NW,312,0.0,0.0,81,0.00,,---,0.00,VWS V14.01,2013-07-12 18:44:00,
2013-07-12 14:45:00,80.9,74.5,29.85,NW,312,0.0,0.0,81,0.00,,---,0.00,VWS V14.01,2013-07-12 18:45:00,
2013-07-12 14:46:00,80.9,74.9,29.85,NW,315,0.0,0.0,82,0.00,,---,0.00,VWS V14.01,2013-07-12 18:46:00,
2013-07-12 14:47:00,80.9,74.5,29.85,NW,315,0.0,0.0,81,0.00,,---,0.00,VWS V14.01,2013-07-12 18:47:00,
2013-07-12 14:48:00,80.9,74.5,29.85,NW,315,0.0,0.0,81,0.00,,---,0.00,VWS V14.01,2013-07-12 18:48:00,
2013-07-12 14:49:00,80.9,74.5,29.85,NW,315,0.0,0.0,81,0.00,,---,0.00,VWS V14.01,2013-07-12 18:49:00,
2013-07-12 14:50:00,80.9,74.5,29.85,NW,315,0.0,0.0,81,0.00,,---,0.00,VWS V14.01,2013-07-12 18:50:00,
2013-07-12 14:51:00,80.9,74.5,29.85,NW,315,0.0,0.0,81,0.00,,---,0.00,VWS V14.01,2013-07-12 18:51:00,
2013-07-12 14:52:00,80.9,74.9,29.85,NW,315,0.0,0.0,82,0.00,,---,0.00,VWS V14.01,2013-07-12 18:52:00,
2013-07-12 14:53:00,80.9,74.5,29.85,NW,315,0.0,0.0,81,0.00,,---,0.00,VWS V14.01,2013-07-12 18:53:00,
2013-07-12 14:54:00,80.9,75.3,29.85,NW,315,0.0,0.0,83,0.00,,---,0.00,VWS V14.01,2013-07-12 18:54:00,
2013-07-12 14:55:00,80.9,75.3,29.85,NW,315,0.0,0.0,83,0.00,,---,0.00,VWS V14.01,2013-07-12 18:55:00,
2013-07-12 14:56:00,80.9,74.9,29.85,NW,315,0.0,0.0,82,0.00,,---,0.00,VWS V14.01,2013-07-12 18:56:00,
2013-07-12 14:57:00,80.9,74.9,29.85,NW,313,0.0,0.0,82,0.00,,---,0.00,VWS V14.01,2013-07-12 18:57:00,
2013-07-12 14:58:00,80.9,74.9,29.85,NW,313,0.0,0.0,82,0.00,,---,0.00,VWS V14.01,2013-07-12 18:58:00,
2013-07-12 14:59:00,80.9,74.9,29.85,NW,304,0.0,0.0,82,0.00,,---,0.00,VWS V14.01,2013-07-12 18:59:00,
2013-07-12 15:00:00,80.9,74.9,29.84,NW,304,0.0,0.0,82,0.00,,---,0.00,VWS V14.01,2013-07-12 19:00:00,
2013-07-12 15:01:00,81.1,75.1,29.84,NW,313,0.0,0.0,82,0.00,,---,0.00,VWS V14.01,2013-07-12 19:01:00,
2013-07-12 15:02:00,81.1,74.7,29.84,NW,313,0.0,0.0,81,0.00,,---,0.00,VWS V14.01,2013-07-12 19:02:00,
2013-07-12 15:03:00,81.1,75.1,29.84,NW,313,0.0,0.0,82,0.00,,---,0.00,VWS V14.01,2013-07-12 19:03:00,
2013-07-12 15:05:00,81.1,74.7,29.84,NW,313,0.0,0.0,81,0.00,,---,0.00,VWS V14.01,2013-07-12 19:05:00,
2013-07-12 15:06:00,81.1,74.7,29.84,NW,313,0.0,0.0,81,0.00,,---,0.00,VWS V14.01,2013-07-12 19:06:00,
2013-07-12 15:07:00,81.2,75.2,29.84,West,262,0.0,0.0,82,0.00,,---,0.00,VWS V14.01,2013-07-12 19:07:00,
2013-07-12 15:08:00,81.2,74.8,29.84,West,262,0.0,0.0,81,0.00,,---,0.00,VWS V14.01,2013-07-12 19:08:00,
2013-07-12 15:09:00,81.6,75.2,29.84,West,259,0.0,0.0,81,0.00,,---,0.00,VWS V14.01,2013-07-12 19:09:00,
2013-07-12 15:10:00,81.6,75.2,29.84,West,259,0.0,0.0,81,0.00,,---,0.00,VWS V14.01,2013-07-12 19:10:00,
2013-07-12 15:11:00,81.6,74.5,29.84,West,261,0.0,0.0,79,0.00,,---,0.00,VWS V14.01,2013-07-12 19:11:00,
2013-07-12 15:12:00,81.8,74.7,29.84,West,261,0.0,0.0,79,0.00,,---,0.00,VWS V14.01,2013-07-12 19:12:00,
2013-07-12 15:13:00,82.0,74.8,29.84,West,261,0.0,0.0,79,0.00,,---,0.00,VWS V14.01,2013-07-12 19:13:00,
2013-07-12 15:14:00,82.0,74.8,29.84,West,261,0.0,0.0,79,0.00,,---,0.00,VWS V14.01,2013-07-12 19:14:00,
2013-07-12 15:15:00,82.0,75.2,29.84,West,261,0.0,0.0,80,0.00,,---,0.00,VWS V14.01,2013-07-12 19:15:00,
2013-07-12 15:16:00,82.2,75.4,29.84,West,261,0.0,0.0,80,0.00,,---,0.00,VWS V14.01,2013-07-12 19:16:00,
2013-07-12 15:17:00,82.2,75.4,29.84,West,261,0.0,0.0,80,0.00,,---,0.00,VWS V14.01,2013-07-12 19:17:00,
2013-07-12 15:18:00,82.2,75.0,29.84,West,261,0.0,0.0,79,0.00,,---,0.00,VWS V14.01,2013-07-12 19:18:00,
2013-07-12 15:19:00,82.4,75.6,29.84,West,260,0.0,0.0,80,0.00,,---,0.00,VWS V14.01,2013-07-12 19:19:00,
2013-07-12 15:20:00,82.4,75.6,29.84,West,260,0.0,0.0,80,0.00,,---,0.00,VWS V14.01,2013-07-12 19:20:00,
2013-07-12 15:21:00,82.6,75.4,29.84,West,260,0.0,0.0,79,0.00,,---,0.00,VWS V14.01,2013-07-12 19:21:00,
2013-07-12 15:22:00,82.6,75.1,29.84,West,260,0.0,0.0,78,0.00,,---,0.00,VWS V14.01,2013-07-12 19:22:00,
2013-07-12 15:23:00,82.8,76.0,29.84,West,260,0.0,0.0,80,0.00,,---,0.00,VWS V14.01,2013-07-12 19:23:00,
2013-07-12 15:24:00,82.8,74.9,29.84,West,260,0.0,0.0,77,0.00,,---,0.00,VWS V14.01,2013-07-12 19:24:00,
2013-07-12 15:25:00,82.8,75.2,29.84,West,259,0.0,0.0,78,0.00,,---,0.00,VWS V14.01,2013-07-12 19:25:00,
2013-07-12 15:26:00,83.0,75.1,29.84,WSW,254,0.0,0.0,77,0.00,,---,0.00,VWS V14.01,2013-07-12 19:26:00,
2013-07-12 15:27:00,83.0,75.1,29.84,WSW,252,0.0,0.0,77,0.00,,---,0.00,VWS V14.01,2013-07-12 19:27:00,
2013-07-12 15:28:00,82.8,74.9,29.84,WSW,249,0.0,0.0,77,0.00,,---,0.00,VWS V14.01,2013-07-12 19:28:00,
2013-07-12 15:29:00,82.8,74.9,29.84,WSW,249,0.0,0.0,77,0.00,,---,0.00,VWS V14.01,2013-07-12 19:29:00,
2013-07-12 15:30:00,82.6,75.1,29.84,WSW,249,0.0,0.0,78,0.00,,---,0.00,VWS V14.01,2013-07-12 19:30:00,
2013-07-12 15:31:00,82.6,74.7,29.84,WSW,249,0.0,0.0,77,0.00,,---,0.00,VWS V14.01,2013-07-12 19:31:00,
2013-07-12 15:32:00,82.6,75.4,29.84,WSW,249,0.0,0.0,79,0.00,,---,0.00,VWS V14.01,2013-07-12 19:32:00,
2013-07-12 15:33:00,83.0,76.2,29.84,WSW,249,0.0,0.0,80,0.00,,---,0.00,VWS V14.01,2013-07-12 19:33:00,
2013-07-12 15:34:00,83.0,75.8,29.84,WSW,249,0.0,0.0,79,0.00,,---,0.00,VWS V14.01,2013-07-12 19:34:00,
2013-07-12 15:35:00,83.2,76.0,29.84,WSW,250,0.0,0.0,79,0.00,,---,0.00,VWS V14.01,2013-07-12 19:35:00,
2013-07-12 15:36:00,83.4,75.8,29.84,WSW,250,0.0,0.0,78,0.00,,---,0.00,VWS V14.01,2013-07-12 19:36:00,
2013-07-12 15:37:00,83.6,76.4,29.84,West,262,0.0,0.0,79,0.00,,---,0.00,VWS V14.01,2013-07-12 19:37:00,
2013-07-12 15:38:00,83.8,75.8,29.84,West,263,0.0,0.0,77,0.00,,---,0.00,VWS V14.01,2013-07-12 19:38:00,
2013-07-12 15:39:00,83.8,75.8,29.84,West,263,0.0,0.0,77,0.00,,---,0.00,VWS V14.01,2013-07-12 19:39:00,
2013-07-12 15:40:00,83.8,75.0,29.84,West,263,0.0,0.0,75,0.00,,---,0.00,VWS V14.01,2013-07-12 19:40:00,
2013-07-12 15:41:00,83.8,75.4,29.84,West,263,0.0,0.0,76,0.00,,---,0.00,VWS V14.01,2013-07-12 19:41:00,
2013-07-12 15:42:00,84.0,76.0,29.84,West,263,0.0,0.0,77,0.00,,---,0.00,VWS V14.01,2013-07-12 19:42:00,
2013-07-12 15:43:00,84.0,74.8,29.84,West,263,0.0,0.0,74,0.00,,---,0.00,VWS V14.01,2013-07-12 19:43:00,
2013-07-12 15:44:00,84.0,74.4,29.84,West,261,0.0,0.0,73,0.00,,---,0.00,VWS V14.01,2013-07-12 19:44:00,
2013-07-12 15:45:00,84.0,74.8,29.84,West,261,0.0,0.0,74,0.00,,---,0.00,VWS V14.01,2013-07-12 19:45:00,
2013-07-12 15:46:00,83.8,74.6,29.84,West,261,0.0,0.0,74,0.00,,---,0.00,VWS V14.01,2013-07-12 19:46:00,
2013-07-12 15:47:00,83.8,75.4,29.84,West,261,0.0,0.0,76,0.00,,---,0.00,VWS V14.01,2013-07-12 19:47:00,
2013-07-12 15:48:00,83.8,75.0,29.84,West,259,0.0,0.0,75,0.00,,---,0.00,VWS V14.01,2013-07-12 19:48:00,
2013-07-12 15:49:00,83.8,75.4,29.84,WSW,258,0.0,0.0,76,0.00,,---,0.00,VWS V14.01,2013-07-12 19:49:00,
2013-07-12 15:50:00,83.8,75.4,29.84,WSW,257,0.0,0.0,76,0.00,,---,0.00,VWS V14.01,2013-07-12 19:50:00,
2013-07-12 15:51:00,84.0,75.2,29.84,WSW,257,0.0,0.0,75,0.00,,---,0.00,VWS V14.01,2013-07-12 19:51:00,
2013-07-12 15:52:00,84.0,75.2,29.84,WSW,256,0.0,0.0,75,0.00,,---,0.00,VWS V14.01,2013-07-12 19:52:00,
2013-07-12 15:53:00,84.0,74.8,29.84,WSW,254,0.0,0.0,74,0.00,,---,0.00,VWS V14.01,2013-07-12 19:53:00,
2013-07-12 15:54:00,83.8,74.6,29.84,WSW,254,0.0,0.0,74,0.00,,---,0.00,VWS V14.01,2013-07-12 19:54:00,
2013-07-12 15:55:00,83.8,75.0,29.84,WSW,254,0.0,0.0,75,0.00,,---,0.00,VWS V14.01,2013-07-12 19:55:00,
2013-07-12 15:56:00,83.8,75.8,29.84,WSW,254,0.0,0.0,77,0.00,,---,0.00,VWS V14.01,2013-07-12 19:56:00,
2013-07-12 15:57:00,84.0,75.6,29.84,WSW,254,0.0,0.0,76,0.00,,---,0.00,VWS V14.01,2013-07-12 19:57:00,
2013-07-12 15:58:00,84.0,75.6,29.84,WSW,254,0.0,0.0,76,0.00,,---,0.00,VWS V14.01,2013-07-12 19:58:00,
2013-07-12 15:59:00,84.0,75.6,29.84,WSW,254,0.0,0.0,76,0.00,,---,0.00,VWS V14.01,2013-07-12 19:59:00,
2013-07-12 16:00:00,84.0,74.8,29.83,WSW,254,0.0,0.0,74,0.00,,---,0.00,VWS V14.01,2013-07-12 20:00:00,
2013-07-12 16:01:00,84.0,75.6,29.83,West,270,0.0,0.0,76,0.00,,---,0.00,VWS V14.01,2013-07-12 20:01:00,
2013-07-12 16:02:00,84.0,75.6,29.83,West,270,0.0,0.0,76,0.00,,---,0.00,VWS V14.01,2013-07-12 20:02:00,
2013-07-12 16:03:00,84.0,75.6,29.83,West,270,0.0,0.0,76,0.00,,---,0.00,VWS V14.01,2013-07-12 20:03:00,
2013-07-12 16:04:00,84.0,75.2,29.83,West,270,0.0,0.0,75,0.00,,---,0.00,VWS V14.01,2013-07-12 20:04:00,
2013-07-12 16:05:00,84.1,75.3,29.83,West,276,0.0,0.0,75,0.00,,---,0.00,VWS V14.01,2013-07-12 20:05:00,
2013-07-12 16:06:00,84.0,75.2,29.83,West,277,0.0,0.0,75,0.00,,---,0.00,VWS V14.01,2013-07-12 20:06:00,
2013-07-12 16:07:00,84.0,75.6,29.83,West,277,0.0,0.0,76,0.00,,---,0.00,VWS V14.01,2013-07-12 20:07:00,
2013-07-12 16:08:00,84.0,75.2,29.83,West,277,0.0,0.0,75,0.00,,---,0.00,VWS V14.01,2013-07-12 20:08:00,
2013-07-12 16:09:00,84.1,75.7,29.83,West,277,0.0,0.0,76,0.00,,---,0.00,VWS V14.01,2013-07-12 20:09:00,
2013-07-12 16:10:00,84.1,75.3,29.83,West,277,0.0,0.0,75,0.00,,---,0.00,VWS V14.01,2013-07-12 20:10:00,
2013-07-12 16:11:00,84.1,75.3,29.83,West,280,0.0,0.0,75,0.00,,---,0.00,VWS V14.01,2013-07-12 20:11:00,
2013-07-12 16:12:00,84.1,75.3,29.83,West,280,0.0,0.0,75,0.00,,---,0.00,VWS V14.01,2013-07-12 20:12:00,
2013-07-12 16:13:00,84.1,75.7,29.83,West,280,0.0,0.0,76,0.00,,---,0.00,VWS V14.01,2013-07-12 20:13:00,
2013-07-12 16:14:00,84.3,75.9,29.83,West,280,0.0,0.0,76,0.00,,---,0.00,VWS V14.01,2013-07-12 20:14:00,
2013-07-12 16:15:00,85.5,76.3,29.82,NNW,333,0.0,1.0,74,0.00,,---,0.00,VWS V14.01,2013-07-12 20:15:00,
2013-07-12 16:16:00,85.5,76.3,29.82,NNW,334,5.0,5.0,74,0.00,,---,0.00,VWS V14.01,2013-07-12 20:16:00,
2013-07-12 16:17:00,85.4,76.2,29.82,NNW,334,0.0,5.0,74,0.00,,---,0.00,VWS V14.01,2013-07-12 20:17:00,
2013-07-12 16:18:00,85.5,77.1,29.82,NNW,334,2.0,5.0,76,0.00,,---,0.00,VWS V14.01,2013-07-12 20:18:00,
2013-07-12 16:19:00,85.5,76.3,29.82,NNW,332,2.0,5.0,74,0.00,,---,0.00,VWS V14.01,2013-07-12 20:19:00,
2013-07-12 16:20:00,85.5,76.7,29.82,NW,317,3.0,6.0,75,0.00,,---,0.00,VWS V14.01,2013-07-12 20:20:00,
2013-07-12 16:21:00,85.4,75.8,29.82,NNW,336,1.0,6.0,73,0.00,,---,0.00,VWS V14.01,2013-07-12 20:21:00,
2013-07-12 16:22:00,85.3,75.7,29.82,NNW,336,2.0,6.0,73,0.00,,---,0.00,VWS V14.01,2013-07-12 20:22:00,
2013-07-12 16:23:00,85.2,76.0,29.82,NNW,336,2.0,6.0,74,0.00,,---,0.00,VWS V14.01,2013-07-12 20:23:00,
2013-07-12 16:24:00,85.1,75.9,29.82,NNW,333,0.0,6.0,74,0.00,,---,0.00,VWS V14.01,2013-07-12 20:24:00,
2013-07-12 16:25:00,85.1,75.9,29.82,NNW,332,0.0,6.0,74,0.00,,---,0.00,VWS V14.01,2013-07-12 20:25:00,
2013-07-12 16:26:00,85.0,76.2,29.82,NNW,331,0.0,6.0,75,0.00,,---,0.00,VWS V14.01,2013-07-12 20:26:00,
2013-07-12 16:27:00,85.0,76.2,29.82,NNW,331,1.0,6.0,75,0.00,,---,0.00,VWS V14.01,2013-07-12 20:27:00,
2013-07-12 16:28:00,85.0,76.2,29.82,NNW,331,0.0,6.0,75,0.00,,---,0.00,VWS V14.01,2013-07-12 20:28:00,
2013-07-12 16:29:00,84.9,76.1,29.82,NNW,331,0.0,6.0,75,0.00,,---,0.00,VWS V14.01,2013-07-12 20:29:00,
2013-07-12 16:30:00,84.9,76.1,29.82,NNW,331,0.0,6.0,75,0.00,,---,0.00,VWS V14.01,2013-07-12 20:30:00,
2013-07-12 16:31:00,84.9,76.1,29.82,NNW,332,3.0,4.0,75,0.00,,---,0.00,VWS V14.01,2013-07-12 20:31:00,
2013-07-12 16:32:00,84.8,76.0,29.82,NNW,342,4.0,6.0,75,0.00,,---,0.00,VWS V14.01,2013-07-12 20:32:00,
2013-07-12 16:33:00,84.8,76.0,29.82,NNW,342,2.0,6.0,75,0.00,,---,0.00,VWS V14.01,2013-07-12 20:33:00,
2013-07-12 16:34:00,84.8,76.4,29.82,NNW,340,3.0,6.0,76,0.00,,---,0.00,VWS V14.01,2013-07-12 20:34:00,
2013-07-12 16:35:00,84.8,76.0,29.82,NNW,340,1.0,6.0,75,0.00,,---,0.00,VWS V14.01,2013-07-12 20:35:00,
2013-07-12 16:36:00,84.7,75.5,29.82,NNW,337,1.0,6.0,74,0.00,,---,0.00,VWS V14.01,2013-07-12 20:36:00,
2013-07-12 16:37:00,84.7,75.9,29.82,NNW,337,0.0,6.0,75,0.00,,---,0.00,VWS V14.01,2013-07-12 20:37:00,
2013-07-12 16:38:00,84.7,75.5,29.82,NNW,337,0.0,6.0,74,0.00,,---,0.00,VWS V14.01,2013-07-12 20:38:00,
2013-07-12 16:39:00,84.7,75.9,29.82,NNW,337,0.0,6.0,75,0.00,,---,0.00,VWS V14.01,2013-07-12 20:39:00,
2013-07-12 16:40:00,84.6,75.4,29.82,NNW,330,1.0,6.0,74,0.00,,---,0.00,VWS V14.01,2013-07-12 20:40:00,
2013-07-12 16:41:00,84.6,75.4,29.82,NW,306,6.0,6.0,74,0.00,,---,0.00,VWS V14.01,2013-07-12 20:41:00,
2013-07-12 16:42:00,84.6,75.4,29.82,NW,305,3.0,6.0,74,0.00,,---,0.00,VWS V14.01,2013-07-12 20:42:00,
2013-07-12 16:43:00,84.6,75.0,29.82,NW,305,0.0,6.0,73,0.00,,---,0.00,VWS V14.01,2013-07-12 20:43:00,
2013-07-12 16:44:00,84.6,75.4,29.82,NW,305,0.0,6.0,74,0.00,,---,0.00,VWS V14.01,2013-07-12 20:44:00,
2013-07-12 16:45:00,84.7,75.5,29.82,NW,305,0.0,6.0,74,0.00,,---,0.00,VWS V14.01,2013-07-12 20:45:00,
2013-07-12 16:46:00,84.6,75.8,29.82,NW,305,0.0,6.0,75,0.00,,---,0.00,VWS V14.01,2013-07-12 20:46:00,
2013-07-12 16:47:00,84.7,75.5,29.82,NW,305,0.0,6.0,74,0.00,,---,0.00,VWS V14.01,2013-07-12 20:47:00,
2013-07-12 16:48:00,84.7,75.5,29.82,NW,305,3.0,6.0,74,0.00,,---,0.00,VWS V14.01,2013-07-12 20:48:00,
2013-07-12 16:49:00,84.7,75.5,29.82,NW,306,0.0,6.0,74,0.00,,---,0.00,VWS V14.01,2013-07-12 20:49:00,
2013-07-12 16:50:00,84.6,75.0,29.82,NW,306,0.0,6.0,73,0.00,,---,0.00,VWS V14.01,2013-07-12 20:50:00,
2013-07-12 16:51:00,84.7,75.5,29.82,NW,306,2.0,6.0,74,0.00,,---,0.00,VWS V14.01,2013-07-12 20:51:00,
2013-07-12 16:52:00,84.6,75.4,29.82,NW,306,0.0,6.0,74,0.00,,---,0.00,VWS V14.01,2013-07-12 20:52:00,
2013-07-12 16:53:00,84.6,75.4,29.82,NW,306,0.0,6.0,74,0.00,,---,0.00,VWS V14.01,2013-07-12 20:53:00,
2013-07-12 16:54:00,84.7,75.9,29.82,NW,307,4.0,6.0,75,0.00,,---,0.00,VWS V14.01,2013-07-12 20:54:00,
2013-07-12 16:55:00,84.7,75.5,29.82,NW,307,1.0,6.0,74,0.00,,---,0.00,VWS V14.01,2013-07-12 20:55:00,
2013-07-12 16:56:00,84.7,75.1,29.82,NW,307,0.0,6.0,73,0.00,,---,0.00,VWS V14.01,2013-07-12 20:56:00,
2013-07-12 16:57:00,84.6,75.0,29.82,NW,307,0.0,6.0,73,0.00,,---,0.00,VWS V14.01,2013-07-12 20:57:00,
2013-07-12 16:58:00,84.6,75.4,29.82,NW,307,0.0,6.0,74,0.00,,---,0.00,VWS V14.01,2013-07-12 20:58:00,
2013-07-12 16:59:00,84.6,75.8,29.82,NW,307,0.0,6.0,75,0.00,,---,0.00,VWS V14.01,2013-07-12 20:59:00,
2013-07-12 17:00:00,84.7,75.5,29.82,NW,307,0.0,6.0,74,0.00,,---,0.00,VWS V14.01,2013-07-12 21:00:00,
2013-07-12 17:01:00,84.7,75.5,29.82,NW,307,0.0,3.0,74,0.00,,---,0.00,VWS V14.01,2013-07-12 21:01:00,
2013-07-12 17:02:00,84.7,75.1,29.82,NW,307,0.0,3.0,73,0.00,,---,0.00,VWS V14.01,2013-07-12 21:02:00,
2013-07-12 17:03:00,84.7,75.1,29.82,NW,307,0.0,3.0,73,0.00,,---,0.00,VWS V14.01,2013-07-12 21:03:00,
2013-07-12 17:04:00,84.7,75.1,29.82,NW,307,0.0,3.0,73,0.00,,---,0.00,VWS V14.01,2013-07-12 21:04:00,
2013-07-12 17:05:00,84.8,75.6,29.82,NW,307,0.0,3.0,74,0.00,,---,0.00,VWS V14.01,2013-07-12 21:05:00,
2013-07-12 17:06:00,84.8,75.2,29.82,NW,307,0.0,3.0,73,0.00,,---,0.00,VWS V14.01,2013-07-12 21:06:00,
2013-07-12 17:07:00,84.9,75.3,29.82,NW,307,0.0,3.0,73,0.00,,---,0.00,VWS V14.01,2013-07-12 21:07:00,
2013-07-12 17:08:00,85.0,75.4,29.82,NW,307,0.0,3.0,73,0.00,,---,0.00,VWS V14.01,2013-07-12 21:08:00,
2013-07-12 17:09:00,85.1,75.5,29.82,NW,307,0.0,3.0,73,0.00,,---,0.00,VWS V14.01,2013-07-12 21:09:00,
2013-07-12 17:10:00,85.1,75.1,29.82,NW,307,0.0,3.0,72,0.00,,---,0.00,VWS V14.01,2013-07-12 21:10:00,
2013-07-12 17:11:00,85.2,76.0,29.82,NW,307,0.0,3.0,74,0.00,,---,0.00,VWS V14.01,2013-07-12 21:11:00,
2013-07-12 17:12:00,85.2,76.0,29.82,NW,307,0.0,3.0,74,0.00,,---,0.00,VWS V14.01,2013-07-12 21:12:00,
2013-07-12 17:13:00,85.3,75.7,29.82,NW,307,0.0,3.0,73,0.00,,---,0.00,VWS V14.01,2013-07-12 21:13:00,
2013-07-12 17:14:00,85.3,75.7,29.82,NW,307,0.0,3.0,73,0.00,,---,0.00,VWS V14.01,2013-07-12 21:14:00,
2013-07-12 17:15:00,85.4,76.2,29.82,NW,307,0.0,3.0,74,0.00,,---,0.00,VWS V14.01,2013-07-12 21:15:00,
2013-07-12 17:16:00,85.4,75.8,29.82,NW,307,0.0,3.0,73,0.00,,---,0.00,VWS V14.01,2013-07-12 21:16:00,
2013-07-12 17:17:00,85.4,75.8,29.82,NW,307,0.0,3.0,73,0.00,,---,0.00,VWS V14.01,2013-07-12 21:17:00,
2013-07-12 17:18:00,85.4,75.3,29.82,NW,307,0.0,3.0,72,0.00,,---,0.00,VWS V14.01,2013-07-12 21:18:00,
2013-07-12 17:19:00,85.4,75.8,29.82,NW,307,0.0,3.0,73,0.00,,---,0.00,VWS V14.01,2013-07-12 21:19:00,
2013-07-12 17:20:00,85.4,75.3,29.82,NW,307,0.0,3.0,72,0.00,,---,0.00,VWS V14.01,2013-07-12 21:20:00,
2013-07-12 17:21:00,85.5,75.4,29.82,NW,307,0.0,3.0,72,0.00,,---,0.00,VWS V14.01,2013-07-12 21:21:00,
2013-07-12 17:22:00,85.5,75.9,29.82,NW,307,0.0,3.0,73,0.00,,---,0.00,VWS V14.01,2013-07-12 21:22:00,
2013-07-12 17:23:00,85.5,75.9,29.82,NW,307,0.0,3.0,73,0.00,,---,0.00,VWS V14.01,2013-07-12 21:23:00,
2013-07-12 17:24:00,85.6,76.0,29.82,NW,307,3.0,3.0,73,0.00,,---,0.00,VWS V14.01,2013-07-12 21:24:00,
2013-07-12 17:25:00,85.6,76.0,29.82,NW,307,0.0,3.0,73,0.00,,---,0.00,VWS V14.01,2013-07-12 21:25:00,
2013-07-12 17:26:00,85.6,76.0,29.82,NW,307,0.0,3.0,73,0.00,,---,0.00,VWS V14.01,2013-07-12 21:26:00,
2013-07-12 17:27:00,85.5,75.9,29.82,NW,307,0.0,3.0,73,0.00,,---,0.00,VWS V14.01,2013-07-12 21:27:00,
2013-07-12 17:28:00,85.5,75.4,29.82,NW,307,0.0,3.0,72,0.00,,---,0.00,VWS V14.01,2013-07-12 21:28:00,
2013-07-12 17:29:00,85.4,75.3,29.82,NW,307,0.0,3.0,72,0.00,,---,0.00,VWS V14.01,2013-07-12 21:29:00,
2013-07-12 17:30:00,85.4,75.3,29.81,NW,307,0.0,3.0,72,0.00,,---,0.00,VWS V14.01,2013-07-12 21:30:00,
2013-07-12 17:31:00,85.3,75.2,29.81,NW,307,0.0,0.0,72,0.00,,---,0.00,VWS V14.01,2013-07-12 21:31:00,
2013-07-12 17:32:00,85.3,75.2,29.81,NW,307,0.0,0.0,72,0.00,,---,0.00,VWS V14.01,2013-07-12 21:32:00,
2013-07-12 17:33:00,85.3,75.2,29.81,NW,307,0.0,0.0,72,0.00,,---,0.00,VWS V14.01,2013-07-12 21:33:00,
2013-07-12 17:34:00,85.2,75.2,29.81,NW,307,0.0,0.0,72,0.00,,---,0.00,VWS V14.01,2013-07-12 21:34:00,
2013-07-12 17:35:00,85.2,75.6,29.81,NW,307,0.0,0.0,73,0.00,,---,0.00,VWS V14.01,2013-07-12 21:35:00,
2013-07-12 17:36:00,85.3,75.7,29.81,NW,307,0.0,0.0,73,0.00,,---,0.00,VWS V14.01,2013-07-12 21:36:00,
2013-07-12 17:37:00,85.3,75.7,29.81,NW,307,0.0,0.0,73,0.00,,---,0.00,VWS V14.01,2013-07-12 21:37:00,
2013-07-12 17:38:00,85.3,75.7,29.81,NW,307,0.0,3.0,73,0.00,,---,0.00,VWS V14.01,2013-07-12 21:38:00,
2013-07-12 17:39:00,85.5,76.3,29.81,NW,307,0.0,3.0,74,0.00,,---,0.00,VWS V14.01,2013-07-12 21:39:00,
2013-07-12 17:40:00,85.5,75.9,29.81,NW,307,1.0,3.0,73,0.00,,---,0.00,VWS V14.01,2013-07-12 21:40:00,
2013-07-12 17:41:00,85.6,76.0,29.81,NW,311,3.0,5.0,73,0.00,,---,0.00,VWS V14.01,2013-07-12 21:41:00,
2013-07-12 17:42:00,85.6,76.0,29.81,NW,314,3.0,5.0,73,0.00,,---,0.00,VWS V14.01,2013-07-12 21:42:00,
2013-07-12 17:43:00,85.6,76.0,29.81,NW,314,0.0,5.0,73,0.00,,---,0.00,VWS V14.01,2013-07-12 21:43:00,
2013-07-12 17:44:00,85.6,76.0,29.81,NW,314,0.0,5.0,73,0.00,,---,0.00,VWS V14.01,2013-07-12 21:44:00,
2013-07-12 17:45:00,85.6,75.5,29.81,NW,314,0.0,5.0,72,0.00,,---,0.00,VWS V14.01,2013-07-12 21:45:00,
2013-07-12 17:46:00,85.6,75.5,29.81,NW,314,0.0,5.0,72,0.00,,---,0.00,VWS V14.01,2013-07-12 21:46:00,
2013-07-12 17:47:00,85.6,76.0,29.81,NW,314,0.0,5.0,73,0.00,,---,0.00,VWS V14.01,2013-07-12 21:47:00,
2013-07-12 17:48:00,85.6,75.5,29.81,NW,314,2.0,5.0,72,0.00,,---,0.00,VWS V14.01,2013-07-12 21:48:00,
2013-07-12 17:49:00,85.5,75.4,29.81,NW,314,0.0,5.0,72,0.00,,---,0.00,VWS V14.01,2013-07-12 21:49:00,
2013-07-12 17:50:00,85.5,75.4,29.81,NW,314,0.0,5.0,72,0.00,,---,0.00,VWS V14.01,2013-07-12 21:50:00,
2013-07-12 17:51:00,85.4,75.3,29.81,NW,314,0.0,5.0,72,0.00,,---,0.00,VWS V14.01,2013-07-12 21:51:00,
2013-07-12 17:52:00,85.4,75.3,29.81,NW,314,0.0,5.0,72,0.00,,---,0.00,VWS V14.01,2013-07-12 21:52:00,
2013-07-12 17:53:00,85.4,75.8,29.81,NW,314,0.0,5.0,73,0.00,,---,0.00,VWS V14.01,2013-07-12 21:53:00,
2013-07-12 17:54:00,85.4,75.8,29.81,NW,314,0.0,5.0,73,0.00,,---,0.00,VWS V14.01,2013-07-12 21:54:00,
2013-07-12 17:55:00,85.4,75.8,29.81,NW,315,0.0,5.0,73,0.00,,---,0.00,VWS V14.01,2013-07-12 21:55:00,
2013-07-12 17:56:00,85.3,76.1,29.81,NW,315,3.0,5.0,74,0.00,,---,0.00,VWS V14.01,2013-07-12 21:56:00,
2013-07-12 17:57:00,85.2,75.6,29.81,NW,315,0.0,5.0,73,0.00,,---,0.00,VWS V14.01,2013-07-12 21:57:00,
2013-07-12 17:58:00,85.2,75.6,29.81,NW,315,0.0,5.0,73,0.00,,---,0.00,VWS V14.01,2013-07-12 21:58:00,
2013-07-12 17:59:00,85.2,75.6,29.81,NW,315,0.0,5.0,73,0.00,,---,0.00,VWS V14.01,2013-07-12 21:59:00,
2013-07-12 18:00:00,85.1,75.5,29.81,NW,315,0.0,5.0,73,0.00,,---,0.00,VWS V14.01,2013-07-12 22:00:00,
2013-07-12 18:01:00,85.1,75.5,29.81,NW,315,0.0,0.0,73,0.00,,---,0.00,VWS V14.01,2013-07-12 22:01:00,
2013-07-12 18:02:00,85.1,75.5,29.81,NW,315,0.0,0.0,73,0.00,,---,0.00,VWS V14.01,2013-07-12 22:02:00,
2013-07-12 18:03:00,85.1,75.5,29.81,NW,315,0.0,0.0,73,0.00,,---,0.00,VWS V14.01,2013-07-12 22:03:00,
2013-07-12 18:04:00,85.1,75.5,29.81,NW,315,0.0,0.0,73,0.00,,---,0.00,VWS V14.01,2013-07-12 22:04:00,
2013-07-12 18:05:00,85.0,75.4,29.81,NW,315,0.0,0.0,73,0.00,,---,0.00,VWS V14.01,2013-07-12 22:05:00,
2013-07-12 18:06:00,85.1,75.9,29.81,NW,315,0.0,0.0,74,0.00,,---,0.00,VWS V14.01,2013-07-12 22:06:00,
2013-07-12 18:07:00,85.1,75.5,29.81,NW,315,0.0,0.0,73,0.00,,---,0.00,VWS V14.01,2013-07-12 22:07:00,
2013-07-12 18:08:00,85.1,75.5,29.81,NW,315,0.0,0.0,73,0.00,,---,0.00,VWS V14.01,2013-07-12 22:08:00,
2013-07-12 18:09:00,85.1,75.5,29.81,NW,315,0.0,0.0,73,0.00,,---,0.00,VWS V14.01,2013-07-12 22:09:00,
2013-07-12 18:10:00,85.1,75.5,29.81,NW,315,0.0,1.0,73,0.00,,---,0.00,VWS V14.01,2013-07-12 22:10:00,
2013-07-12 18:11:00,85.1,75.1,29.81,NW,315,0.0,1.0,72,0.00,,---,0.00,VWS V14.01,2013-07-12 22:11:00,
2013-07-12 18:12:00,85.2,75.6,29.81,NW,315,0.0,1.0,73,0.00,,---,0.00,VWS V14.01,2013-07-12 22:12:00,
2013-07-12 18:13:00,85.1,75.5,29.81,NW,315,0.0,1.0,73,0.00,,---,0.00,VWS V14.01,2013-07-12 22:13:00,
2013-07-12 18:14:00,85.1,75.5,29.81,NW,315,0.0,1.0,73,0.00,,---,0.00,VWS V14.01,2013-07-12 22:14:00,
2013-07-12 18:15:00,85.1,75.5,29.81,NW,315,0.0,1.0,73,0.00,,---,0.00,VWS V14.01,2013-07-12 22:15:00,
2013-07-12 18:16:00,85.1,75.5,29.81,NW,315,0.0,1.0,73,0.00,,---,0.00,VWS V14.01,2013-07-12 22:16:00,
2013-07-12 18:17:00,85.1,75.1,29.81,NW,315,0.0,1.0,72,0.00,,---,0.00,VWS V14.01,2013-07-12 22:17:00,
2013-07-12 18:18:00,85.1,75.5,29.81,NW,315,0.0,1.0,73,0.00,,---,0.00,VWS V14.01,2013-07-12 22:18:00,
2013-07-12 18:19:00,85.1,75.5,29.81,NW,315,0.0,1.0,73,0.00,,---,0.00,VWS V14.01,2013-07-12 22:19:00,
2013-07-12 18:20:00,85.1,75.5,29.81,NW,315,0.0,1.0,73,0.00,,---,0.00,VWS V14.01,2013-07-12 22:20:00,
2013-07-12 18:21:00,85.1,75.5,29.81,NW,315,0.0,1.0,73,0.00,,---,0.00,VWS V14.01,2013-07-12 22:21:00,
2013-07-12 18:22:00,85.0,75.4,29.81,NW,315,0.0,1.0,73,0.00,,---,0.00,VWS V14.01,2013-07-12 22:22:00,
2013-07-12 18:23:00,85.0,75.0,29.81,NW,315,0.0,1.0,72,0.00,,---,0.00,VWS V14.01,2013-07-12 22:23:00,
2013-07-12 18:24:00,84.9,74.9,29.81,NW,315,0.0,1.0,72,0.00,,---,0.00,VWS V14.01,2013-07-12 22:24:00,
2013-07-12 18:25:00,84.9,74.9,29.81,NW,315,0.0,1.0,72,0.00,,---,0.00,VWS V14.01,2013-07-12 22:25:00,
2013-07-12 18:26:00,84.9,75.3,29.81,NW,315,0.0,1.0,73,0.00,,---,0.00,VWS V14.01,2013-07-12 22:26:00,
2013-07-12 18:27:00,84.9,75.3,29.81,NNW,342,4.0,4.0,73,0.00,,---,0.00,VWS V14.01,2013-07-12 22:27:00,
2013-07-12 18:28:00,85.0,76.2,29.81,NNE,14,2.0,4.0,75,0.00,,---,0.00,VWS V14.01,2013-07-12 22:28:00,
2013-07-12 18:29:00,85.0,76.2,29.81,NNE,14,0.0,4.0,75,0.00,,---,0.00,VWS V14.01,2013-07-12 22:29:00,
2013-07-12 18:30:00,85.0,76.6,29.81,East,89,4.0,7.0,76,0.00,,---,0.00,VWS V14.01,2013-07-12 22:30:00,
2013-07-12 18:31:00,85.0,76.6,29.81,East,90,3.0,5.0,76,0.00,,---,0.00,VWS V14.01,2013-07-12 22:31:00,
2013-07-12 18:32:00,85.0,76.6,29.81,East,94,5.0,6.0,76,0.00,,---,0.00,VWS V14.01,2013-07-12 22:32:00,
2013-07-12 18:33:00,85.0,76.6,29.81,East,95,4.0,6.0,76,0.00,,---,0.00,VWS V14.01,2013-07-12 22:33:00,
2013-07-12 18:34:00,84.8,76.4,29.81,East,95,4.0,6.0,76,0.00,,---,0.00,VWS V14.01,2013-07-12 22:34:00,
2013-07-12 18:35:00,84.8,76.8,29.81,East,99,6.0,6.0,77,0.00,,---,0.00,VWS V14.01,2013-07-12 22:35:00,
2013-07-12 18:36:00,84.7,76.7,29.81,ESE,106,4.0,7.0,77,0.00,,---,0.00,VWS V14.01,2013-07-12 22:36:00,
2013-07-12 18:37:00,84.7,76.7,29.81,ESE,111,5.0,7.0,77,0.00,,---,0.00,VWS V14.01,2013-07-12 22:37:00,
2013-07-12 18:38:00,84.7,76.3,29.81,ESE,112,4.0,7.0,76,0.00,,---,0.00,VWS V14.01,2013-07-12 22:38:00,
2013-07-12 18:39:00,82.6,75.8,29.81,East,91,0.0,7.0,80,0.00,,---,0.00,VWS V14.01,2013-07-12 22:39:00,
2013-07-12 18:40:00,82.4,75.6,29.81,East,90,0.0,7.0,80,0.00,,---,0.00,VWS V14.01,2013-07-12 22:40:00,
2013-07-12 18:41:00,82.2,75.4,29.81,East,90,0.0,7.0,80,0.00,,---,0.00,VWS V14.01,2013-07-12 22:41:00,
2013-07-12 18:42:00,82.0,75.6,29.81,East,91,0.0,7.0,81,0.00,,---,0.00,VWS V14.01,2013-07-12 22:42:00,
2013-07-12 18:43:00,82.0,75.6,29.81,East,91,0.0,7.0,81,0.00,,---,0.00,VWS V14.01,2013-07-12 22:43:00,
2013-07-12 18:44:00,81.8,75.0,29.81,East,90,0.0,7.0,80,0.00,,---,0.00,VWS V14.01,2013-07-12 22:44:00,
2013-07-12 18:45:00,81.8,75.4,29.81,East,90,0.0,7.0,81,0.00,,---,0.00,VWS V14.01,2013-07-12 22:45:00,
2013-07-12 18:46:00,81.8,75.4,29.81,East,90,0.0,7.0,81,0.00,,---,0.00,VWS V14.01,2013-07-12 22:46:00,
2013-07-12 18:47:00,81.6,75.2,29.81,East,90,0.0,7.0,81,0.00,,---,0.00,VWS V14.01,2013-07-12 22:47:00,
2013-07-12 18:48:00,81.6,75.2,29.81,East,90,0.0,7.0,81,0.00,,---,0.00,VWS V14.01,2013-07-12 22:48:00,
2013-07-12 18:49:00,81.6,75.2,29.81,East,90,0.0,7.0,81,0.00,,---,0.00,VWS V14.01,2013-07-12 22:49:00,
2013-07-12 18:50:00,81.6,75.2,29.81,East,90,0.0,7.0,81,0.00,,---,0.00,VWS V14.01,2013-07-12 22:50:00,
2013-07-12 18:51:00,81.6,75.2,29.81,East,90,0.0,7.0,81,0.00,,---,0.00,VWS V14.01,2013-07-12 22:51:00,
2013-07-12 18:52:00,81.6,75.2,29.81,East,90,0.0,7.0,81,0.00,,---,0.00,VWS V14.01,2013-07-12 22:52:00,
2013-07-12 18:53:00,81.6,75.2,29.81,East,90,0.0,7.0,81,0.00,,---,0.00,VWS V14.01,2013-07-12 22:53:00,
2013-07-12 18:54:00,81.6,75.2,29.81,East,90,0.0,7.0,81,0.00,,---,0.00,VWS V14.01,2013-07-12 22:54:00,
2013-07-12 18:55:00,81.6,75.2,29.81,East,90,0.0,7.0,81,0.00,,---,0.00,VWS V14.01,2013-07-12 22:55:00,
2013-07-12 18:56:00,81.6,75.2,29.81,East,90,0.0,7.0,81,0.00,,---,0.00,VWS V14.01,2013-07-12 22:56:00,
2013-07-12 18:57:00,81.6,75.2,29.81,East,90,0.0,7.0,81,0.00,,---,0.00,VWS V14.01,2013-07-12 22:57:00,
2013-07-12 18:58:00,81.6,75.2,29.81,East,90,0.0,7.0,81,0.00,,---,0.00,VWS V14.01,2013-07-12 22:58:00,
2013-07-12 18:59:00,81.6,75.2,29.81,East,90,0.0,7.0,81,0.00,,---,0.00,VWS V14.01,2013-07-12 22:59:00,
2013-07-12 19:00:00,81.6,75.2,29.81,East,90,0.0,7.0,81,0.00,,---,0.00,VWS V14.01,2013-07-12 23:00:00,
2013-07-12 19:01:00,81.6,75.2,29.81,East,90,0.0,0.0,81,0.00,,---,0.00,VWS V14.01,2013-07-12 23:01:00,
2013-07-12 19:02:00,81.6,75.2,29.81,East,90,0.0,0.0,81,0.00,,---,0.00,VWS V14.01,2013-07-12 23:02:00,
2013-07-12 19:03:00,81.6,75.2,29.81,East,90,0.0,0.0,81,0.00,,---,0.00,VWS V14.01,2013-07-12 23:03:00,
2013-07-12 19:04:00,81.6,75.2,29.81,East,90,0.0,0.0,81,0.00,,---,0.00,VWS V14.01,2013-07-12 23:04:00,
2013-07-12 19:05:00,81.6,75.2,29.81,East,90,0.0,0.0,81,0.00,,---,0.00,VWS V14.01,2013-07-12 23:05:00,
2013-07-12 19:06:00,81.6,75.2,29.81,East,90,0.0,0.0,81,0.00,,---,0.00,VWS V14.01,2013-07-12 23:06:00,
2013-07-12 19:07:00,81.6,75.2,29.81,East,90,0.0,0.0,81,0.00,,---,0.00,VWS V14.01,2013-07-12 23:07:00,
2013-07-12 19:08:00,81.6,75.2,29.81,East,90,0.0,0.0,81,0.00,,---,0.00,VWS V14.01,2013-07-12 23:08:00,
2013-07-12 19:09:00,81.6,75.2,29.81,East,90,0.0,0.0,81,0.00,,---,0.00,VWS V14.01,2013-07-12 23:09:00,
2013-07-12 19:10:00,81.6,75.6,29.81,East,90,0.0,0.0,82,0.00,,---,0.00,VWS V14.01,2013-07-12 23:10:00,
2013-07-12 19:11:00,81.6,75.6,29.81,East,90,0.0,0.0,82,0.00,,---,0.00,VWS V14.01,2013-07-12 23:11:00,
2013-07-12 19:12:00,81.6,75.6,29.81,East,90,0.0,0.0,82,0.00,,---,0.00,VWS V14.01,2013-07-12 23:12:00,
2013-07-12 19:13:00,81.6,75.6,29.81,East,90,0.0,0.0,82,0.00,,---,0.00,VWS V14.01,2013-07-12 23:13:00,
2013-07-12 19:14:00,81.8,75.8,29.81,East,90,0.0,0.0,82,0.00,,---,0.00,VWS V14.01,2013-07-12 23:14:00,
2013-07-12 19:15:00,81.8,75.8,29.81,East,90,0.0,0.0,82,0.00,,---,0.00,VWS V14.01,2013-07-12 23:15:00,
2013-07-12 19:16:00,81.8,75.8,29.81,East,90,0.0,0.0,82,0.00,,---,0.00,VWS V14.01,2013-07-12 23:16:00,
2013-07-12 19:17:00,81.8,75.8,29.81,East,90,0.0,0.0,82,0.00,,---,0.00,VWS V14.01,2013-07-12 23:17:00,
2013-07-12 19:18:00,81.8,75.4,29.81,East,90,0.0,0.0,81,0.00,,---,0.00,VWS V14.01,2013-07-12 23:18:00,
2013-07-12 19:19:00,81.8,75.4,29.81,East,90,0.0,0.0,81,0.00,,---,0.00,VWS V14.01,2013-07-12 23:19:00,
2013-07-12 19:20:00,81.8,75.4,29.81,East,90,0.0,0.0,81,0.00,,---,0.00,VWS V14.01,2013-07-12 23:20:00,
2013-07-12 19:21:00,81.8,75.4,29.81,East,90,0.0,0.0,81,0.00,,---,0.00,VWS V14.01,2013-07-12 23:21:00,
2013-07-12 19:22:00,81.8,75.4,29.81,East,90,0.0,0.0,81,0.00,,---,0.00,VWS V14.01,2013-07-12 23:22:00,
2013-07-12 19:23:00,81.8,75.4,29.81,East,90,0.0,0.0,81,0.00,,---,0.00,VWS V14.01,2013-07-12 23:23:00,
2013-07-12 19:24:00,81.8,75.4,29.81,East,90,0.0,0.0,81,0.00,,---,0.00,VWS V14.01,2013-07-12 23:24:00,
2013-07-12 19:25:00,81.8,75.4,29.81,East,90,0.0,0.0,81,0.00,,---,0.00,VWS V14.01,2013-07-12 23:25:00,
2013-07-12 19:26:00,81.8,75.4,29.81,East,90,0.0,0.0,81,0.00,,---,0.00,VWS V14.01,2013-07-12 23:26:00,
2013-07-12 19:27:00,81.8,75.4,29.81,East,90,0.0,0.0,81,0.00,,---,0.00,VWS V14.01,2013-07-12 23:27:00,
2013-07-12 19:28:00,81.8,75.4,29.81,East,90,0.0,0.0,81,0.00,,---,0.00,VWS V14.01,2013-07-12 23:28:00,
2013-07-12 19:29:00,81.8,75.4,29.81,East,90,0.0,0.0,81,0.00,,---,0.00,VWS V14.01,2013-07-12 23:29:00,
2013-07-12 19:30:00,81.8,75.8,29.82,East,90,0.0,0.0,82,0.00,,---,0.00,VWS V14.01,2013-07-12 23:30:00,
2013-07-12 19:31:00,81.8,75.4,29.82,East,90,0.0,0.0,81,0.00,,---,0.00,VWS V14.01,2013-07-12 23:31:00,
2013-07-12 19:32:00,81.8,75.8,29.82,East,90,0.0,0.0,82,0.00,,---,0.00,VWS V14.01,2013-07-12 23:32:00,
2013-07-12 19:33:00,81.8,75.8,29.82,East,90,0.0,0.0,82,0.00,,---,0.00,VWS V14.01,2013-07-12 23:33:00,
2013-07-12 19:34:00,81.8,75.8,29.82,East,90,0.0,0.0,82,0.00,,---,0.00,VWS V14.01,2013-07-12 23:34:00,
2013-07-12 19:35:00,81.8,75.8,29.82,East,90,0.0,0.0,82,0.00,,---,0.00,VWS V14.01,2013-07-12 23:35:00,
2013-07-12 19:36:00,81.8,75.8,29.82,East,90,0.0,0.0,82,0.00,,---,0.00,VWS V14.01,2013-07-12 23:36:00,
2013-07-12 19:37:00,81.6,75.6,29.82,East,90,0.0,0.0,82,0.00,,---,0.00,VWS V14.01,2013-07-12 23:37:00,
2013-07-12 19:38:00,81.6,75.6,29.82,East,90,0.0,0.0,82,0.00,,---,0.00,VWS V14.01,2013-07-12 23:38:00,
2013-07-12 19:39:00,81.6,75.6,29.82,East,90,0.0,0.0,82,0.00,,---,0.00,VWS V14.01,2013-07-12 23:39:00,
2013-07-12 19:40:00,81.6,75.6,29.82,East,90,0.0,0.0,82,0.00,,---,0.00,VWS V14.01,2013-07-12 23:40:00,
2013-07-12 19:41:00,81.6,75.6,29.82,East,90,0.0,0.0,82,0.00,,---,0.00,VWS V14.01,2013-07-12 23:41:00,
2013-07-12 19:42:00,81.6,75.6,29.82,East,90,0.0,0.0,82,0.00,,---,0.00,VWS V14.01,2013-07-12 23:42:00,
2013-07-12 19:43:00,81.6,75.6,29.82,East,90,0.0,0.0,82,0.00,,---,0.00,VWS V14.01,2013-07-12 23:43:00,
2013-07-12 19:44:00,81.6,75.6,29.82,East,90,0.0,0.0,82,0.00,,---,0.00,VWS V14.01,2013-07-12 23:44:00,
2013-07-12 19:45:00,81.6,75.6,29.82,East,90,0.0,0.0,82,0.00,,---,0.00,VWS V14.01,2013-07-12 23:45:00,
2013-07-12 19:46:00,81.6,75.6,29.82,East,90,0.0,0.0,82,0.00,,---,0.00,VWS V14.01,2013-07-12 23:46:00,
2013-07-12 19:47:00,81.6,75.6,29.82,East,90,0.0,0.0,82,0.00,,---,0.00,VWS V14.01,2013-07-12 23:47:00,
2013-07-12 19:48:00,81.4,75.7,29.82,East,90,0.0,0.0,83,0.00,,---,0.00,VWS V14.01,2013-07-12 23:48:00,
2013-07-12 19:49:00,81.4,75.7,29.82,East,90,0.0,0.0,83,0.00,,---,0.00,VWS V14.01,2013-07-12 23:49:00,
2013-07-12 19:50:00,81.4,75.7,29.82,East,90,0.0,0.0,83,0.00,,---,0.00,VWS V14.01,2013-07-12 23:50:00,
2013-07-12 19:51:00,81.4,75.7,29.82,East,90,0.0,0.0,83,0.00,,---,0.00,VWS V14.01,2013-07-12 23:51:00,
2013-07-12 19:52:00,81.4,75.4,29.82,East,90,0.0,0.0,82,0.00,,---,0.00,VWS V14.01,2013-07-12 23:52:00,
2013-07-12 19:53:00,81.2,75.2,29.82,East,90,0.0,0.0,82,0.00,,---,0.00,VWS V14.01,2013-07-12 23:53:00,
2013-07-12 19:54:00,81.2,75.2,29.82,East,90,0.0,0.0,82,0.00,,---,0.00,VWS V14.01,2013-07-12 23:54:00,
2013-07-12 19:55:00,81.2,75.2,29.82,East,90,0.0,0.0,82,0.00,,---,0.00,VWS V14.01,2013-07-12 23:55:00,
2013-07-12 19:56:00,81.2,75.2,29.82,East,90,0.0,0.0,82,0.00,,---,0.00,VWS V14.01,2013-07-12 23:56:00,
2013-07-12 19:57:00,81.2,75.2,29.82,East,90,0.0,0.0,82,0.00,,---,0.00,VWS V14.01,2013-07-12 23:57:00,
2013-07-12 19:58:00,81.1,75.1,29.82,East,90,0.0,0.0,82,0.00,,---,0.00,VWS V14.01,2013-07-12 23:58:00,
2013-07-12 19:59:00,81.1,75.1,29.82,East,90,0.0,0.0,82,0.00,,---,0.00,VWS V14.01,2013-07-12 23:59:00,
2013-07-12 20:00:00,81.1,75.4,29.82,East,90,0.0,0.0,83,0.00,,---,0.00,VWS V14.01,2013-07-13 00:00:00,
2013-07-12 20:01:00,81.1,75.4,29.82,East,90,0.0,0.0,83,0.00,,---,0.00,VWS V14.01,2013-07-13 00:01:00,
2013-07-12 20:02:00,81.1,75.4,29.82,East,90,0.0,0.0,83,0.00,,---,0.00,VWS V14.01,2013-07-13 00:02:00,
2013-07-12 20:03:00,80.9,75.3,29.82,East,90,0.0,0.0,83,0.00,,---,0.00,VWS V14.01,2013-07-13 00:03:00,
2013-07-12 20:04:00,80.9,75.3,29.82,East,90,0.0,0.0,83,0.00,,---,0.00,VWS V14.01,2013-07-13 00:04:00,
2013-07-12 20:05:00,80.9,75.3,29.82,East,90,0.0,0.0,83,0.00,,---,0.00,VWS V14.01,2013-07-13 00:05:00,
2013-07-12 20:06:00,80.9,75.3,29.82,East,90,0.0,0.0,83,0.00,,---,0.00,VWS V14.01,2013-07-13 00:06:00,
2013-07-12 20:07:00,80.7,75.1,29.82,East,90,0.0,0.0,83,0.00,,---,0.00,VWS V14.01,2013-07-13 00:07:00,
2013-07-12 20:08:00,80.7,75.4,29.82,East,90,0.0,0.0,84,0.00,,---,0.00,VWS V14.01,2013-07-13 00:08:00,
2013-07-12 20:09:00,80.7,75.1,29.82,East,90,0.0,0.0,83,0.00,,---,0.00,VWS V14.01,2013-07-13 00:09:00,
2013-07-12 20:10:00,80.5,75.2,29.82,East,90,0.0,0.0,84,0.00,,---,0.00,VWS V14.01,2013-07-13 00:10:00,
2013-07-12 20:11:00,80.5,75.2,29.82,East,90,0.0,0.0,84,0.00,,---,0.00,VWS V14.01,2013-07-13 00:11:00,
2013-07-12 20:12:00,80.5,75.2,29.82,East,90,0.0,0.0,84,0.00,,---,0.00,VWS V14.01,2013-07-13 00:12:00,
2013-07-12 20:13:00,80.3,75.0,29.82,East,90,0.0,0.0,84,0.00,,---,0.00,VWS V14.01,2013-07-13 00:13:00,
2013-07-12 20:14:00,80.1,74.8,29.82,East,90,0.0,0.0,84,0.00,,---,0.00,VWS V14.01,2013-07-13 00:14:00,
2013-07-12 20:15:00,80.1,74.8,29.82,East,90,0.0,0.0,84,0.00,,---,0.00,VWS V14.01,2013-07-13 00:15:00,
2013-07-12 20:16:00,79.9,74.6,29.82,East,90,0.0,0.0,84,0.00,,---,0.00,VWS V14.01,2013-07-13 00:16:00,
2013-07-12 20:17:00,79.9,74.6,29.82,East,90,0.0,0.0,84,0.00,,---,0.00,VWS V14.01,2013-07-13 00:17:00,
2013-07-12 20:18:00,79.8,74.5,29.82,East,90,0.0,0.0,84,0.00,,---,0.00,VWS V14.01,2013-07-13 00:18:00,
2013-07-12 20:19:00,79.8,74.5,29.82,East,90,0.0,0.0,84,0.00,,---,0.00,VWS V14.01,2013-07-13 00:19:00,
2013-07-12 20:20:00,79.8,74.5,29.82,East,90,0.0,0.0,84,0.00,,---,0.00,VWS V14.01,2013-07-13 00:20:00,
2013-07-12 20:21:00,79.8,74.5,29.82,East,90,0.0,0.0,84,0.00,,---,0.00,VWS V14.01,2013-07-13 00:21:00,
2013-07-12 20:22:00,79.8,74.5,29.82,East,90,0.0,0.0,84,0.00,,---,0.00,VWS V14.01,2013-07-13 00:22:00,
2013-07-12 20:23:00,79.6,74.7,29.82,East,90,0.0,0.0,85,0.00,,---,0.00,VWS V14.01,2013-07-13 00:23:00,
2013-07-12 20:24:00,79.6,74.7,29.82,East,90,0.0,0.0,85,0.00,,---,0.00,VWS V14.01,2013-07-13 00:24:00,
2013-07-12 20:25:00,79.6,74.7,29.82,East,90,0.0,0.0,85,0.00,,---,0.00,VWS V14.01,2013-07-13 00:25:00,
2013-07-12 20:26:00,79.6,74.7,29.82,East,90,0.0,0.0,85,0.00,,---,0.00,VWS V14.01,2013-07-13 00:26:00,
2013-07-12 20:27:00,79.4,74.8,29.82,East,90,0.0,0.0,86,0.00,,---,0.00,VWS V14.01,2013-07-13 00:27:00,
2013-07-12 20:28:00,79.4,74.8,29.82,East,90,0.0,0.0,86,0.00,,---,0.00,VWS V14.01,2013-07-13 00:28:00,
2013-07-12 20:29:00,79.4,74.8,29.82,East,90,0.0,0.0,86,0.00,,---,0.00,VWS V14.01,2013-07-13 00:29:00,
2013-07-12 20:30:00,79.4,74.8,29.82,East,90,0.0,0.0,86,0.00,,---,0.00,VWS V14.01,2013-07-13 00:30:00,
2013-07-12 20:31:00,79.2,74.7,29.82,East,90,0.0,0.0,86,0.00,,---,0.00,VWS V14.01,2013-07-13 00:31:00,
2013-07-12 20:32:00,79.2,74.7,29.82,East,90,0.0,0.0,86,0.00,,---,0.00,VWS V14.01,2013-07-13 00:32:00,
2013-07-12 20:33:00,79.2,74.7,29.82,East,90,0.0,0.0,86,0.00,,---,0.00,VWS V14.01,2013-07-13 00:33:00,
2013-07-12 20:34:00,79.2,75.0,29.82,East,90,0.0,0.0,87,0.00,,---,0.00,VWS V14.01,2013-07-13 00:34:00,
2013-07-12 20:35:00,79.2,75.0,29.82,East,90,0.0,0.0,87,0.00,,---,0.00,VWS V14.01,2013-07-13 00:35:00,
2013-07-12 20:36:00,79.2,75.0,29.82,East,90,0.0,0.0,87,0.00,,---,0.00,VWS V14.01,2013-07-13 00:36:00,
2013-07-12 20:37:00,79.2,75.0,29.82,East,90,0.0,0.0,87,0.00,,---,0.00,VWS V14.01,2013-07-13 00:37:00,
2013-07-12 20:38:00,79.2,75.0,29.82,East,90,0.0,0.0,87,0.00,,---,0.00,VWS V14.01,2013-07-13 00:38:00,
2013-07-12 20:39:00,79.2,75.0,29.82,East,90,0.0,0.0,87,0.00,,---,0.00,VWS V14.01,2013-07-13 00:39:00,
2013-07-12 20:40:00,79.0,74.8,29.82,East,90,0.0,0.0,87,0.00,,---,0.00,VWS V14.01,2013-07-13 00:40:00,
2013-07-12 20:41:00,79.0,74.8,29.82,East,90,0.0,0.0,87,0.00,,---,0.00,VWS V14.01,2013-07-13 00:41:00,
2013-07-12 20:42:00,79.0,74.8,29.82,East,90,0.0,0.0,87,0.00,,---,0.00,VWS V14.01,2013-07-13 00:42:00,
2013-07-12 20:43:00,79.0,74.8,29.82,East,90,0.0,0.0,87,0.00,,---,0.00,VWS V14.01,2013-07-13 00:43:00,
2013-07-12 20:44:00,79.0,74.8,29.82,East,90,0.0,0.0,87,0.00,,---,0.00,VWS V14.01,2013-07-13 00:44:00,
2013-07-12 20:45:00,79.0,74.8,29.83,East,90,0.0,0.0,87,0.00,,---,0.00,VWS V14.01,2013-07-13 00:45:00,
2013-07-12 20:46:00,79.0,74.8,29.83,East,90,0.0,0.0,87,0.00,,---,0.00,VWS V14.01,2013-07-13 00:46:00,
2013-07-12 20:47:00,78.8,74.9,29.83,East,90,0.0,0.0,88,0.00,,---,0.00,VWS V14.01,2013-07-13 00:47:00,
2013-07-12 20:48:00,78.8,74.9,29.83,East,90,0.0,0.0,88,0.00,,---,0.00,VWS V14.01,2013-07-13 00:48:00,
2013-07-12 20:49:00,78.8,74.9,29.83,East,90,0.0,0.0,88,0.00,,---,0.00,VWS V14.01,2013-07-13 00:49:00,
2013-07-12 20:50:00,78.8,74.9,29.83,East,90,0.0,0.0,88,0.00,,---,0.00,VWS V14.01,2013-07-13 00:50:00,
2013-07-12 20:51:00,78.6,74.8,29.83,East,90,0.0,0.0,88,0.00,,---,0.00,VWS V14.01,2013-07-13 00:51:00,
2013-07-12 20:52:00,78.6,74.8,29.83,East,90,0.0,0.0,88,0.00,,---,0.00,VWS V14.01,2013-07-13 00:52:00,
2013-07-12 20:53:00,78.6,75.1,29.83,East,90,0.0,0.0,89,0.00,,---,0.00,VWS V14.01,2013-07-13 00:53:00,
2013-07-12 20:54:00,78.6,75.1,29.83,East,90,0.0,0.0,89,0.00,,---,0.00,VWS V14.01,2013-07-13 00:54:00,
2013-07-12 20:55:00,78.6,75.1,29.83,East,90,0.0,0.0,89,0.00,,---,0.00,VWS V14.01,2013-07-13 00:55:00,
2013-07-12 20:56:00,78.5,75.0,29.83,East,90,0.0,0.0,89,0.00,,---,0.00,VWS V14.01,2013-07-13 00:56:00,
2013-07-12 20:57:00,78.5,75.0,29.83,East,90,0.0,0.0,89,0.00,,---,0.00,VWS V14.01,2013-07-13 00:57:00,
2013-07-12 20:58:00,78.5,75.0,29.83,East,90,0.0,0.0,89,0.00,,---,0.00,VWS V14.01,2013-07-13 00:58:00,
2013-07-12 20:59:00,78.5,75.0,29.83,East,90,0.0,0.0,89,0.00,,---,0.00,VWS V14.01,2013-07-13 00:59:00,
2013-07-12 21:00:00,78.5,75.0,29.83,East,90,0.0,0.0,89,0.00,,---,0.00,VWS V14.01,2013-07-13 01:00:00,
2013-07-12 21:01:00,78.5,75.0,29.83,East,90,0.0,0.0,89,0.00,,---,0.00,VWS V14.01,2013-07-13 01:01:00,
2013-07-12 21:02:00,78.3,74.8,29.83,East,90,0.0,0.0,89,0.00,,---,0.00,VWS V14.01,2013-07-13 01:02:00,
2013-07-12 21:03:00,78.3,74.8,29.83,East,90,0.0,0.0,89,0.00,,---,0.00,VWS V14.01,2013-07-13 01:03:00,
2013-07-12 21:04:00,78.3,74.8,29.83,East,90,0.0,0.0,89,0.00,,---,0.00,VWS V14.01,2013-07-13 01:04:00,
2013-07-12 21:05:00,78.3,75.1,29.83,East,90,0.0,0.0,90,0.00,,---,0.00,VWS V14.01,2013-07-13 01:05:00,
2013-07-12 21:06:00,78.3,75.1,29.83,East,90,0.0,0.0,90,0.00,,---,0.00,VWS V14.01,2013-07-13 01:06:00,
2013-07-12 21:07:00,78.3,75.1,29.83,East,90,0.0,0.0,90,0.00,,---,0.00,VWS V14.01,2013-07-13 01:07:00,
2013-07-12 21:08:00,78.3,75.1,29.83,East,90,0.0,0.0,90,0.00,,---,0.00,VWS V14.01,2013-07-13 01:08:00,
2013-07-12 21:09:00,78.3,75.1,29.83,East,90,0.0,0.0,90,0.00,,---,0.00,VWS V14.01,2013-07-13 01:09:00,
2013-07-12 21:10:00,78.1,74.9,29.83,East,90,0.0,0.0,90,0.00,,---,0.00,VWS V14.01,2013-07-13 01:10:00,
2013-07-12 21:11:00,78.1,74.9,29.83,East,90,0.0,0.0,90,0.00,,---,0.00,VWS V14.01,2013-07-13 01:11:00,
2013-07-12 21:12:00,78.1,74.9,29.83,East,90,0.0,0.0,90,0.00,,---,0.00,VWS V14.01,2013-07-13 01:12:00,
2013-07-12 21:13:00,78.1,74.9,29.83,East,90,0.0,0.0,90,0.00,,---,0.00,VWS V14.01,2013-07-13 01:13:00,
2013-07-12 21:14:00,78.1,74.9,29.83,East,90,0.0,0.0,90,0.00,,---,0.00,VWS V14.01,2013-07-13 01:14:00,
2013-07-12 21:15:00,78.1,74.9,29.84,East,90,0.0,0.0,90,0.00,,---,0.00,VWS V14.01,2013-07-13 01:15:00,
2013-07-12 21:16:00,78.1,74.9,29.84,East,90,0.0,0.0,90,0.00,,---,0.00,VWS V14.01,2013-07-13 01:16:00,
2013-07-12 21:17:00,78.1,74.9,29.84,East,90,0.0,0.0,90,0.00,,---,0.00,VWS V14.01,2013-07-13 01:17:00,
2013-07-12 21:18:00,77.9,74.7,29.84,East,90,0.0,0.0,90,0.00,,---,0.00,VWS V14.01,2013-07-13 01:18:00,
2013-07-12 21:19:00,77.9,74.7,29.84,East,90,0.0,0.0,90,0.00,,---,0.00,VWS V14.01,2013-07-13 01:19:00,
2013-07-12 21:20:00,77.9,74.7,29.84,East,90,0.0,0.0,90,0.00,,---,0.00,VWS V14.01,2013-07-13 01:20:00,
2013-07-12 21:21:00,77.9,74.7,29.84,East,90,0.0,0.0,90,0.00,,---,0.00,VWS V14.01,2013-07-13 01:21:00,
2013-07-12 21:22:00,77.9,75.1,29.84,East,90,0.0,0.0,91,0.00,,---,0.00,VWS V14.01,2013-07-13 01:22:00,
2013-07-12 21:23:00,77.9,75.1,29.84,East,90,0.0,0.0,91,0.00,,---,0.00,VWS V14.01,2013-07-13 01:23:00,
2013-07-12 21:24:00,77.9,75.1,29.84,East,90,0.0,0.0,91,0.00,,---,0.00,VWS V14.01,2013-07-13 01:24:00,
2013-07-12 21:25:00,77.7,74.9,29.84,East,90,0.0,0.0,91,0.00,,---,0.00,VWS V14.01,2013-07-13 01:25:00,
2013-07-12 21:26:00,77.7,74.9,29.84,East,90,0.0,0.0,91,0.00,,---,0.00,VWS V14.01,2013-07-13 01:26:00,
2013-07-12 21:27:00,77.7,74.9,29.84,East,90,0.0,0.0,91,0.00,,---,0.00,VWS V14.01,2013-07-13 01:27:00,
2013-07-12 21:28:00,77.7,74.9,29.84,East,90,0.0,0.0,91,0.00,,---,0.00,VWS V14.01,2013-07-13 01:28:00,
2013-07-12 21:29:00,77.6,75.1,29.84,East,90,0.0,0.0,92,0.00,,---,0.00,VWS V14.01,2013-07-13 01:29:00,
2013-07-12 21:30:00,77.6,75.1,29.84,East,90,0.0,0.0,92,0.00,,---,0.00,VWS V14.01,2013-07-13 01:30:00,
2013-07-12 21:31:00,77.6,75.1,29.84,East,90,0.0,0.0,92,0.00,,---,0.00,VWS V14.01,2013-07-13 01:31:00,
2013-07-12 21:32:00,77.4,74.9,29.84,East,90,0.0,0.0,92,0.00,,---,0.00,VWS V14.01,2013-07-13 01:32:00,
2013-07-12 21:33:00,77.4,74.9,29.84,East,90,0.0,0.0,92,0.00,,---,0.00,VWS V14.01,2013-07-13 01:33:00,
2013-07-12 21:34:00,77.4,74.9,29.84,East,90,0.0,0.0,92,0.00,,---,0.00,VWS V14.01,2013-07-13 01:34:00,
2013-07-12 21:35:00,77.2,75.0,29.84,East,90,0.0,0.0,93,0.00,,---,0.00,VWS V14.01,2013-07-13 01:35:00,
2013-07-12 21:36:00,77.2,75.0,29.84,East,90,0.0,0.0,93,0.00,,---,0.00,VWS V14.01,2013-07-13 01:36:00,
2013-07-12 21:37:00,77.0,74.8,29.84,East,90,0.0,0.0,93,0.00,,---,0.00,VWS V14.01,2013-07-13 01:37:00,
2013-07-12 21:38:00,77.0,74.8,29.84,East,90,0.0,0.0,93,0.00,,---,0.00,VWS V14.01,2013-07-13 01:38:00,
2013-07-12 21:39:00,77.0,74.8,29.84,East,90,0.0,0.0,93,0.00,,---,0.00,VWS V14.01,2013-07-13 01:39:00,
2013-07-12 21:40:00,77.0,74.8,29.84,East,90,0.0,0.0,93,0.00,,---,0.00,VWS V14.01,2013-07-13 01:40:00,
2013-07-12 21:41:00,76.8,74.9,29.84,East,90,0.0,0.0,94,0.00,,---,0.00,VWS V14.01,2013-07-13 01:41:00,
2013-07-12 21:42:00,76.8,74.9,29.84,East,90,0.0,0.0,94,0.00,,---,0.00,VWS V14.01,2013-07-13 01:42:00,
2013-07-12 21:43:00,76.8,74.9,29.84,East,90,0.0,0.0,94,0.00,,---,0.00,VWS V14.01,2013-07-13 01:43:00,
2013-07-12 21:44:00,76.8,74.9,29.84,East,90,0.0,0.0,94,0.00,,---,0.00,VWS V14.01,2013-07-13 01:44:00,
2013-07-12 21:45:00,76.8,74.9,29.84,East,90,0.0,0.0,94,0.00,,---,0.00,VWS V14.01,2013-07-13 01:45:00,
2013-07-12 21:46:00,76.8,74.9,29.84,East,90,0.0,0.0,94,0.00,,---,0.00,VWS V14.01,2013-07-13 01:46:00,
2013-07-12 21:47:00,76.8,74.9,29.84,East,90,0.0,0.0,94,0.00,,---,0.00,VWS V14.01,2013-07-13 01:47:00,
2013-07-12 21:48:00,76.8,74.9,29.84,East,90,0.0,0.0,94,0.00,,---,0.00,VWS V14.01,2013-07-13 01:48:00,
2013-07-12 21:49:00,76.8,74.9,29.84,East,90,0.0,0.0,94,0.00,,---,0.00,VWS V14.01,2013-07-13 01:49:00,
2013-07-12 21:50:00,76.8,74.9,29.84,East,90,0.0,0.0,94,0.00,,---,0.00,VWS V14.01,2013-07-13 01:50:00,
2013-07-12 21:51:00,76.8,74.9,29.84,East,90,0.0,0.0,94,0.00,,---,0.00,VWS V14.01,2013-07-13 01:51:00,
2013-07-12 21:52:00,76.8,74.9,29.84,East,90,0.0,0.0,94,0.00,,---,0.00,VWS V14.01,2013-07-13 01:52:00,
2013-07-12 21:53:00,76.8,75.3,29.84,East,90,0.0,0.0,95,0.00,,---,0.00,VWS V14.01,2013-07-13 01:53:00,
2013-07-12 21:54:00,77.3,75.8,29.84,ESE,121,0.0,0.0,95,0.00,,---,0.00,VWS V14.01,2013-07-13 01:54:00,
2013-07-12 21:55:00,77.3,73.5,29.84,ESE,121,0.0,0.0,88,0.00,,---,0.00,VWS V14.01,2013-07-13 01:55:00,
2013-07-12 21:56:00,77.3,73.5,29.84,ESE,121,0.0,0.0,88,0.00,,---,0.00,VWS V14.01,2013-07-13 01:56:00,
2013-07-12 21:57:00,77.2,73.4,29.84,ESE,121,0.0,0.0,88,0.00,,---,0.00,VWS V14.01,2013-07-13 01:57:00,
2013-07-12 21:58:00,77.2,73.4,29.84,ESE,121,0.0,0.0,88,0.00,,---,0.00,VWS V14.01,2013-07-13 01:58:00,
2013-07-12 21:59:00,77.2,73.4,29.84,ESE,121,0.0,0.0,88,0.00,,---,0.00,VWS V14.01,2013-07-13 01:59:00,
2013-07-12 22:00:00,77.2,73.4,29.85,ESE,121,0.0,0.0,88,0.00,,---,0.00,VWS V14.01,2013-07-13 02:00:00,
2013-07-12 22:01:00,77.2,73.4,29.85,ESE,121,0.0,0.0,88,0.00,,---,0.00,VWS V14.01,2013-07-13 02:01:00,
2013-07-12 22:02:00,77.2,73.4,29.85,ESE,121,0.0,0.0,88,0.00,,---,0.00,VWS V14.01,2013-07-13 02:02:00,
2013-07-12 22:03:00,77.2,73.7,29.85,ESE,121,0.0,0.0,89,0.00,,---,0.00,VWS V14.01,2013-07-13 02:03:00,
2013-07-12 22:04:00,77.1,73.6,29.85,ESE,121,0.0,0.0,89,0.00,,---,0.00,VWS V14.01,2013-07-13 02:04:00,
2013-07-12 22:05:00,77.1,73.6,29.85,ESE,121,0.0,0.0,89,0.00,,---,0.00,VWS V14.01,2013-07-13 02:05:00,
2013-07-12 22:06:00,77.1,73.6,29.85,ESE,121,0.0,0.0,89,0.00,,---,0.00,VWS V14.01,2013-07-13 02:06:00,
2013-07-12 22:07:00,77.2,73.7,29.85,ESE,121,0.0,0.0,89,0.00,,---,0.00,VWS V14.01,2013-07-13 02:07:00,
2013-07-12 22:08:00,77.1,73.6,29.85,ESE,121,0.0,0.0,89,0.00,,---,0.00,VWS V14.01,2013-07-13 02:08:00,
2013-07-12 22:09:00,77.2,73.7,29.85,ESE,121,0.0,0.0,89,0.00,,---,0.00,VWS V14.01,2013-07-13 02:09:00,
2013-07-12 22:10:00,77.2,73.7,29.85,ESE,121,0.0,0.0,89,0.00,,---,0.00,VWS V14.01,2013-07-13 02:10:00,
2013-07-12 22:11:00,77.0,73.5,29.85,East,90,0.0,0.0,89,0.00,,---,0.00,VWS V14.01,2013-07-13 02:11:00,
2013-07-12 22:12:00,77.0,75.5,29.85,East,90,0.0,0.0,95,0.00,,---,0.00,VWS V14.01,2013-07-13 02:12:00,
2013-07-12 22:13:00,77.0,75.5,29.85,East,90,0.0,0.0,95,0.00,,---,0.00,VWS V14.01,2013-07-13 02:13:00,
2013-07-12 22:14:00,77.0,75.5,29.85,East,90,0.0,0.0,95,0.00,,---,0.00,VWS V14.01,2013-07-13 02:14:00,
2013-07-12 22:15:00,77.0,75.5,29.86,East,90,0.0,0.0,95,0.00,,---,0.00,VWS V14.01,2013-07-13 02:15:00,
2013-07-12 22:16:00,77.0,75.5,29.86,East,90,0.0,0.0,95,0.00,,---,0.00,VWS V14.01,2013-07-13 02:16:00,
2013-07-12 22:17:00,77.0,75.5,29.86,East,90,0.0,0.0,95,0.00,,---,0.00,VWS V14.01,2013-07-13 02:17:00,
2013-07-12 22:18:00,77.0,75.5,29.86,East,90,0.0,0.0,95,0.00,,---,0.00,VWS V14.01,2013-07-13 02:18:00,
2013-07-12 22:19:00,77.0,75.5,29.86,East,90,0.0,0.0,95,0.00,,---,0.00,VWS V14.01,2013-07-13 02:19:00,
2013-07-12 22:20:00,77.0,75.5,29.86,East,90,0.0,0.0,95,0.00,,---,0.00,VWS V14.01,2013-07-13 02:20:00,
2013-07-12 22:21:00,77.0,75.5,29.86,East,90,0.0,0.0,95,0.00,,---,0.00,VWS V14.01,2013-07-13 02:21:00,
2013-07-12 22:22:00,77.0,75.5,29.86,East,90,0.0,0.0,95,0.00,,---,0.00,VWS V14.01,2013-07-13 02:22:00,
2013-07-12 22:23:00,77.0,75.5,29.86,East,90,0.0,0.0,95,0.00,,---,0.00,VWS V14.01,2013-07-13 02:23:00,
2013-07-12 22:24:00,77.0,75.5,29.86,East,90,0.0,0.0,95,0.00,,---,0.00,VWS V14.01,2013-07-13 02:24:00,
2013-07-12 22:25:00,77.0,75.5,29.86,East,90,0.0,0.0,95,0.00,,---,0.00,VWS V14.01,2013-07-13 02:25:00,
2013-07-12 22:26:00,77.0,75.5,29.86,East,90,0.0,0.0,95,0.00,,---,0.00,VWS V14.01,2013-07-13 02:26:00,
2013-07-12 22:27:00,77.0,75.5,29.86,East,90,0.0,0.0,95,0.00,,---,0.00,VWS V14.01,2013-07-13 02:27:00,
2013-07-12 22:28:00,77.0,75.5,29.86,East,90,0.0,0.0,95,0.00,,---,0.00,VWS V14.01,2013-07-13 02:28:00,
2013-07-12 22:29:00,77.0,75.5,29.86,East,90,0.0,0.0,95,0.00,,---,0.00,VWS V14.01,2013-07-13 02:29:00,
2013-07-12 22:30:00,77.0,75.5,29.86,East,90,0.0,0.0,95,0.00,,---,0.00,VWS V14.01,2013-07-13 02:30:00,
2013-07-12 22:31:00,77.0,75.5,29.86,East,90,0.0,0.0,95,0.00,,---,0.00,VWS V14.01,2013-07-13 02:31:00,
2013-07-12 22:32:00,76.8,75.6,29.86,East,90,0.0,0.0,96,0.00,,---,0.00,VWS V14.01,2013-07-13 02:32:00,
2013-07-12 22:33:00,76.8,75.6,29.86,East,90,0.0,0.0,96,0.00,,---,0.00,VWS V14.01,2013-07-13 02:33:00,
2013-07-12 22:34:00,76.8,75.6,29.86,East,90,0.0,0.0,96,0.00,,---,0.00,VWS V14.01,2013-07-13 02:34:00,
2013-07-12 22:35:00,76.8,75.6,29.86,East,90,0.0,0.0,96,0.00,,---,0.00,VWS V14.01,2013-07-13 02:35:00,
2013-07-12 22:36:00,76.8,75.6,29.86,East,90,0.0,0.0,96,0.00,,---,0.00,VWS V14.01,2013-07-13 02:36:00,
2013-07-12 22:37:00,76.8,75.6,29.86,East,90,0.0,0.0,96,0.00,,---,0.00,VWS V14.01,2013-07-13 02:37:00,
2013-07-12 22:38:00,76.8,75.6,29.86,East,90,0.0,0.0,96,0.00,,---,0.00,VWS V14.01,2013-07-13 02:38:00,
2013-07-12 22:39:00,76.8,75.6,29.86,East,90,0.0,0.0,96,0.00,,---,0.00,VWS V14.01,2013-07-13 02:39:00,
2013-07-12 22:40:00,76.8,75.6,29.86,East,90,0.0,0.0,96,0.00,,---,0.00,VWS V14.01,2013-07-13 02:40:00,
2013-07-12 22:41:00,76.8,75.6,29.86,East,90,0.0,0.0,96,0.00,,---,0.00,VWS V14.01,2013-07-13 02:41:00,
2013-07-12 22:42:00,76.8,75.6,29.86,East,90,0.0,0.0,96,0.00,,---,0.00,VWS V14.01,2013-07-13 02:42:00,
2013-07-12 22:43:00,76.8,75.6,29.86,East,90,0.0,0.0,96,0.00,,---,0.00,VWS V14.01,2013-07-13 02:43:00,
2013-07-12 22:44:00,76.8,75.6,29.86,East,90,0.0,0.0,96,0.00,,---,0.00,VWS V14.01,2013-07-13 02:44:00,
2013-07-12 22:45:00,76.8,75.6,29.86,East,90,0.0,0.0,96,0.00,,---,0.00,VWS V14.01,2013-07-13 02:45:00,
2013-07-12 22:46:00,76.8,75.6,29.86,East,90,0.0,0.0,96,0.00,,---,0.00,VWS V14.01,2013-07-13 02:46:00,
2013-07-12 22:47:00,76.8,75.6,29.86,East,90,0.0,0.0,96,0.00,,---,0.00,VWS V14.01,2013-07-13 02:47:00,
2013-07-12 22:48:00,76.8,75.6,29.86,East,90,0.0,0.0,96,0.00,,---,0.00,VWS V14.01,2013-07-13 02:48:00,
2013-07-12 22:49:00,76.8,75.6,29.86,East,90,0.0,0.0,96,0.00,,---,0.00,VWS V14.01,2013-07-13 02:49:00,
2013-07-12 22:50:00,76.8,75.6,29.86,East,90,0.0,0.0,96,0.00,,---,0.00,VWS V14.01,2013-07-13 02:50:00,
2013-07-12 22:51:00,76.8,75.6,29.86,East,90,0.0,0.0,96,0.00,,---,0.00,VWS V14.01,2013-07-13 02:51:00,
2013-07-12 22:52:00,76.8,75.6,29.86,East,90,0.0,0.0,96,0.00,,---,0.00,VWS V14.01,2013-07-13 02:52:00,
2013-07-12 22:53:00,76.8,75.6,29.86,East,90,0.0,0.0,96,0.00,,---,0.00,VWS V14.01,2013-07-13 02:53:00,
2013-07-12 22:54:00,76.8,75.9,29.86,East,90,0.0,0.0,97,0.00,,---,0.00,VWS V14.01,2013-07-13 02:54:00,
2013-07-12 22:55:00,76.8,75.9,29.86,East,90,0.0,0.0,97,0.00,,---,0.00,VWS V14.01,2013-07-13 02:55:00,
2013-07-12 22:56:00,76.8,75.9,29.86,East,90,0.0,0.0,97,0.00,,---,0.00,VWS V14.01,2013-07-13 02:56:00,
2013-07-12 22:57:00,76.8,75.9,29.86,East,90,0.0,0.0,97,0.00,,---,0.00,VWS V14.01,2013-07-13 02:57:00,
2013-07-12 22:58:00,76.8,75.9,29.86,East,90,0.0,0.0,97,0.00,,---,0.00,VWS V14.01,2013-07-13 02:58:00,
2013-07-12 22:59:00,76.8,75.9,29.86,East,90,0.0,0.0,97,0.00,,---,0.00,VWS V14.01,2013-07-13 02:59:00,
2013-07-12 23:00:00,76.8,75.9,29.87,East,90,0.0,0.0,97,0.00,,---,0.00,VWS V14.01,2013-07-13 03:00:00,
2013-07-12 23:01:00,76.8,75.9,29.87,East,90,0.0,0.0,97,0.00,,---,0.00,VWS V14.01,2013-07-13 03:01:00,
2013-07-12 23:02:00,76.8,75.9,29.87,East,90,0.0,0.0,97,0.00,,---,0.00,VWS V14.01,2013-07-13 03:02:00,
2013-07-12 23:03:00,76.8,75.9,29.87,East,90,0.0,0.0,97,0.00,,---,0.00,VWS V14.01,2013-07-13 03:03:00,
2013-07-12 23:04:00,76.8,75.9,29.87,East,90,0.0,0.0,97,0.00,,---,0.00,VWS V14.01,2013-07-13 03:04:00,
2013-07-12 23:05:00,76.8,75.9,29.87,East,90,0.0,0.0,97,0.00,,---,0.00,VWS V14.01,2013-07-13 03:05:00,
2013-07-12 23:06:00,77.0,76.1,29.87,East,90,0.0,0.0,97,0.00,,---,0.00,VWS V14.01,2013-07-13 03:06:00,
2013-07-12 23:07:00,77.0,76.4,29.87,East,94,0.0,0.0,98,0.00,,---,0.00,VWS V14.01,2013-07-13 03:07:00,
2013-07-12 23:08:00,76.8,75.6,29.87,East,98,0.0,0.0,96,0.00,,---,0.00,VWS V14.01,2013-07-13 03:08:00,
2013-07-12 23:09:00,76.7,75.5,29.87,East,98,0.0,0.0,96,0.00,,---,0.00,VWS V14.01,2013-07-13 03:09:00,
2013-07-12 23:10:00,76.7,75.5,29.87,East,98,0.0,0.0,96,0.00,,---,0.00,VWS V14.01,2013-07-13 03:10:00,
2013-07-12 23:11:00,76.7,75.5,29.87,East,98,0.0,0.0,96,0.00,,---,0.00,VWS V14.01,2013-07-13 03:11:00,
2013-07-12 23:12:00,76.7,75.5,29.87,East,98,0.0,0.0,96,0.00,,---,0.00,VWS V14.01,2013-07-13 03:12:00,
2013-07-12 23:13:00,76.7,75.5,29.87,East,99,0.0,0.0,96,0.00,,---,0.00,VWS V14.01,2013-07-13 03:13:00,
2013-07-12 23:14:00,76.7,75.2,29.87,East,99,0.0,0.0,95,0.00,,---,0.00,VWS V14.01,2013-07-13 03:14:00,
2013-07-12 23:15:00,76.5,74.7,29.87,East,100,0.0,0.0,94,0.00,,---,0.00,VWS V14.01,2013-07-13 03:15:00,
2013-07-12 23:16:00,76.5,74.7,29.87,East,100,0.0,0.0,94,0.00,,---,0.00,VWS V14.01,2013-07-13 03:16:00,
2013-07-12 23:17:00,76.3,74.4,29.87,ESE,107,0.0,0.0,94,0.00,,---,0.00,VWS V14.01,2013-07-13 03:17:00,
2013-07-12 23:18:00,76.3,74.1,29.87,ESE,108,0.0,0.0,93,0.00,,---,0.00,VWS V14.01,2013-07-13 03:18:00,
2013-07-12 23:19:00,76.3,74.1,29.87,ESE,111,0.0,0.0,93,0.00,,---,0.00,VWS V14.01,2013-07-13 03:19:00,
2013-07-12 23:20:00,76.1,73.9,29.87,ESE,111,0.0,0.0,93,0.00,,---,0.00,VWS V14.01,2013-07-13 03:20:00,
2013-07-12 23:21:00,76.1,73.9,29.87,ESE,111,0.0,0.0,93,0.00,,---,0.00,VWS V14.01,2013-07-13 03:21:00,
2013-07-12 23:22:00,76.1,73.9,29.87,ESE,111,0.0,0.0,93,0.00,,---,0.00,VWS V14.01,2013-07-13 03:22:00,
2013-07-12 23:23:00,76.0,73.8,29.87,ESE,111,0.0,0.0,93,0.00,,---,0.00,VWS V14.01,2013-07-13 03:23:00,
2013-07-12 23:24:00,76.0,73.8,29.87,ESE,111,0.0,0.0,93,0.00,,---,0.00,VWS V14.01,2013-07-13 03:24:00,
2013-07-12 23:25:00,76.0,73.8,29.87,ESE,111,0.0,0.0,93,0.00,,---,0.00,VWS V14.01,2013-07-13 03:25:00,
2013-07-12 23:26:00,76.0,73.8,29.87,ESE,111,0.0,0.0,93,0.00,,---,0.00,VWS V14.01,2013-07-13 03:26:00,
2013-07-12 23:27:00,75.8,73.6,29.87,ESE,111,0.0,0.0,93,0.00,,---,0.00,VWS V14.01,2013-07-13 03:27:00,
2013-07-12 23:28:00,75.8,73.9,29.87,ESE,111,0.0,0.0,94,0.00,,---,0.00,VWS V14.01,2013-07-13 03:28:00,
2013-07-12 23:29:00,75.8,73.9,29.87,ESE,111,0.0,0.0,94,0.00,,---,0.00,VWS V14.01,2013-07-13 03:29:00,
2013-07-12 23:30:00,75.8,73.9,29.87,ESE,111,0.0,0.0,94,0.00,,---,0.00,VWS V14.01,2013-07-13 03:30:00,
2013-07-12 23:31:00,75.6,73.8,29.87,ESE,111,0.0,0.0,94,0.00,,---,0.00,VWS V14.01,2013-07-13 03:31:00,
2013-07-12 23:32:00,75.6,73.8,29.87,ESE,111,0.0,0.0,94,0.00,,---,0.00,VWS V14.01,2013-07-13 03:32:00,
2013-07-12 23:33:00,75.6,73.8,29.87,ESE,111,0.0,0.0,94,0.00,,---,0.00,VWS V14.01,2013-07-13 03:33:00,
2013-07-12 23:34:00,75.6,73.8,29.87,ESE,111,0.0,0.0,94,0.00,,---,0.00,VWS V14.01,2013-07-13 03:34:00,
2013-07-12 23:35:00,75.4,73.6,29.87,ESE,111,0.0,0.0,94,0.00,,---,0.00,VWS V14.01,2013-07-13 03:35:00,
2013-07-12 23:36:00,75.4,73.9,29.87,ESE,111,0.0,0.0,95,0.00,,---,0.00,VWS V14.01,2013-07-13 03:36:00,
2013-07-12 23:37:00,75.4,73.9,29.87,ESE,111,0.0,0.0,95,0.00,,---,0.00,VWS V14.01,2013-07-13 03:37:00,
2013-07-12 23:38:00,75.4,73.6,29.87,ESE,111,0.0,0.0,94,0.00,,---,0.00,VWS V14.01,2013-07-13 03:38:00,
2013-07-12 23:39:00,75.3,73.5,29.87,ESE,111,0.0,0.0,94,0.00,,---,0.00,VWS V14.01,2013-07-13 03:39:00,
2013-07-12 23:40:00,75.3,73.5,29.87,ESE,111,0.0,0.0,94,0.00,,---,0.00,VWS V14.01,2013-07-13 03:40:00,
2013-07-12 23:41:00,75.3,73.5,29.87,ESE,111,0.0,0.0,94,0.00,,---,0.00,VWS V14.01,2013-07-13 03:41:00,
2013-07-12 23:42:00,75.1,73.3,29.87,ESE,111,0.0,0.0,94,0.00,,---,0.00,VWS V14.01,2013-07-13 03:42:00,
2013-07-12 23:43:00,75.1,73.6,29.87,ESE,111,0.0,0.0,95,0.00,,---,0.00,VWS V14.01,2013-07-13 03:43:00,
2013-07-12 23:44:00,75.1,73.6,29.87,ESE,111,0.0,0.0,95,0.00,,---,0.00,VWS V14.01,2013-07-13 03:44:00,
2013-07-12 23:45:00,75.1,73.6,29.87,ESE,111,0.0,0.0,95,0.00,,---,0.00,VWS V14.01,2013-07-13 03:45:00,
2013-07-12 23:46:00,75.1,73.6,29.87,ESE,111,0.0,0.0,95,0.00,,---,0.00,VWS V14.01,2013-07-13 03:46:00,
2013-07-12 23:47:00,75.1,73.6,29.87,ESE,111,0.0,0.0,95,0.00,,---,0.00,VWS V14.01,2013-07-13 03:47:00,
2013-07-12 23:48:00,74.9,73.4,29.87,ESE,111,0.0,0.0,95,0.00,,---,0.00,VWS V14.01,2013-07-13 03:48:00,
2013-07-12 23:49:00,74.9,73.4,29.87,ESE,111,0.0,0.0,95,0.00,,---,0.00,VWS V14.01,2013-07-13 03:49:00,
2013-07-12 23:50:00,74.9,73.4,29.87,ESE,111,0.0,0.0,95,0.00,,---,0.00,VWS V14.01,2013-07-13 03:50:00,
2013-07-12 23:51:00,74.9,73.4,29.87,ESE,111,0.0,0.0,95,0.00,,---,0.00,VWS V14.01,2013-07-13 03:51:00,
2013-07-12 23:52:00,74.7,73.2,29.87,ESE,111,0.0,0.0,95,0.00,,---,0.00,VWS V14.01,2013-07-13 03:52:00,
2013-07-12 23:53:00,74.7,73.2,29.87,ESE,111,0.0,0.0,95,0.00,,---,0.00,VWS V14.01,2013-07-13 03:53:00,
2013-07-12 23:54:00,74.7,73.2,29.87,ESE,111,0.0,0.0,95,0.00,,---,0.00,VWS V14.01,2013-07-13 03:54:00,
2013-07-12 23:55:00,74.7,73.2,29.87,ESE,111,0.0,0.0,95,0.00,,---,0.00,VWS V14.01,2013-07-13 03:55:00,
2013-07-12 23:56:00,74.7,73.2,29.87,ESE,111,0.0,0.0,95,0.00,,---,0.00,VWS V14.01,2013-07-13 03:56:00,
2013-07-12 23:57:00,74.7,73.2,29.87,ESE,111,0.0,0.0,95,0.00,,---,0.00,VWS V14.01,2013-07-13 03:57:00,
2013-07-12 23:58:00,74.7,73.2,29.87,ESE,111,0.0,0.0,95,0.00,,---,0.00,VWS V14.01,2013-07-13 03:58:00,
2013-07-12 23:59:00,74.7,73.2,29.87,ESE,111,0.0,0.0,95,0.00,,---,0.00,VWS V14.01,2013-07-13 03:59:00,